PWSweather.com
Personal Weather Stations
Station Observations
GHWX1
Golden Heights, Sturgeon County, AB T0A1N5

Golden HeightsSturgeon County, AB T0A1N5

Lat: 53.919, Lon: -113.37

Elevation: 2159

Station Type:

http://www.ghwx.ca

High Low Average
Temperature 52.5°F11.4°C 45.5°F7.5°C 47.8°F8.8°C
Dew Point 52.2°F11.2°C 44.5°F6.9°C 46.4°F8.0°C
Winds 22.0 mph 35.4 kmh Calm Calm 4.0 mph WSW6.4 kmh WSW
Wind Gusts -- -- --
Humidity 99% 86% 95%
Pressure 29.76 in1007.8 mb 29.64 in1003.7 mb -
Precipitation 0.64 in16.3 mm - -
Hour Temp Dew Point Humidity Winds Wind Gusts Pressure Precip Precip Rate Daily Precip Total
12:00 AM 51.9°F11.1°C 50.9°F10.5°C 96% Calm Calm -- 29.77 in1008.1 mb 0.00 in0.0 mm 0.00 in0.0 mm 0.00 in0.0 mm
12:01 AM 51.9°F11.1°C 50.9°F10.5°C 96% Calm Calm -- 29.77 in1008.1 mb 0.00 in0.0 mm 0.00 in0.0 mm 0.00 in0.0 mm
12:02 AM 51.9°F11.1°C 50.9°F10.5°C 96% Calm Calm -- 29.77 in1008.1 mb 0.00 in0.0 mm 0.00 in0.0 mm 0.00 in0.0 mm
12:04 AM 51.9°F11.1°C 50.9°F10.5°C 96% Calm Calm -- 29.77 in1008.1 mb 0.00 in0.0 mm 0.00 in0.0 mm 0.00 in0.0 mm
12:05 AM 51.9°F11.1°C 50.9°F10.5°C 96% Calm Calm -- 29.77 in1008.1 mb 0.00 in0.0 mm 0.00 in0.0 mm 0.00 in0.0 mm
12:06 AM 51.8°F11.0°C 50.7°F10.4°C 96% Calm Calm -- 29.77 in1008.1 mb 0.00 in0.0 mm 0.00 in0.0 mm 0.00 in0.0 mm
12:08 AM 51.8°F11.0°C 50.7°F10.4°C 96% Calm Calm -- 29.78 in1008.5 mb 0.00 in0.0 mm 0.00 in0.0 mm 0.00 in0.0 mm
12:09 AM 51.5°F10.8°C 50.3°F10.2°C 96% Calm Calm -- 29.77 in1008.1 mb 0.00 in0.0 mm 0.00 in0.0 mm 0.00 in0.0 mm
12:12 AM 51.6°F10.9°C 50.5°F10.3°C 96% Calm Calm -- 29.77 in1008.1 mb 0.00 in0.0 mm 0.00 in0.0 mm 0.00 in0.0 mm
12:13 AM 51.4°F10.8°C 50.3°F10.2°C 96% Calm Calm -- 29.77 in1008.1 mb 0.00 in0.0 mm 0.00 in0.0 mm 0.00 in0.0 mm
12:15 AM 51.3°F10.7°C 50.1°F10.1°C 96% Calm Calm -- 29.77 in1008.1 mb 0.00 in0.0 mm 0.00 in0.0 mm 0.00 in0.0 mm
12:16 AM 51.3°F10.7°C 50.1°F10.1°C 96% Calm Calm -- 29.77 in1008.1 mb 0.00 in0.0 mm 0.00 in0.0 mm 0.00 in0.0 mm
12:18 AM 51.3°F10.7°C 50.1°F10.1°C 96% Calm Calm -- 29.77 in1008.1 mb 0.00 in0.0 mm 0.00 in0.0 mm 0.00 in0.0 mm
12:21 AM 51.3°F10.7°C 50.1°F10.1°C 96% Calm Calm -- 29.77 in1008.1 mb 0.00 in0.0 mm 0.00 in0.0 mm 0.00 in0.0 mm
12:25 AM 51.3°F10.7°C 50.1°F10.1°C 96% Calm Calm -- 29.78 in1008.5 mb 0.00 in0.0 mm 0.00 in0.0 mm 0.00 in0.0 mm
12:27 AM 51.3°F10.7°C 50.1°F10.1°C 96% Calm Calm -- 29.77 in1008.1 mb 0.00 in0.0 mm 0.00 in0.0 mm 0.00 in0.0 mm
12:28 AM 51.0°F10.6°C 50.0°F10.0°C 96% Calm Calm -- 29.77 in1008.1 mb 0.00 in0.0 mm 0.00 in0.0 mm 0.00 in0.0 mm
12:30 AM 51.0°F10.6°C 50.0°F10.0°C 96% Calm Calm -- 29.77 in1008.1 mb 0.00 in0.0 mm 0.00 in0.0 mm 0.00 in0.0 mm
12:32 AM 51.1°F10.6°C 50.2°F10.1°C 97% Calm Calm -- 29.77 in1008.1 mb 0.00 in0.0 mm 0.00 in0.0 mm 0.00 in0.0 mm
12:33 AM 50.9°F10.5°C 49.8°F9.9°C 96% Calm Calm -- 29.77 in1008.1 mb 0.00 in0.0 mm 0.00 in0.0 mm 0.00 in0.0 mm
12:34 AM 50.9°F10.5°C 49.8°F9.9°C 96% Calm Calm -- 29.77 in1008.1 mb 0.00 in0.0 mm 0.00 in0.0 mm 0.00 in0.0 mm
12:35 AM 50.9°F10.5°C 49.8°F9.9°C 96% Calm Calm -- 29.77 in1008.1 mb 0.00 in0.0 mm 0.00 in0.0 mm 0.00 in0.0 mm
12:37 AM 50.7°F10.4°C 49.6°F9.8°C 96% Calm Calm -- 29.77 in1008.1 mb 0.00 in0.0 mm 0.00 in0.0 mm 0.00 in0.0 mm
12:40 AM 50.7°F10.4°C 49.6°F9.8°C 96% Calm Calm -- 29.76 in1007.8 mb 0.00 in0.0 mm 0.00 in0.0 mm 0.00 in0.0 mm
12:45 AM 50.7°F10.4°C 49.6°F9.8°C 96% Calm Calm -- 29.76 in1007.8 mb 0.00 in0.0 mm 0.00 in0.0 mm 0.00 in0.0 mm
12:49 AM 50.7°F10.4°C 49.6°F9.8°C 96% Calm Calm -- 29.76 in1007.8 mb 0.00 in0.0 mm 0.00 in0.0 mm 0.00 in0.0 mm
12:52 AM 50.7°F10.4°C 49.9°F9.9°C 97% Calm Calm -- 29.76 in1007.8 mb 0.00 in0.0 mm 0.00 in0.0 mm 0.00 in0.0 mm
12:53 AM 50.7°F10.4°C 49.6°F9.8°C 96% Calm Calm -- 29.76 in1007.8 mb 0.00 in0.0 mm 0.00 in0.0 mm 0.00 in0.0 mm
12:55 AM 50.7°F10.4°C 49.6°F9.8°C 96% Calm Calm -- 29.75 in1007.5 mb 0.00 in0.0 mm 0.00 in0.0 mm 0.00 in0.0 mm
12:56 AM 50.5°F10.3°C 49.4°F9.7°C 96% Calm Calm -- 29.76 in1007.8 mb 0.00 in0.0 mm 0.00 in0.0 mm 0.00 in0.0 mm
12:58 AM 50.5°F10.3°C 49.4°F9.7°C 96% Calm Calm -- 29.76 in1007.8 mb 0.00 in0.0 mm 0.00 in0.0 mm 0.00 in0.0 mm
01:04 AM 50.5°F10.3°C 49.4°F9.7°C 96% Calm Calm -- 29.75 in1007.5 mb 0.00 in0.0 mm 0.00 in0.0 mm 0.00 in0.0 mm
01:05 AM 50.5°F10.3°C 49.4°F9.7°C 96% Calm Calm -- 29.75 in1007.5 mb 0.00 in0.0 mm 0.00 in0.0 mm 0.00 in0.0 mm
01:07 AM 50.5°F10.3°C 49.4°F9.7°C 96% Calm Calm -- 29.75 in1007.5 mb 0.00 in0.0 mm 0.00 in0.0 mm 0.00 in0.0 mm
01:10 AM 50.5°F10.3°C 49.4°F9.7°C 96% Calm Calm -- 29.76 in1007.8 mb 0.00 in0.0 mm 0.00 in0.0 mm 0.00 in0.0 mm
01:11 AM 50.5°F10.3°C 49.4°F9.7°C 96% Calm Calm -- 29.75 in1007.5 mb 0.00 in0.0 mm 0.00 in0.0 mm 0.00 in0.0 mm
01:12 AM 50.5°F10.3°C 49.4°F9.7°C 96% Calm Calm -- 29.76 in1007.8 mb 0.00 in0.0 mm 0.00 in0.0 mm 0.00 in0.0 mm
01:13 AM 50.5°F10.3°C 49.4°F9.7°C 96% Calm Calm -- 29.76 in1007.8 mb 0.00 in0.0 mm 0.00 in0.0 mm 0.00 in0.0 mm
01:14 AM 50.3°F10.2°C 49.2°F9.6°C 96% Calm Calm -- 29.76 in1007.8 mb 0.00 in0.0 mm 0.00 in0.0 mm 0.00 in0.0 mm
01:15 AM 50.3°F10.2°C 49.2°F9.6°C 96% Calm Calm -- 29.76 in1007.8 mb 0.00 in0.0 mm 0.00 in0.0 mm 0.00 in0.0 mm
01:17 AM 50.4°F10.2°C 49.5°F9.7°C 97% Calm Calm -- 29.76 in1007.8 mb 0.00 in0.0 mm 0.00 in0.0 mm 0.00 in0.0 mm
01:18 AM 50.1°F10.1°C 49.1°F9.5°C 96% Calm Calm -- 29.76 in1007.8 mb 0.00 in0.0 mm 0.00 in0.0 mm 0.00 in0.0 mm
01:22 AM 50.1°F10.1°C 49.1°F9.5°C 96% Calm Calm -- 29.75 in1007.5 mb 0.00 in0.0 mm 0.00 in0.0 mm 0.00 in0.0 mm
01:23 AM 50.1°F10.1°C 49.1°F9.5°C 96% Calm Calm -- 29.75 in1007.5 mb 0.00 in0.0 mm 0.00 in0.0 mm 0.00 in0.0 mm
01:24 AM 50.1°F10.1°C 49.1°F9.5°C 96% Calm Calm -- 29.76 in1007.8 mb 0.00 in0.0 mm 0.00 in0.0 mm 0.00 in0.0 mm
01:25 AM 50.1°F10.1°C 49.6°F9.8°C 98% Calm Calm -- 29.75 in1007.5 mb 0.00 in0.0 mm 0.00 in0.0 mm 0.00 in0.0 mm
01:26 AM 50.1°F10.1°C 49.6°F9.8°C 98% Calm Calm -- 29.75 in1007.5 mb 0.00 in0.0 mm 0.00 in0.0 mm 0.00 in0.0 mm
01:27 AM 50.3°F10.2°C 49.8°F9.9°C 98% Calm Calm -- 29.75 in1007.5 mb 0.00 in0.0 mm 0.00 in0.0 mm 0.00 in0.0 mm
01:28 AM 50.3°F10.2°C 49.8°F9.9°C 98% Calm Calm -- 29.76 in1007.8 mb 0.00 in0.0 mm 0.00 in0.0 mm 0.00 in0.0 mm
01:32 AM 50.4°F10.2°C 49.8°F9.9°C 98% 2.0 mph WSW3.2 kmh WSW -- 29.76 in1007.8 mb 0.00 in0.0 mm 0.00 in0.0 mm 0.00 in0.0 mm
01:33 AM 50.5°F10.3°C 50.0°F10.0°C 98% Calm Calm -- 29.76 in1007.8 mb 0.00 in0.0 mm 0.00 in0.0 mm 0.00 in0.0 mm
01:35 AM 50.5°F10.3°C 50.0°F10.0°C 98% 2.0 mph W3.2 kmh W -- 29.76 in1007.8 mb 0.00 in0.0 mm 0.00 in0.0 mm 0.00 in0.0 mm
01:36 AM 50.5°F10.3°C 50.0°F10.0°C 98% 1.0 mph W1.6 kmh W -- 29.76 in1007.8 mb 0.00 in0.0 mm 0.00 in0.0 mm 0.00 in0.0 mm
01:37 AM 50.5°F10.3°C 50.0°F10.0°C 98% Calm Calm -- 29.76 in1007.8 mb 0.00 in0.0 mm 0.00 in0.0 mm 0.00 in0.0 mm
01:41 AM 50.5°F10.3°C 50.0°F10.0°C 98% 1.0 mph W1.6 kmh W -- 29.76 in1007.8 mb 0.00 in0.0 mm 0.00 in0.0 mm 0.00 in0.0 mm
01:42 AM 50.5°F10.3°C 50.0°F10.0°C 98% Calm Calm -- 29.76 in1007.8 mb 0.00 in0.0 mm 0.00 in0.0 mm 0.00 in0.0 mm
01:46 AM 50.7°F10.4°C 50.2°F10.1°C 98% Calm Calm -- 29.76 in1007.8 mb 0.00 in0.0 mm 0.00 in0.0 mm 0.00 in0.0 mm
01:53 AM 50.5°F10.3°C 50.0°F10.0°C 98% Calm Calm -- 29.76 in1007.8 mb 0.00 in0.0 mm 0.00 in0.0 mm 0.00 in0.0 mm
01:54 AM 50.5°F10.3°C 50.0°F10.0°C 98% Calm Calm -- 29.76 in1007.8 mb 0.00 in0.0 mm 0.00 in0.0 mm 0.00 in0.0 mm
01:56 AM 50.5°F10.3°C 50.0°F10.0°C 98% Calm Calm -- 29.76 in1007.8 mb 0.00 in0.0 mm 0.00 in0.0 mm 0.00 in0.0 mm
01:59 AM 50.5°F10.3°C 50.0°F10.0°C 98% Calm Calm -- 29.76 in1007.8 mb 0.00 in0.0 mm 0.00 in0.0 mm 0.00 in0.0 mm
02:00 AM 50.5°F10.3°C 50.0°F10.0°C 98% Calm Calm -- 29.76 in1007.8 mb 0.00 in0.0 mm 0.00 in0.0 mm 0.00 in0.0 mm
02:03 AM 50.5°F10.3°C 50.0°F10.0°C 98% Calm Calm -- 29.76 in1007.8 mb 0.00 in0.0 mm 0.00 in0.0 mm 0.00 in0.0 mm
02:04 AM 50.7°F10.4°C 50.2°F10.1°C 98% Calm Calm -- 29.76 in1007.8 mb 0.00 in0.0 mm 0.00 in0.0 mm 0.00 in0.0 mm
02:05 AM 50.7°F10.4°C 50.2°F10.1°C 98% Calm Calm -- 29.76 in1007.8 mb 0.00 in0.0 mm 0.00 in0.0 mm 0.00 in0.0 mm
02:06 AM 50.7°F10.4°C 50.2°F10.1°C 98% Calm Calm -- 29.76 in1007.8 mb 0.00 in0.0 mm 0.00 in0.0 mm 0.00 in0.0 mm
02:07 AM 50.9°F10.5°C 50.3°F10.2°C 98% Calm Calm -- 29.76 in1007.8 mb 0.00 in0.0 mm 0.00 in0.0 mm 0.00 in0.0 mm
02:08 AM 50.9°F10.5°C 50.3°F10.2°C 98% Calm Calm -- 29.76 in1007.8 mb 0.00 in0.0 mm 0.00 in0.0 mm 0.00 in0.0 mm
02:13 AM 50.7°F10.4°C 50.2°F10.1°C 98% Calm Calm -- 29.76 in1007.8 mb 0.00 in0.0 mm 0.00 in0.0 mm 0.00 in0.0 mm
02:17 AM 50.7°F10.4°C 50.2°F10.1°C 98% Calm Calm -- 29.75 in1007.5 mb 0.00 in0.0 mm 0.00 in0.0 mm 0.00 in0.0 mm
02:18 AM 50.5°F10.3°C 50.0°F10.0°C 98% Calm Calm -- 29.76 in1007.8 mb 0.00 in0.0 mm 0.00 in0.0 mm 0.00 in0.0 mm
02:21 AM 50.3°F10.2°C 49.8°F9.9°C 98% Calm Calm -- 29.76 in1007.8 mb 0.00 in0.0 mm 0.00 in0.0 mm 0.00 in0.0 mm
02:23 AM 50.1°F10.1°C 49.6°F9.8°C 98% Calm Calm -- 29.76 in1007.8 mb 0.00 in0.0 mm 0.00 in0.0 mm 0.00 in0.0 mm
02:24 AM 50.1°F10.1°C 49.6°F9.8°C 98% Calm Calm -- 29.76 in1007.8 mb 0.00 in0.0 mm 0.00 in0.0 mm 0.00 in0.0 mm
02:25 AM 50.1°F10.1°C 49.6°F9.8°C 98% Calm Calm -- 29.76 in1007.8 mb 0.00 in0.0 mm 0.00 in0.0 mm 0.00 in0.0 mm
02:26 AM 50.1°F10.1°C 49.6°F9.8°C 98% Calm Calm -- 29.76 in1007.8 mb 0.00 in0.0 mm 0.00 in0.0 mm 0.00 in0.0 mm
02:27 AM 50.1°F10.1°C 49.6°F9.8°C 98% Calm Calm -- 29.76 in1007.8 mb 0.00 in0.0 mm 0.00 in0.0 mm 0.00 in0.0 mm
02:28 AM 50.1°F10.1°C 49.6°F9.8°C 98% Calm Calm -- 29.76 in1007.8 mb 0.00 in0.0 mm 0.00 in0.0 mm 0.00 in0.0 mm
02:32 AM 50.0°F10.0°C 49.5°F9.7°C 98% Calm Calm -- 29.76 in1007.8 mb 0.00 in0.0 mm 0.00 in0.0 mm 0.00 in0.0 mm
02:33 AM 50.0°F10.0°C 49.5°F9.7°C 98% Calm Calm -- 29.76 in1007.8 mb 0.00 in0.0 mm 0.00 in0.0 mm 0.00 in0.0 mm
02:38 AM 49.8°F9.9°C 49.3°F9.6°C 98% Calm Calm -- 29.76 in1007.8 mb 0.00 in0.0 mm 0.00 in0.0 mm 0.00 in0.0 mm
02:42 AM 49.8°F9.9°C 49.3°F9.6°C 98% Calm Calm -- 29.76 in1007.8 mb 0.00 in0.0 mm 0.00 in0.0 mm 0.00 in0.0 mm
02:43 AM 49.6°F9.8°C 49.1°F9.5°C 98% Calm Calm -- 29.75 in1007.5 mb 0.00 in0.0 mm 0.00 in0.0 mm 0.00 in0.0 mm
02:44 AM 49.6°F9.8°C 49.1°F9.5°C 98% Calm Calm -- 29.76 in1007.8 mb 0.00 in0.0 mm 0.00 in0.0 mm 0.00 in0.0 mm
02:46 AM 49.6°F9.8°C 49.1°F9.5°C 98% Calm Calm -- 29.75 in1007.5 mb 0.00 in0.0 mm 0.00 in0.0 mm 0.00 in0.0 mm
02:48 AM 49.8°F9.9°C 49.3°F9.6°C 98% Calm Calm -- 29.76 in1007.8 mb 0.00 in0.0 mm 0.00 in0.0 mm 0.00 in0.0 mm
02:49 AM 49.8°F9.9°C 49.3°F9.6°C 98% Calm Calm -- 29.76 in1007.8 mb 0.00 in0.0 mm 0.00 in0.0 mm 0.00 in0.0 mm
02:50 AM 49.8°F9.9°C 49.3°F9.6°C 98% Calm Calm -- 29.76 in1007.8 mb 0.00 in0.0 mm 0.00 in0.0 mm 0.00 in0.0 mm
02:52 AM 50.0°F10.0°C 49.5°F9.7°C 98% Calm Calm -- 29.75 in1007.5 mb 0.00 in0.0 mm 0.00 in0.0 mm 0.00 in0.0 mm
02:53 AM 50.0°F10.0°C 49.5°F9.7°C 98% Calm Calm -- 29.75 in1007.5 mb 0.00 in0.0 mm 0.00 in0.0 mm 0.00 in0.0 mm
02:54 AM 50.0°F10.0°C 49.5°F9.7°C 98% Calm Calm -- 29.75 in1007.5 mb 0.00 in0.0 mm 0.00 in0.0 mm 0.00 in0.0 mm
02:55 AM 50.0°F10.0°C 49.5°F9.7°C 98% Calm Calm -- 29.75 in1007.5 mb 0.00 in0.0 mm 0.00 in0.0 mm 0.00 in0.0 mm
02:57 AM 50.0°F10.0°C 49.5°F9.7°C 98% Calm Calm -- 29.75 in1007.5 mb 0.00 in0.0 mm 0.00 in0.0 mm 0.00 in0.0 mm
02:58 AM 50.1°F10.1°C 49.6°F9.8°C 98% 3.0 mph ENE4.8 kmh ENE -- 29.75 in1007.5 mb 0.00 in0.0 mm 0.00 in0.0 mm 0.00 in0.0 mm
02:59 AM 50.1°F10.1°C 49.6°F9.8°C 98% 2.0 mph NE3.2 kmh NE -- 29.75 in1007.5 mb 0.00 in0.0 mm 0.00 in0.0 mm 0.00 in0.0 mm
03:00 AM 50.1°F10.1°C 49.6°F9.8°C 98% 2.0 mph ENE3.2 kmh ENE -- 29.75 in1007.5 mb 0.00 in0.0 mm 0.00 in0.0 mm 0.00 in0.0 mm
03:01 AM 50.1°F10.1°C 49.6°F9.8°C 98% 2.0 mph NE3.2 kmh NE -- 29.75 in1007.5 mb 0.00 in0.0 mm 0.00 in0.0 mm 0.00 in0.0 mm
03:02 AM 50.1°F10.1°C 49.6°F9.8°C 98% 2.0 mph ENE3.2 kmh ENE -- 29.75 in1007.5 mb 0.00 in0.0 mm 0.00 in0.0 mm 0.00 in0.0 mm
03:04 AM 50.1°F10.1°C 49.6°F9.8°C 98% 1.0 mph ENE1.6 kmh ENE -- 29.74 in1007.1 mb 0.00 in0.0 mm 0.00 in0.0 mm 0.00 in0.0 mm
03:05 AM 50.1°F10.1°C 49.6°F9.8°C 98% Calm Calm -- 29.75 in1007.5 mb 0.00 in0.0 mm 0.00 in0.0 mm 0.00 in0.0 mm
03:06 AM 50.1°F10.1°C 49.6°F9.8°C 98% Calm Calm -- 29.75 in1007.5 mb 0.00 in0.0 mm 0.00 in0.0 mm 0.00 in0.0 mm
03:07 AM 50.1°F10.1°C 49.6°F9.8°C 98% Calm Calm -- 29.75 in1007.5 mb 0.00 in0.0 mm 0.00 in0.0 mm 0.00 in0.0 mm
03:08 AM 50.1°F10.1°C 49.6°F9.8°C 98% Calm Calm -- 29.74 in1007.1 mb 0.00 in0.0 mm 0.00 in0.0 mm 0.00 in0.0 mm
03:09 AM 50.1°F10.1°C 49.6°F9.8°C 98% Calm Calm -- 29.74 in1007.1 mb 0.00 in0.0 mm 0.00 in0.0 mm 0.00 in0.0 mm
03:10 AM 50.1°F10.1°C 49.6°F9.8°C 98% Calm Calm -- 29.75 in1007.5 mb 0.00 in0.0 mm 0.00 in0.0 mm 0.00 in0.0 mm
03:11 AM 49.6°F9.8°C 49.1°F9.5°C 98% Calm Calm -- 29.75 in1007.5 mb 0.00 in0.0 mm 0.00 in0.0 mm 0.00 in0.0 mm
03:12 AM 49.6°F9.8°C 49.1°F9.5°C 98% Calm Calm -- 29.74 in1007.1 mb 0.00 in0.0 mm 0.00 in0.0 mm 0.00 in0.0 mm
03:13 AM 49.4°F9.7°C 48.9°F9.4°C 98% Calm Calm -- 29.74 in1007.1 mb 0.00 in0.0 mm 0.00 in0.0 mm 0.00 in0.0 mm
03:15 AM 49.4°F9.7°C 48.9°F9.4°C 98% Calm Calm -- 29.75 in1007.5 mb 0.00 in0.0 mm 0.00 in0.0 mm 0.00 in0.0 mm
03:16 AM 49.4°F9.7°C 48.9°F9.4°C 98% Calm Calm -- 29.75 in1007.5 mb 0.00 in0.0 mm 0.00 in0.0 mm 0.00 in0.0 mm
03:18 AM 49.4°F9.7°C 48.9°F9.4°C 98% Calm Calm -- 29.74 in1007.1 mb 0.00 in0.0 mm 0.00 in0.0 mm 0.00 in0.0 mm
03:19 AM 49.4°F9.7°C 48.9°F9.4°C 98% Calm Calm -- 29.74 in1007.1 mb 0.00 in0.0 mm 0.00 in0.0 mm 0.00 in0.0 mm
03:21 AM 49.4°F9.7°C 48.9°F9.4°C 98% Calm Calm -- 29.74 in1007.1 mb 0.00 in0.0 mm 0.00 in0.0 mm 0.00 in0.0 mm
03:23 AM 49.4°F9.7°C 48.9°F9.4°C 98% Calm Calm -- 29.74 in1007.1 mb 0.00 in0.0 mm 0.00 in0.0 mm 0.00 in0.0 mm
03:24 AM 49.4°F9.7°C 48.9°F9.4°C 98% Calm Calm -- 29.74 in1007.1 mb 0.00 in0.0 mm 0.00 in0.0 mm 0.00 in0.0 mm
03:27 AM 49.4°F9.7°C 48.9°F9.4°C 98% Calm Calm -- 29.74 in1007.1 mb 0.00 in0.0 mm 0.00 in0.0 mm 0.00 in0.0 mm
03:28 AM 49.4°F9.7°C 48.9°F9.4°C 98% Calm Calm -- 29.73 in1006.8 mb 0.00 in0.0 mm 0.00 in0.0 mm 0.00 in0.0 mm
03:29 AM 49.4°F9.7°C 48.9°F9.4°C 98% Calm Calm -- 29.73 in1006.8 mb 0.00 in0.0 mm 0.00 in0.0 mm 0.00 in0.0 mm
03:30 AM 49.4°F9.7°C 48.9°F9.4°C 98% Calm Calm -- 29.73 in1006.8 mb 0.00 in0.0 mm 0.00 in0.0 mm 0.00 in0.0 mm
03:31 AM 49.4°F9.7°C 48.9°F9.4°C 98% Calm Calm -- 29.74 in1007.1 mb 0.00 in0.0 mm 0.00 in0.0 mm 0.00 in0.0 mm
03:33 AM 49.4°F9.7°C 48.9°F9.4°C 98% Calm Calm -- 29.73 in1006.8 mb 0.00 in0.0 mm 0.00 in0.0 mm 0.00 in0.0 mm
03:34 AM 49.4°F9.7°C 48.9°F9.4°C 98% Calm Calm -- 29.73 in1006.8 mb 0.00 in0.0 mm 0.00 in0.0 mm 0.00 in0.0 mm
03:35 AM 49.4°F9.7°C 48.9°F9.4°C 98% Calm Calm -- 29.73 in1006.8 mb 0.00 in0.0 mm 0.00 in0.0 mm 0.00 in0.0 mm
03:37 AM 49.4°F9.7°C 48.9°F9.4°C 98% Calm Calm -- 29.73 in1006.8 mb 0.00 in0.0 mm 0.00 in0.0 mm 0.00 in0.0 mm
03:38 AM 49.6°F9.8°C 49.1°F9.5°C 98% Calm Calm -- 29.73 in1006.8 mb 0.00 in0.0 mm 0.00 in0.0 mm 0.00 in0.0 mm
03:41 AM 49.6°F9.8°C 49.1°F9.5°C 98% Calm Calm -- 29.73 in1006.8 mb 0.00 in0.0 mm 0.00 in0.0 mm 0.00 in0.0 mm
03:42 AM 49.6°F9.8°C 49.1°F9.5°C 98% Calm Calm -- 29.73 in1006.8 mb 0.00 in0.0 mm 0.00 in0.0 mm 0.00 in0.0 mm
03:49 AM 49.6°F9.8°C 49.1°F9.5°C 98% Calm Calm -- 29.73 in1006.8 mb 0.00 in0.0 mm 0.00 in0.0 mm 0.00 in0.0 mm
03:50 AM 49.6°F9.8°C 49.1°F9.5°C 98% Calm Calm -- 29.73 in1006.8 mb 0.00 in0.0 mm 0.00 in0.0 mm 0.00 in0.0 mm
03:51 AM 49.6°F9.8°C 49.1°F9.5°C 98% Calm Calm -- 29.73 in1006.8 mb 0.00 in0.0 mm 0.00 in0.0 mm 0.00 in0.0 mm
03:52 AM 49.6°F9.8°C 49.1°F9.5°C 98% Calm Calm -- 29.73 in1006.8 mb 0.00 in0.0 mm 0.00 in0.0 mm 0.00 in0.0 mm
03:57 AM 49.6°F9.8°C 49.1°F9.5°C 98% Calm Calm -- 29.72 in1006.4 mb 0.00 in0.0 mm 0.00 in0.0 mm 0.00 in0.0 mm
03:58 AM 49.6°F9.8°C 49.1°F9.5°C 98% 1.0 mph W1.6 kmh W -- 29.72 in1006.4 mb 0.00 in0.0 mm 0.00 in0.0 mm 0.00 in0.0 mm
03:59 AM 49.6°F9.8°C 49.1°F9.5°C 98% Calm Calm -- 29.72 in1006.4 mb 0.00 in0.0 mm 0.00 in0.0 mm 0.00 in0.0 mm
04:00 AM 49.6°F9.8°C 49.1°F9.5°C 98% 1.0 mph W1.6 kmh W -- 29.72 in1006.4 mb 0.00 in0.0 mm 0.00 in0.0 mm 0.00 in0.0 mm
04:01 AM 49.8°F9.9°C 49.3°F9.6°C 98% 1.0 mph W1.6 kmh W -- 29.72 in1006.4 mb 0.00 in0.0 mm 0.00 in0.0 mm 0.00 in0.0 mm
04:02 AM 49.8°F9.9°C 49.3°F9.6°C 98% 1.0 mph WNW1.6 kmh WNW -- 29.72 in1006.4 mb 0.00 in0.0 mm 0.00 in0.0 mm 0.00 in0.0 mm
04:03 AM 49.8°F9.9°C 49.3°F9.6°C 98% Calm Calm -- 29.72 in1006.4 mb 0.00 in0.0 mm 0.00 in0.0 mm 0.00 in0.0 mm
04:04 AM 49.8°F9.9°C 49.3°F9.6°C 98% Calm Calm -- 29.72 in1006.4 mb 0.00 in0.0 mm 0.00 in0.0 mm 0.00 in0.0 mm
04:05 AM 49.8°F9.9°C 49.3°F9.6°C 98% Calm Calm -- 29.72 in1006.4 mb 0.00 in0.0 mm 0.00 in0.0 mm 0.00 in0.0 mm
04:06 AM 49.8°F9.9°C 49.3°F9.6°C 98% 1.0 mph W1.6 kmh W -- 29.72 in1006.4 mb 0.00 in0.0 mm 0.00 in0.0 mm 0.00 in0.0 mm
04:07 AM 49.8°F9.9°C 49.3°F9.6°C 98% Calm Calm -- 29.72 in1006.4 mb 0.00 in0.0 mm 0.00 in0.0 mm 0.00 in0.0 mm
04:08 AM 49.8°F9.9°C 49.3°F9.6°C 98% Calm Calm -- 29.72 in1006.4 mb 0.00 in0.0 mm 0.00 in0.0 mm 0.00 in0.0 mm
04:09 AM 49.8°F9.9°C 49.3°F9.6°C 98% Calm Calm -- 29.72 in1006.4 mb 0.00 in0.0 mm 0.00 in0.0 mm 0.00 in0.0 mm
04:10 AM 49.8°F9.9°C 49.3°F9.6°C 98% Calm Calm -- 29.72 in1006.4 mb 0.00 in0.0 mm 0.00 in0.0 mm 0.00 in0.0 mm
04:11 AM 49.6°F9.8°C 49.1°F9.5°C 98% Calm Calm -- 29.72 in1006.4 mb 0.00 in0.0 mm 0.00 in0.0 mm 0.00 in0.0 mm
04:12 AM 49.6°F9.8°C 49.1°F9.5°C 98% Calm Calm -- 29.71 in1006.1 mb 0.00 in0.0 mm 0.00 in0.0 mm 0.00 in0.0 mm
04:13 AM 49.6°F9.8°C 49.1°F9.5°C 98% Calm Calm -- 29.72 in1006.4 mb 0.00 in0.0 mm 0.00 in0.0 mm 0.00 in0.0 mm
04:15 AM 49.6°F9.8°C 49.1°F9.5°C 98% Calm Calm -- 29.71 in1006.1 mb 0.00 in0.0 mm 0.00 in0.0 mm 0.00 in0.0 mm
04:17 AM 49.4°F9.7°C 48.9°F9.4°C 98% Calm Calm -- 29.71 in1006.1 mb 0.00 in0.0 mm 0.00 in0.0 mm 0.00 in0.0 mm
04:18 AM 49.4°F9.7°C 48.9°F9.4°C 98% Calm Calm -- 29.71 in1006.1 mb 0.00 in0.0 mm 0.00 in0.0 mm 0.00 in0.0 mm
04:19 AM 49.4°F9.7°C 48.9°F9.4°C 98% Calm Calm -- 29.72 in1006.4 mb 0.00 in0.0 mm 0.00 in0.0 mm 0.00 in0.0 mm
04:20 AM 49.4°F9.7°C 48.9°F9.4°C 98% Calm Calm -- 29.72 in1006.4 mb 0.00 in0.0 mm 0.00 in0.0 mm 0.00 in0.0 mm
04:22 AM 49.4°F9.7°C 48.9°F9.4°C 98% Calm Calm -- 29.72 in1006.4 mb 0.00 in0.0 mm 0.00 in0.0 mm 0.00 in0.0 mm
04:23 AM 49.4°F9.7°C 48.9°F9.4°C 98% Calm Calm -- 29.71 in1006.1 mb 0.00 in0.0 mm 0.00 in0.0 mm 0.00 in0.0 mm
04:24 AM 49.2°F9.6°C 48.7°F9.3°C 98% Calm Calm -- 29.71 in1006.1 mb 0.00 in0.0 mm 0.00 in0.0 mm 0.00 in0.0 mm
04:29 AM 49.2°F9.6°C 48.7°F9.3°C 98% Calm Calm -- 29.71 in1006.1 mb 0.00 in0.0 mm 0.00 in0.0 mm 0.00 in0.0 mm
04:30 AM 49.2°F9.6°C 48.7°F9.3°C 98% Calm Calm -- 29.71 in1006.1 mb 0.00 in0.0 mm 0.00 in0.0 mm 0.00 in0.0 mm
04:31 AM 49.0°F9.4°C 48.4°F9.1°C 98% 1.0 mph W1.6 kmh W -- 29.71 in1006.1 mb 0.00 in0.0 mm 0.00 in0.0 mm 0.00 in0.0 mm
04:32 AM 49.0°F9.4°C 48.4°F9.1°C 98% 1.0 mph WNW1.6 kmh WNW -- 29.71 in1006.1 mb 0.00 in0.0 mm 0.00 in0.0 mm 0.00 in0.0 mm
04:33 AM 49.0°F9.4°C 48.4°F9.1°C 98% Calm Calm -- 29.71 in1006.1 mb 0.00 in0.0 mm 0.00 in0.0 mm 0.00 in0.0 mm
04:35 AM 49.0°F9.4°C 48.4°F9.1°C 98% 2.0 mph NNW3.2 kmh NNW -- 29.71 in1006.1 mb 0.00 in0.0 mm 0.00 in0.0 mm 0.00 in0.0 mm
04:36 AM 49.0°F9.4°C 48.4°F9.1°C 98% 2.0 mph WNW3.2 kmh WNW -- 29.71 in1006.1 mb 0.00 in0.0 mm 0.00 in0.0 mm 0.00 in0.0 mm
04:37 AM 49.0°F9.4°C 48.4°F9.1°C 98% 1.0 mph W1.6 kmh W -- 29.71 in1006.1 mb 0.00 in0.0 mm 0.00 in0.0 mm 0.00 in0.0 mm
04:38 AM 49.0°F9.4°C 48.4°F9.1°C 98% 2.0 mph 3.2 kmh -- 29.71 in1006.1 mb 0.00 in0.0 mm 0.00 in0.0 mm 0.00 in0.0 mm
04:39 AM 49.0°F9.4°C 48.4°F9.1°C 98% 1.0 mph WSW1.6 kmh WSW -- 29.71 in1006.1 mb 0.00 in0.0 mm 0.00 in0.0 mm 0.00 in0.0 mm
04:40 AM 49.0°F9.4°C 48.4°F9.1°C 98% 3.0 mph NW4.8 kmh NW -- 29.71 in1006.1 mb 0.00 in0.0 mm 0.00 in0.0 mm 0.00 in0.0 mm
04:41 AM 49.0°F9.4°C 48.4°F9.1°C 98% 2.0 mph W3.2 kmh W -- 29.71 in1006.1 mb 0.00 in0.0 mm 0.00 in0.0 mm 0.00 in0.0 mm
04:42 AM 49.1°F9.5°C 48.8°F9.3°C 99% 1.0 mph NNW1.6 kmh NNW -- 29.71 in1006.1 mb 0.00 in0.0 mm 0.00 in0.0 mm 0.00 in0.0 mm
04:43 AM 49.0°F9.4°C 48.4°F9.1°C 98% 3.0 mph NW4.8 kmh NW -- 29.71 in1006.1 mb 0.00 in0.0 mm 0.00 in0.0 mm 0.00 in0.0 mm
04:44 AM 49.0°F9.4°C 48.4°F9.1°C 98% 2.0 mph 3.2 kmh -- 29.71 in1006.1 mb 0.00 in0.0 mm 0.00 in0.0 mm 0.00 in0.0 mm
04:45 AM 49.0°F9.4°C 48.4°F9.1°C 98% 2.0 mph W3.2 kmh W -- 29.71 in1006.1 mb 0.00 in0.0 mm 0.00 in0.0 mm 0.00 in0.0 mm
04:46 AM 49.0°F9.4°C 48.4°F9.1°C 98% 2.0 mph WNW3.2 kmh WNW -- 29.71 in1006.1 mb 0.00 in0.0 mm 0.00 in0.0 mm 0.00 in0.0 mm
04:47 AM 49.0°F9.4°C 48.4°F9.1°C 98% 3.0 mph 4.8 kmh -- 29.71 in1006.1 mb 0.00 in0.0 mm 0.00 in0.0 mm 0.00 in0.0 mm
04:48 AM 49.0°F9.4°C 48.4°F9.1°C 98% 2.0 mph WNW3.2 kmh WNW -- 29.71 in1006.1 mb 0.00 in0.0 mm 0.00 in0.0 mm 0.00 in0.0 mm
04:49 AM 49.0°F9.4°C 48.4°F9.1°C 98% 3.0 mph NNW4.8 kmh NNW -- 29.71 in1006.1 mb 0.00 in0.0 mm 0.00 in0.0 mm 0.00 in0.0 mm
04:50 AM 48.9°F9.4°C 48.4°F9.1°C 98% 2.0 mph NW3.2 kmh NW -- 29.71 in1006.1 mb 0.00 in0.0 mm 0.00 in0.0 mm 0.00 in0.0 mm
04:51 AM 48.9°F9.4°C 48.4°F9.1°C 98% 1.0 mph WNW1.6 kmh WNW -- 29.71 in1006.1 mb 0.00 in0.0 mm 0.00 in0.0 mm 0.00 in0.0 mm
04:52 AM 48.9°F9.4°C 48.4°F9.1°C 98% 1.0 mph NNW1.6 kmh NNW -- 29.71 in1006.1 mb 0.00 in0.0 mm 0.00 in0.0 mm 0.00 in0.0 mm
04:53 AM 48.9°F9.4°C 48.4°F9.1°C 98% 1.0 mph W1.6 kmh W -- 29.71 in1006.1 mb 0.00 in0.0 mm 0.00 in0.0 mm 0.00 in0.0 mm
04:54 AM 48.9°F9.4°C 48.4°F9.1°C 98% Calm Calm -- 29.71 in1006.1 mb 0.00 in0.0 mm 0.00 in0.0 mm 0.00 in0.0 mm
04:55 AM 48.9°F9.4°C 48.4°F9.1°C 98% Calm Calm -- 29.71 in1006.1 mb 0.00 in0.0 mm 0.00 in0.0 mm 0.00 in0.0 mm
04:56 AM 48.9°F9.4°C 48.4°F9.1°C 98% Calm Calm -- 29.71 in1006.1 mb 0.00 in0.0 mm 0.00 in0.0 mm 0.00 in0.0 mm
04:57 AM 48.9°F9.4°C 48.4°F9.1°C 98% 2.0 mph WSW3.2 kmh WSW -- 29.71 in1006.1 mb 0.00 in0.0 mm 0.00 in0.0 mm 0.00 in0.0 mm
04:58 AM 48.6°F9.2°C 48.0°F8.9°C 98% 1.0 mph SW1.6 kmh SW -- 29.71 in1006.1 mb 0.00 in0.0 mm 0.00 in0.0 mm 0.00 in0.0 mm
04:59 AM 48.6°F9.2°C 48.0°F8.9°C 98% 3.0 mph W4.8 kmh W -- 29.71 in1006.1 mb 0.00 in0.0 mm 0.00 in0.0 mm 0.00 in0.0 mm
05:00 AM 48.6°F9.2°C 48.0°F8.9°C 98% Calm Calm -- 29.71 in1006.1 mb 0.00 in0.0 mm 0.00 in0.0 mm 0.00 in0.0 mm
05:01 AM 48.6°F9.2°C 48.0°F8.9°C 98% 2.0 mph NW3.2 kmh NW -- 29.71 in1006.1 mb 0.00 in0.0 mm 0.00 in0.0 mm 0.00 in0.0 mm
05:02 AM 48.7°F9.3°C 48.5°F9.2°C 99% Calm Calm -- 29.71 in1006.1 mb 0.00 in0.0 mm 0.00 in0.0 mm 0.00 in0.0 mm
05:03 AM 48.6°F9.2°C 48.0°F8.9°C 98% 1.0 mph SW1.6 kmh SW -- 29.71 in1006.1 mb 0.00 in0.0 mm 0.00 in0.0 mm 0.00 in0.0 mm
05:04 AM 48.6°F9.2°C 48.0°F8.9°C 98% Calm Calm -- 29.71 in1006.1 mb 0.00 in0.0 mm 0.00 in0.0 mm 0.00 in0.0 mm
05:05 AM 48.6°F9.2°C 48.0°F8.9°C 98% 1.0 mph W1.6 kmh W -- 29.71 in1006.1 mb 0.00 in0.0 mm 0.00 in0.0 mm 0.00 in0.0 mm
05:06 AM 48.6°F9.2°C 48.0°F8.9°C 98% Calm Calm -- 29.71 in1006.1 mb 0.00 in0.0 mm 0.00 in0.0 mm 0.00 in0.0 mm
05:07 AM 48.6°F9.2°C 48.0°F8.9°C 98% 1.0 mph 1.6 kmh -- 29.71 in1006.1 mb 0.00 in0.0 mm 0.00 in0.0 mm 0.00 in0.0 mm
05:08 AM 48.6°F9.2°C 48.0°F8.9°C 98% 2.0 mph NNW3.2 kmh NNW -- 29.71 in1006.1 mb 0.00 in0.0 mm 0.00 in0.0 mm 0.00 in0.0 mm
05:09 AM 48.6°F9.2°C 48.0°F8.9°C 98% 1.0 mph NNW1.6 kmh NNW -- 29.71 in1006.1 mb 0.00 in0.0 mm 0.00 in0.0 mm 0.00 in0.0 mm
05:10 AM 48.6°F9.2°C 48.0°F8.9°C 98% Calm Calm -- 29.71 in1006.1 mb 0.00 in0.0 mm 0.00 in0.0 mm 0.00 in0.0 mm
05:11 AM 48.6°F9.2°C 48.0°F8.9°C 98% 3.0 mph NW4.8 kmh NW -- 29.71 in1006.1 mb 0.00 in0.0 mm 0.00 in0.0 mm 0.00 in0.0 mm
05:12 AM 48.6°F9.2°C 48.0°F8.9°C 98% 2.0 mph 3.2 kmh -- 29.71 in1006.1 mb 0.00 in0.0 mm 0.00 in0.0 mm 0.00 in0.0 mm
05:13 AM 48.6°F9.2°C 48.0°F8.9°C 98% 1.0 mph NW1.6 kmh NW -- 29.71 in1006.1 mb 0.00 in0.0 mm 0.00 in0.0 mm 0.00 in0.0 mm
05:14 AM 48.6°F9.2°C 48.0°F8.9°C 98% 1.0 mph WNW1.6 kmh WNW -- 29.71 in1006.1 mb 0.00 in0.0 mm 0.00 in0.0 mm 0.00 in0.0 mm
05:15 AM 48.6°F9.2°C 48.0°F8.9°C 98% 1.0 mph W1.6 kmh W -- 29.72 in1006.4 mb 0.00 in0.0 mm 0.00 in0.0 mm 0.00 in0.0 mm
05:17 AM 48.6°F9.2°C 48.0°F8.9°C 98% Calm Calm -- 29.71 in1006.1 mb 0.00 in0.0 mm 0.00 in0.0 mm 0.00 in0.0 mm
05:18 AM 48.6°F9.2°C 48.0°F8.9°C 98% 1.0 mph NW1.6 kmh NW -- 29.71 in1006.1 mb 0.00 in0.0 mm 0.00 in0.0 mm 0.00 in0.0 mm
05:19 AM 48.6°F9.2°C 48.0°F8.9°C 98% 2.0 mph NW3.2 kmh NW -- 29.71 in1006.1 mb 0.00 in0.0 mm 0.00 in0.0 mm 0.00 in0.0 mm
05:20 AM 48.6°F9.2°C 48.0°F8.9°C 98% 1.0 mph NW1.6 kmh NW -- 29.71 in1006.1 mb 0.00 in0.0 mm 0.00 in0.0 mm 0.00 in0.0 mm
05:21 AM 48.6°F9.2°C 48.0°F8.9°C 98% 1.0 mph W1.6 kmh W -- 29.71 in1006.1 mb 0.00 in0.0 mm 0.00 in0.0 mm 0.00 in0.0 mm
05:22 AM 48.6°F9.2°C 48.0°F8.9°C 98% 2.0 mph W3.2 kmh W -- 29.71 in1006.1 mb 0.00 in0.0 mm 0.00 in0.0 mm 0.00 in0.0 mm
05:23 AM 48.6°F9.2°C 48.0°F8.9°C 98% 1.0 mph NNW1.6 kmh NNW -- 29.71 in1006.1 mb 0.00 in0.0 mm 0.00 in0.0 mm 0.00 in0.0 mm
05:24 AM 48.6°F9.2°C 48.0°F8.9°C 98% 2.0 mph NNE3.2 kmh NNE -- 29.71 in1006.1 mb 0.00 in0.0 mm 0.00 in0.0 mm 0.00 in0.0 mm
05:25 AM 48.6°F9.2°C 48.0°F8.9°C 98% Calm Calm -- 29.72 in1006.4 mb 0.00 in0.0 mm 0.00 in0.0 mm 0.00 in0.0 mm
05:26 AM 48.6°F9.2°C 48.0°F8.9°C 98% 2.0 mph NNW3.2 kmh NNW -- 29.72 in1006.4 mb 0.00 in0.0 mm 0.00 in0.0 mm 0.00 in0.0 mm
05:27 AM 48.6°F9.2°C 48.0°F8.9°C 98% 2.0 mph NNE3.2 kmh NNE -- 29.72 in1006.4 mb 0.00 in0.0 mm 0.00 in0.0 mm 0.00 in0.0 mm
05:28 AM 48.6°F9.2°C 48.0°F8.9°C 98% Calm Calm -- 29.71 in1006.1 mb 0.00 in0.0 mm 0.00 in0.0 mm 0.00 in0.0 mm
05:29 AM 48.6°F9.2°C 48.0°F8.9°C 98% Calm Calm -- 29.71 in1006.1 mb 0.00 in0.0 mm 0.00 in0.0 mm 0.00 in0.0 mm
05:30 AM 48.6°F9.2°C 48.0°F8.9°C 98% Calm Calm -- 29.71 in1006.1 mb 0.00 in0.0 mm 0.00 in0.0 mm 0.00 in0.0 mm
05:31 AM 48.6°F9.2°C 48.0°F8.9°C 98% 2.0 mph 3.2 kmh -- 29.71 in1006.1 mb 0.00 in0.0 mm 0.00 in0.0 mm 0.00 in0.0 mm
05:32 AM 48.6°F9.2°C 48.0°F8.9°C 98% 2.0 mph NNE3.2 kmh NNE -- 29.71 in1006.1 mb 0.00 in0.0 mm 0.00 in0.0 mm 0.00 in0.0 mm
05:33 AM 48.6°F9.2°C 48.0°F8.9°C 98% 2.0 mph WNW3.2 kmh WNW -- 29.71 in1006.1 mb 0.00 in0.0 mm 0.00 in0.0 mm 0.00 in0.0 mm
05:34 AM 48.6°F9.2°C 48.0°F8.9°C 98% 1.0 mph 1.6 kmh -- 29.71 in1006.1 mb 0.00 in0.0 mm 0.00 in0.0 mm 0.00 in0.0 mm
05:35 AM 48.6°F9.2°C 48.0°F8.9°C 98% 2.0 mph 3.2 kmh -- 29.71 in1006.1 mb 0.00 in0.0 mm 0.00 in0.0 mm 0.00 in0.0 mm
05:36 AM 48.6°F9.2°C 48.0°F8.9°C 98% 4.0 mph NNW6.4 kmh NNW -- 29.71 in1006.1 mb 0.00 in0.0 mm 0.00 in0.0 mm 0.00 in0.0 mm
05:37 AM 48.6°F9.2°C 48.0°F8.9°C 98% 4.0 mph NW6.4 kmh NW -- 29.71 in1006.1 mb 0.00 in0.0 mm 0.00 in0.0 mm 0.00 in0.0 mm
05:38 AM 48.6°F9.2°C 48.0°F8.9°C 98% 3.0 mph NW4.8 kmh NW -- 29.71 in1006.1 mb 0.00 in0.0 mm 0.00 in0.0 mm 0.00 in0.0 mm
05:39 AM 48.6°F9.2°C 48.0°F8.9°C 98% 2.0 mph NNW3.2 kmh NNW -- 29.71 in1006.1 mb 0.00 in0.0 mm 0.00 in0.0 mm 0.00 in0.0 mm
05:40 AM 48.9°F9.4°C 48.4°F9.1°C 98% Calm Calm -- 29.71 in1006.1 mb 0.00 in0.0 mm 0.00 in0.0 mm 0.00 in0.0 mm
05:41 AM 48.9°F9.4°C 48.4°F9.1°C 98% 1.0 mph NW1.6 kmh NW -- 29.71 in1006.1 mb 0.00 in0.0 mm 0.00 in0.0 mm 0.00 in0.0 mm
05:42 AM 48.9°F9.4°C 48.6°F9.2°C 99% 1.0 mph WNW1.6 kmh WNW -- 29.71 in1006.1 mb 0.00 in0.0 mm 0.00 in0.0 mm 0.00 in0.0 mm
05:43 AM 48.9°F9.4°C 48.4°F9.1°C 98% 4.0 mph WNW6.4 kmh WNW -- 29.71 in1006.1 mb 0.00 in0.0 mm 0.00 in0.0 mm 0.00 in0.0 mm
05:44 AM 48.9°F9.4°C 48.4°F9.1°C 98% 1.0 mph E1.6 kmh E -- 29.71 in1006.1 mb 0.00 in0.0 mm 0.00 in0.0 mm 0.00 in0.0 mm
05:45 AM 48.9°F9.4°C 48.4°F9.1°C 98% Calm Calm -- 29.71 in1006.1 mb 0.00 in0.0 mm 0.00 in0.0 mm 0.00 in0.0 mm
05:46 AM 48.9°F9.4°C 48.4°F9.1°C 98% Calm Calm -- 29.71 in1006.1 mb 0.00 in0.0 mm 0.00 in0.0 mm 0.00 in0.0 mm
05:47 AM 48.9°F9.4°C 48.6°F9.2°C 99% Calm Calm -- 29.71 in1006.1 mb 0.00 in0.0 mm 0.00 in0.0 mm 0.00 in0.0 mm
05:48 AM 49.0°F9.4°C 48.4°F9.1°C 98% 1.0 mph NNW1.6 kmh NNW -- 29.70 in1005.8 mb 0.00 in0.0 mm 0.00 in0.0 mm 0.00 in0.0 mm
05:49 AM 49.0°F9.4°C 48.4°F9.1°C 98% Calm Calm -- 29.70 in1005.8 mb 0.00 in0.0 mm 0.00 in0.0 mm 0.00 in0.0 mm
05:50 AM 49.0°F9.4°C 48.4°F9.1°C 98% Calm Calm -- 29.70 in1005.8 mb 0.00 in0.0 mm 0.00 in0.0 mm 0.00 in0.0 mm
05:51 AM 49.0°F9.4°C 48.4°F9.1°C 98% 2.0 mph NNE3.2 kmh NNE -- 29.70 in1005.8 mb 0.00 in0.0 mm 0.00 in0.0 mm 0.00 in0.0 mm
05:52 AM 49.0°F9.4°C 48.4°F9.1°C 98% Calm Calm -- 29.70 in1005.8 mb 0.00 in0.0 mm 0.00 in0.0 mm 0.00 in0.0 mm
05:53 AM 49.0°F9.4°C 48.4°F9.1°C 98% 1.0 mph NNW1.6 kmh NNW -- 29.70 in1005.8 mb 0.00 in0.0 mm 0.00 in0.0 mm 0.00 in0.0 mm
05:54 AM 49.0°F9.4°C 48.4°F9.1°C 98% 1.0 mph NW1.6 kmh NW -- 29.70 in1005.8 mb 0.00 in0.0 mm 0.00 in0.0 mm 0.00 in0.0 mm
05:55 AM 49.0°F9.4°C 48.4°F9.1°C 98% 1.0 mph NNW1.6 kmh NNW -- 29.70 in1005.8 mb 0.00 in0.0 mm 0.00 in0.0 mm 0.00 in0.0 mm
05:57 AM 49.0°F9.4°C 48.4°F9.1°C 98% 1.0 mph NNE1.6 kmh NNE -- 29.70 in1005.8 mb 0.00 in0.0 mm 0.00 in0.0 mm 0.00 in0.0 mm
05:58 AM 49.0°F9.4°C 48.4°F9.1°C 98% Calm Calm -- 29.70 in1005.8 mb 0.00 in0.0 mm 0.00 in0.0 mm 0.00 in0.0 mm
05:59 AM 49.0°F9.4°C 48.4°F9.1°C 98% 3.0 mph NE4.8 kmh NE -- 29.70 in1005.8 mb 0.00 in0.0 mm 0.00 in0.0 mm 0.00 in0.0 mm
06:00 AM 49.0°F9.4°C 48.4°F9.1°C 98% 4.0 mph NNW6.4 kmh NNW -- 29.70 in1005.8 mb 0.00 in0.0 mm 0.00 in0.0 mm 0.00 in0.0 mm
06:01 AM 49.0°F9.4°C 48.4°F9.1°C 98% Calm Calm -- 29.70 in1005.8 mb 0.00 in0.0 mm 0.00 in0.0 mm 0.00 in0.0 mm
06:02 AM 49.0°F9.4°C 48.4°F9.1°C 98% 2.0 mph NE3.2 kmh NE -- 29.70 in1005.8 mb 0.00 in0.0 mm 0.00 in0.0 mm 0.00 in0.0 mm
06:03 AM 49.0°F9.4°C 48.4°F9.1°C 98% Calm Calm -- 29.70 in1005.8 mb 0.00 in0.0 mm 0.00 in0.0 mm 0.00 in0.0 mm
06:04 AM 49.0°F9.4°C 48.4°F9.1°C 98% 3.0 mph 4.8 kmh -- 29.70 in1005.8 mb 0.00 in0.0 mm 0.00 in0.0 mm 0.00 in0.0 mm
06:05 AM 49.0°F9.4°C 48.4°F9.1°C 98% 1.0 mph 1.6 kmh -- 29.70 in1005.8 mb 0.00 in0.0 mm 0.00 in0.0 mm 0.00 in0.0 mm
06:06 AM 49.0°F9.4°C 48.4°F9.1°C 98% 2.0 mph NNW3.2 kmh NNW -- 29.70 in1005.8 mb 0.00 in0.0 mm 0.00 in0.0 mm 0.00 in0.0 mm
06:08 AM 49.0°F9.4°C 48.4°F9.1°C 98% 1.0 mph NNE1.6 kmh NNE -- 29.71 in1006.1 mb 0.00 in0.0 mm 0.00 in0.0 mm 0.00 in0.0 mm
06:09 AM 49.0°F9.4°C 48.4°F9.1°C 98% Calm Calm -- 29.71 in1006.1 mb 0.00 in0.0 mm 0.00 in0.0 mm 0.00 in0.0 mm
06:10 AM 49.0°F9.4°C 48.4°F9.1°C 98% Calm Calm -- 29.70 in1005.8 mb 0.00 in0.0 mm 0.00 in0.0 mm 0.00 in0.0 mm
06:11 AM 49.0°F9.4°C 48.4°F9.1°C 98% Calm Calm -- 29.70 in1005.8 mb 0.00 in0.0 mm 0.00 in0.0 mm 0.00 in0.0 mm
06:13 AM 49.0°F9.4°C 48.4°F9.1°C 98% Calm Calm -- 29.71 in1006.1 mb 0.00 in0.0 mm 0.00 in0.0 mm 0.00 in0.0 mm
06:14 AM 49.2°F9.6°C 48.7°F9.3°C 98% Calm Calm -- 29.71 in1006.1 mb 0.00 in0.0 mm 0.00 in0.0 mm 0.00 in0.0 mm
06:15 AM 49.2°F9.6°C 48.7°F9.3°C 98% Calm Calm -- 29.71 in1006.1 mb 0.00 in0.0 mm 0.00 in0.0 mm 0.00 in0.0 mm
06:17 AM 49.2°F9.6°C 48.7°F9.3°C 98% 1.0 mph NE1.6 kmh NE -- 29.71 in1006.1 mb 0.00 in0.0 mm 0.00 in0.0 mm 0.00 in0.0 mm
06:18 AM 49.2°F9.6°C 48.7°F9.3°C 98% Calm Calm -- 29.71 in1006.1 mb 0.00 in0.0 mm 0.00 in0.0 mm 0.00 in0.0 mm
06:19 AM 49.2°F9.6°C 48.7°F9.3°C 98% 1.0 mph NNE1.6 kmh NNE -- 29.71 in1006.1 mb 0.00 in0.0 mm 0.00 in0.0 mm 0.00 in0.0 mm
06:20 AM 49.4°F9.7°C 48.9°F9.4°C 98% 1.0 mph NNE1.6 kmh NNE -- 29.71 in1006.1 mb 0.00 in0.0 mm 0.00 in0.0 mm 0.00 in0.0 mm
06:21 AM 49.4°F9.7°C 48.9°F9.4°C 98% Calm Calm -- 29.71 in1006.1 mb 0.00 in0.0 mm 0.00 in0.0 mm 0.00 in0.0 mm
06:22 AM 49.6°F9.8°C 49.1°F9.5°C 98% 1.0 mph NNE1.6 kmh NNE -- 29.71 in1006.1 mb 0.00 in0.0 mm 0.00 in0.0 mm 0.00 in0.0 mm
06:23 AM 49.6°F9.8°C 49.1°F9.5°C 98% Calm Calm -- 29.71 in1006.1 mb 0.00 in0.0 mm 0.00 in0.0 mm 0.00 in0.0 mm
06:24 AM 49.6°F9.8°C 49.1°F9.5°C 98% 2.0 mph NW3.2 kmh NW -- 29.71 in1006.1 mb 0.00 in0.0 mm 0.00 in0.0 mm 0.00 in0.0 mm
06:25 AM 49.6°F9.8°C 49.1°F9.5°C 98% 1.0 mph NNW1.6 kmh NNW -- 29.71 in1006.1 mb 0.00 in0.0 mm 0.00 in0.0 mm 0.00 in0.0 mm
06:26 AM 49.6°F9.8°C 49.1°F9.5°C 98% Calm Calm -- 29.71 in1006.1 mb 0.00 in0.0 mm 0.00 in0.0 mm 0.00 in0.0 mm
06:27 AM 49.8°F9.9°C 49.3°F9.6°C 98% 2.0 mph NNE3.2 kmh NNE -- 29.71 in1006.1 mb 0.00 in0.0 mm 0.00 in0.0 mm 0.00 in0.0 mm
06:28 AM 49.8°F9.9°C 49.3°F9.6°C 98% Calm Calm -- 29.71 in1006.1 mb 0.00 in0.0 mm 0.00 in0.0 mm 0.00 in0.0 mm
06:29 AM 49.8°F9.9°C 49.3°F9.6°C 98% Calm Calm -- 29.71 in1006.1 mb 0.00 in0.0 mm 0.00 in0.0 mm 0.00 in0.0 mm
06:30 AM 49.8°F9.9°C 49.3°F9.6°C 98% Calm Calm -- 29.70 in1005.8 mb 0.00 in0.0 mm 0.00 in0.0 mm 0.00 in0.0 mm
06:31 AM 50.0°F10.0°C 49.5°F9.7°C 98% 2.0 mph NNW3.2 kmh NNW -- 29.70 in1005.8 mb 0.00 in0.0 mm 0.00 in0.0 mm 0.00 in0.0 mm
06:32 AM 50.0°F10.0°C 49.5°F9.7°C 98% 2.0 mph NNE3.2 kmh NNE -- 29.70 in1005.8 mb 0.00 in0.0 mm 0.00 in0.0 mm 0.00 in0.0 mm
06:33 AM 50.0°F10.0°C 49.5°F9.7°C 98% 1.0 mph NNW1.6 kmh NNW -- 29.70 in1005.8 mb 0.00 in0.0 mm 0.00 in0.0 mm 0.00 in0.0 mm
06:34 AM 50.1°F10.1°C 49.6°F9.8°C 98% 5.0 mph NNE8.0 kmh NNE -- 29.70 in1005.8 mb 0.00 in0.0 mm 0.00 in0.0 mm 0.00 in0.0 mm
06:35 AM 50.1°F10.1°C 49.6°F9.8°C 98% 2.0 mph 3.2 kmh -- 29.70 in1005.8 mb 0.00 in0.0 mm 0.00 in0.0 mm 0.00 in0.0 mm
06:36 AM 50.1°F10.1°C 49.6°F9.8°C 98% 2.0 mph NNW3.2 kmh NNW -- 29.70 in1005.8 mb 0.00 in0.0 mm 0.00 in0.0 mm 0.00 in0.0 mm
06:37 AM 50.3°F10.2°C 49.8°F9.9°C 98% 3.0 mph NNW4.8 kmh NNW -- 29.70 in1005.8 mb 0.00 in0.0 mm 0.00 in0.0 mm 0.00 in0.0 mm
06:38 AM 50.3°F10.2°C 49.8°F9.9°C 98% 4.0 mph NW6.4 kmh NW -- 29.70 in1005.8 mb 0.00 in0.0 mm 0.00 in0.0 mm 0.00 in0.0 mm
06:39 AM 50.3°F10.2°C 49.8°F9.9°C 98% 2.0 mph 3.2 kmh -- 29.70 in1005.8 mb 0.00 in0.0 mm 0.00 in0.0 mm 0.00 in0.0 mm
06:40 AM 50.5°F10.3°C 50.0°F10.0°C 98% 2.0 mph NNW3.2 kmh NNW -- 29.70 in1005.8 mb 0.00 in0.0 mm 0.00 in0.0 mm 0.00 in0.0 mm
06:41 AM 50.5°F10.3°C 50.0°F10.0°C 98% 1.0 mph 1.6 kmh -- 29.70 in1005.8 mb 0.00 in0.0 mm 0.00 in0.0 mm 0.00 in0.0 mm
06:42 AM 50.5°F10.3°C 50.0°F10.0°C 98% 3.0 mph NNW4.8 kmh NNW -- 29.70 in1005.8 mb 0.00 in0.0 mm 0.00 in0.0 mm 0.00 in0.0 mm
06:43 AM 50.5°F10.3°C 50.0°F10.0°C 98% 2.0 mph NNE3.2 kmh NNE -- 29.70 in1005.8 mb 0.00 in0.0 mm 0.00 in0.0 mm 0.00 in0.0 mm
06:44 AM 50.7°F10.4°C 50.2°F10.1°C 98% 1.0 mph WNW1.6 kmh WNW -- 29.69 in1005.4 mb 0.00 in0.0 mm 0.00 in0.0 mm 0.00 in0.0 mm
06:45 AM 50.7°F10.4°C 50.2°F10.1°C 98% 2.0 mph NNE3.2 kmh NNE -- 29.70 in1005.8 mb 0.00 in0.0 mm 0.00 in0.0 mm 0.00 in0.0 mm
06:46 AM 50.7°F10.4°C 50.2°F10.1°C 98% 2.0 mph 3.2 kmh -- 29.69 in1005.4 mb 0.00 in0.0 mm 0.00 in0.0 mm 0.00 in0.0 mm
06:47 AM 50.7°F10.4°C 50.2°F10.1°C 98% 1.0 mph NNW1.6 kmh NNW -- 29.69 in1005.4 mb 0.00 in0.0 mm 0.00 in0.0 mm 0.00 in0.0 mm
06:48 AM 50.7°F10.4°C 50.2°F10.1°C 98% 1.0 mph NNE1.6 kmh NNE -- 29.69 in1005.4 mb 0.00 in0.0 mm 0.00 in0.0 mm 0.00 in0.0 mm
06:49 AM 50.9°F10.5°C 50.3°F10.2°C 98% 2.0 mph NNW3.2 kmh NNW -- 29.69 in1005.4 mb 0.00 in0.0 mm 0.00 in0.0 mm 0.00 in0.0 mm
06:50 AM 50.9°F10.5°C 50.3°F10.2°C 98% 1.0 mph 1.6 kmh -- 29.69 in1005.4 mb 0.00 in0.0 mm 0.00 in0.0 mm 0.00 in0.0 mm
06:51 AM 50.9°F10.5°C 50.3°F10.2°C 98% 3.0 mph NW4.8 kmh NW -- 29.69 in1005.4 mb 0.00 in0.0 mm 0.00 in0.0 mm 0.00 in0.0 mm
06:52 AM 50.9°F10.5°C 50.3°F10.2°C 98% Calm Calm -- 29.69 in1005.4 mb 0.00 in0.0 mm 0.00 in0.0 mm 0.00 in0.0 mm
06:53 AM 50.9°F10.5°C 50.3°F10.2°C 98% 3.0 mph 4.8 kmh -- 29.69 in1005.4 mb 0.00 in0.0 mm 0.00 in0.0 mm 0.00 in0.0 mm
06:54 AM 50.9°F10.5°C 50.3°F10.2°C 98% 1.0 mph NNE1.6 kmh NNE -- 29.69 in1005.4 mb 0.00 in0.0 mm 0.00 in0.0 mm 0.00 in0.0 mm
06:55 AM 50.9°F10.5°C 50.3°F10.2°C 98% Calm Calm -- 29.69 in1005.4 mb 0.00 in0.0 mm 0.00 in0.0 mm 0.00 in0.0 mm
06:56 AM 51.0°F10.6°C 50.5°F10.3°C 98% 2.0 mph 3.2 kmh -- 29.69 in1005.4 mb 0.00 in0.0 mm 0.00 in0.0 mm 0.00 in0.0 mm
06:57 AM 51.0°F10.6°C 50.5°F10.3°C 98% 2.0 mph ENE3.2 kmh ENE -- 29.69 in1005.4 mb 0.00 in0.0 mm 0.00 in0.0 mm 0.00 in0.0 mm
06:58 AM 51.0°F10.6°C 50.5°F10.3°C 98% 4.0 mph NNW6.4 kmh NNW -- 29.69 in1005.4 mb 0.00 in0.0 mm 0.00 in0.0 mm 0.00 in0.0 mm
06:59 AM 51.3°F10.7°C 50.7°F10.4°C 98% Calm Calm -- 29.69 in1005.4 mb 0.00 in0.0 mm 0.00 in0.0 mm 0.00 in0.0 mm
07:00 AM 51.3°F10.7°C 50.7°F10.4°C 98% 3.0 mph NE4.8 kmh NE -- 29.69 in1005.4 mb 0.00 in0.0 mm 0.00 in0.0 mm 0.00 in0.0 mm
07:01 AM 51.3°F10.7°C 50.7°F10.4°C 98% 3.0 mph E4.8 kmh E -- 29.69 in1005.4 mb 0.00 in0.0 mm 0.00 in0.0 mm 0.00 in0.0 mm
07:02 AM 51.4°F10.8°C 50.9°F10.5°C 98% 2.0 mph NE3.2 kmh NE -- 29.70 in1005.8 mb 0.01 in0.3 mm 0.60 in15.2 mm 0.01 in0.3 mm
07:03 AM 51.4°F10.8°C 50.9°F10.5°C 98% 3.0 mph NNE4.8 kmh NNE -- 29.70 in1005.8 mb 0.02 in0.5 mm 0.60 in15.2 mm 0.02 in0.5 mm
07:04 AM 51.5°F10.8°C 50.9°F10.5°C 98% 4.0 mph 6.4 kmh -- 29.69 in1005.4 mb 0.02 in0.5 mm 0.00 in0.0 mm 0.02 in0.5 mm
07:05 AM 51.5°F10.8°C 50.9°F10.5°C 98% 3.0 mph NNE4.8 kmh NNE -- 29.69 in1005.4 mb 0.03 in0.8 mm 0.60 in15.2 mm 0.03 in0.8 mm
07:06 AM 51.5°F10.8°C 50.9°F10.5°C 98% 3.0 mph 4.8 kmh -- 29.69 in1005.4 mb 0.04 in1.0 mm 0.60 in15.2 mm 0.04 in1.0 mm
07:07 AM 51.5°F10.8°C 50.9°F10.5°C 98% 4.0 mph NNW6.4 kmh NNW -- 29.69 in1005.4 mb 0.04 in1.0 mm 0.00 in0.0 mm 0.04 in1.0 mm
07:08 AM 51.8°F11.0°C 51.2°F10.7°C 98% 3.0 mph NNE4.8 kmh NNE -- 29.69 in1005.4 mb 0.06 in1.5 mm 1.20 in30.5 mm 0.06 in1.5 mm
07:09 AM 51.8°F11.0°C 51.2°F10.7°C 98% 4.0 mph NE6.4 kmh NE -- 29.69 in1005.4 mb 0.08 in2.0 mm 1.20 in30.5 mm 0.08 in2.0 mm
07:10 AM 51.9°F11.1°C 51.4°F10.8°C 98% 5.0 mph 8.0 kmh -- 29.69 in1005.4 mb 0.08 in2.0 mm 0.00 in0.0 mm 0.08 in2.0 mm
07:11 AM 51.9°F11.1°C 51.4°F10.8°C 98% 4.0 mph ENE6.4 kmh ENE -- 29.69 in1005.4 mb 0.08 in2.0 mm 0.00 in0.0 mm 0.08 in2.0 mm
07:12 AM 51.9°F11.1°C 51.4°F10.8°C 98% 3.0 mph NNE4.8 kmh NNE -- 29.69 in1005.4 mb 0.08 in2.0 mm 0.00 in0.0 mm 0.08 in2.0 mm
07:13 AM 52.2°F11.2°C 51.6°F10.9°C 98% 6.0 mph NW9.7 kmh NW -- 29.68 in1005.1 mb 0.08 in2.0 mm 0.00 in0.0 mm 0.08 in2.0 mm
07:14 AM 52.2°F11.2°C 51.6°F10.9°C 98% 3.0 mph E4.8 kmh E -- 29.68 in1005.1 mb 0.08 in2.0 mm 0.00 in0.0 mm 0.08 in2.0 mm
07:15 AM 52.2°F11.2°C 51.6°F10.9°C 98% 1.0 mph NNW1.6 kmh NNW -- 29.69 in1005.4 mb 0.08 in2.0 mm 0.00 in0.0 mm 0.08 in2.0 mm
07:16 AM 52.2°F11.2°C 51.6°F10.9°C 98% 2.0 mph NNW3.2 kmh NNW -- 29.69 in1005.4 mb 0.08 in2.0 mm 0.00 in0.0 mm 0.08 in2.0 mm
07:17 AM 52.3°F11.3°C 51.8°F11.0°C 98% 6.0 mph 9.7 kmh -- 29.68 in1005.1 mb 0.08 in2.0 mm 0.00 in0.0 mm 0.08 in2.0 mm
07:18 AM 52.3°F11.3°C 51.8°F11.0°C 98% 4.0 mph NNE6.4 kmh NNE -- 29.68 in1005.1 mb 0.08 in2.0 mm 0.00 in0.0 mm 0.08 in2.0 mm
07:19 AM 52.3°F11.3°C 51.8°F11.0°C 98% 8.0 mph NNW12.9 kmh NNW -- 29.68 in1005.1 mb 0.08 in2.0 mm 0.00 in0.0 mm 0.08 in2.0 mm
07:20 AM 52.5°F11.4°C 52.0°F11.1°C 98% 9.0 mph NNE14.5 kmh NNE -- 29.68 in1005.1 mb 0.08 in2.0 mm 0.00 in0.0 mm 0.08 in2.0 mm
07:21 AM 52.5°F11.4°C 52.0°F11.1°C 98% 5.0 mph ENE8.0 kmh ENE -- 29.68 in1005.1 mb 0.08 in2.0 mm 0.00 in0.0 mm 0.08 in2.0 mm
07:22 AM 52.5°F11.4°C 52.2°F11.2°C 99% 4.0 mph E6.4 kmh E -- 29.68 in1005.1 mb 0.08 in2.0 mm 0.00 in0.0 mm 0.08 in2.0 mm
07:23 AM 52.5°F11.4°C 52.0°F11.1°C 98% 4.0 mph NE6.4 kmh NE -- 29.68 in1005.1 mb 0.08 in2.0 mm 0.00 in0.0 mm 0.08 in2.0 mm
07:24 AM 52.5°F11.4°C 52.0°F11.1°C 98% 7.0 mph NNW11.3 kmh NNW -- 29.68 in1005.1 mb 0.08 in2.0 mm 0.00 in0.0 mm 0.08 in2.0 mm
07:25 AM 52.5°F11.4°C 52.0°F11.1°C 98% 5.0 mph NNE8.0 kmh NNE -- 29.68 in1005.1 mb 0.08 in2.0 mm 0.00 in0.0 mm 0.08 in2.0 mm
07:26 AM 52.5°F11.4°C 52.0°F11.1°C 98% 6.0 mph 9.7 kmh -- 29.68 in1005.1 mb 0.08 in2.0 mm 0.00 in0.0 mm 0.08 in2.0 mm
07:27 AM 52.5°F11.4°C 52.0°F11.1°C 98% 10.0 mph 16.1 kmh -- 29.68 in1005.1 mb 0.08 in2.0 mm 0.00 in0.0 mm 0.08 in2.0 mm
07:28 AM 52.3°F11.3°C 51.8°F11.0°C 98% 4.0 mph NNE6.4 kmh NNE -- 29.68 in1005.1 mb 0.08 in2.0 mm 0.00 in0.0 mm 0.08 in2.0 mm
07:29 AM 52.2°F11.2°C 51.6°F10.9°C 98% 6.0 mph NE9.7 kmh NE -- 29.68 in1005.1 mb 0.08 in2.0 mm 0.00 in0.0 mm 0.08 in2.0 mm
07:30 AM 52.2°F11.2°C 51.0°F10.6°C 96% 9.0 mph NNE14.5 kmh NNE -- 29.68 in1005.1 mb 0.08 in2.0 mm 0.00 in0.0 mm 0.08 in2.0 mm
07:31 AM 52.2°F11.2°C 51.0°F10.6°C 96% 6.0 mph 9.7 kmh -- 29.68 in1005.1 mb 0.08 in2.0 mm 0.00 in0.0 mm 0.08 in2.0 mm
07:32 AM 52.2°F11.2°C 51.0°F10.6°C 96% 6.0 mph WNW9.7 kmh WNW -- 29.67 in1004.7 mb 0.08 in2.0 mm 0.00 in0.0 mm 0.08 in2.0 mm
07:33 AM 51.9°F11.1°C 50.9°F10.5°C 96% 9.0 mph NNW14.5 kmh NNW -- 29.67 in1004.7 mb 0.08 in2.0 mm 0.00 in0.0 mm 0.08 in2.0 mm
07:34 AM 51.9°F11.1°C 50.9°F10.5°C 96% 9.0 mph NNE14.5 kmh NNE -- 29.68 in1005.1 mb 0.08 in2.0 mm 0.00 in0.0 mm 0.08 in2.0 mm
07:36 AM 51.9°F11.1°C 50.9°F10.5°C 96% 13.0 mph NNE20.9 kmh NNE -- 29.68 in1005.1 mb 0.08 in2.0 mm 0.00 in0.0 mm 0.08 in2.0 mm
07:37 AM 52.0°F11.1°C 50.6°F10.3°C 95% 6.0 mph NE9.7 kmh NE -- 29.68 in1005.1 mb 0.08 in2.0 mm 0.00 in0.0 mm 0.08 in2.0 mm
07:38 AM 51.9°F11.1°C 50.6°F10.3°C 95% 7.0 mph NNE11.3 kmh NNE -- 29.68 in1005.1 mb 0.08 in2.0 mm 0.00 in0.0 mm 0.08 in2.0 mm
07:40 AM 51.9°F11.1°C 50.0°F10.0°C 93% 7.0 mph NW11.3 kmh NW -- 29.68 in1005.1 mb 0.08 in2.0 mm 0.00 in0.0 mm 0.08 in2.0 mm
07:41 AM 51.8°F11.0°C 49.8°F9.9°C 93% 6.0 mph NW9.7 kmh NW -- 29.68 in1005.1 mb 0.09 in2.3 mm 0.60 in15.2 mm 0.09 in2.3 mm
07:42 AM 51.5°F10.8°C 48.9°F9.4°C 91% 8.0 mph NE12.9 kmh NE -- 29.67 in1004.7 mb 0.09 in2.3 mm 0.00 in0.0 mm 0.09 in2.3 mm
07:43 AM 51.4°F10.8°C 48.9°F9.4°C 91% 8.0 mph NNE12.9 kmh NNE -- 29.67 in1004.7 mb 0.09 in2.3 mm 0.00 in0.0 mm 0.09 in2.3 mm
07:44 AM 51.3°F10.7°C 48.7°F9.3°C 91% 11.0 mph NW17.7 kmh NW -- 29.68 in1005.1 mb 0.09 in2.3 mm 0.00 in0.0 mm 0.09 in2.3 mm
07:45 AM 51.3°F10.7°C 48.7°F9.3°C 91% 7.0 mph ENE11.3 kmh ENE -- 29.68 in1005.1 mb 0.09 in2.3 mm 0.00 in0.0 mm 0.09 in2.3 mm
07:46 AM 51.3°F10.7°C 48.7°F9.3°C 91% 8.0 mph ENE12.9 kmh ENE -- 29.68 in1005.1 mb 0.09 in2.3 mm 0.00 in0.0 mm 0.09 in2.3 mm
07:47 AM 51.0°F10.6°C 48.5°F9.2°C 91% 6.0 mph NNE9.7 kmh NNE -- 29.68 in1005.1 mb 0.09 in2.3 mm 0.00 in0.0 mm 0.09 in2.3 mm
07:48 AM 51.0°F10.6°C 48.5°F9.2°C 91% 4.0 mph NNW6.4 kmh NNW -- 29.67 in1004.7 mb 0.09 in2.3 mm 0.00 in0.0 mm 0.09 in2.3 mm
07:49 AM 51.0°F10.6°C 48.5°F9.2°C 91% 7.0 mph NNW11.3 kmh NNW -- 29.67 in1004.7 mb 0.09 in2.3 mm 0.00 in0.0 mm 0.09 in2.3 mm
07:50 AM 51.0°F10.6°C 48.5°F9.2°C 91% 5.0 mph NNW8.0 kmh NNW -- 29.68 in1005.1 mb 0.09 in2.3 mm 0.00 in0.0 mm 0.09 in2.3 mm
07:51 AM 51.0°F10.6°C 48.5°F9.2°C 91% 6.0 mph 9.7 kmh -- 29.68 in1005.1 mb 0.09 in2.3 mm 0.00 in0.0 mm 0.09 in2.3 mm
07:52 AM 51.0°F10.6°C 48.5°F9.2°C 91% 5.0 mph 8.0 kmh -- 29.67 in1004.7 mb 0.09 in2.3 mm 0.00 in0.0 mm 0.09 in2.3 mm
07:53 AM 51.0°F10.6°C 48.5°F9.2°C 91% 7.0 mph NNW11.3 kmh NNW -- 29.68 in1005.1 mb 0.09 in2.3 mm 0.00 in0.0 mm 0.09 in2.3 mm
07:54 AM 51.0°F10.6°C 48.2°F9.0°C 90% 5.0 mph NNW8.0 kmh NNW -- 29.68 in1005.1 mb 0.09 in2.3 mm 0.00 in0.0 mm 0.09 in2.3 mm
07:55 AM 51.0°F10.6°C 48.2°F9.0°C 90% 8.0 mph NNW12.9 kmh NNW -- 29.68 in1005.1 mb 0.09 in2.3 mm 0.00 in0.0 mm 0.09 in2.3 mm
07:56 AM 51.0°F10.6°C 48.2°F9.0°C 90% 3.0 mph NW4.8 kmh NW -- 29.68 in1005.1 mb 0.09 in2.3 mm 0.00 in0.0 mm 0.09 in2.3 mm
07:58 AM 51.0°F10.6°C 48.2°F9.0°C 90% 6.0 mph NW9.7 kmh NW -- 29.68 in1005.1 mb 0.09 in2.3 mm 0.00 in0.0 mm 0.09 in2.3 mm
07:59 AM 51.0°F10.6°C 48.2°F9.0°C 90% 9.0 mph NW14.5 kmh NW -- 29.68 in1005.1 mb 0.09 in2.3 mm 0.00 in0.0 mm 0.09 in2.3 mm
08:00 AM 51.0°F10.6°C 47.6°F8.7°C 88% 7.0 mph NW11.3 kmh NW -- 29.68 in1005.1 mb 0.09 in2.3 mm 0.00 in0.0 mm 0.09 in2.3 mm
08:01 AM 51.0°F10.6°C 47.6°F8.7°C 88% 7.0 mph NNE11.3 kmh NNE -- 29.68 in1005.1 mb 0.00 in0.0 mm 0.00 in0.0 mm 0.09 in2.3 mm
08:02 AM 51.3°F10.7°C 47.8°F8.8°C 88% 7.0 mph NNW11.3 kmh NNW -- 29.68 in1005.1 mb 0.00 in0.0 mm 0.00 in0.0 mm 0.09 in2.3 mm
08:03 AM 51.4°F10.8°C 48.0°F8.9°C 88% 5.0 mph WNW8.0 kmh WNW -- 29.68 in1005.1 mb 0.00 in0.0 mm 0.00 in0.0 mm 0.09 in2.3 mm
08:04 AM 51.4°F10.8°C 48.0°F8.9°C 88% 8.0 mph W12.9 kmh W -- 29.68 in1005.1 mb 0.00 in0.0 mm 0.00 in0.0 mm 0.09 in2.3 mm
08:05 AM 51.4°F10.8°C 48.0°F8.9°C 88% 5.0 mph 8.0 kmh -- 29.68 in1005.1 mb 0.00 in0.0 mm 0.00 in0.0 mm 0.09 in2.3 mm
08:06 AM 51.4°F10.8°C 48.0°F8.9°C 88% 8.0 mph NW12.9 kmh NW -- 29.68 in1005.1 mb 0.00 in0.0 mm 0.00 in0.0 mm 0.09 in2.3 mm
08:07 AM 51.4°F10.8°C 48.0°F8.9°C 88% 6.0 mph NW9.7 kmh NW -- 29.68 in1005.1 mb 0.00 in0.0 mm 0.00 in0.0 mm 0.09 in2.3 mm
08:08 AM 51.4°F10.8°C 48.0°F8.9°C 88% 5.0 mph W8.0 kmh W -- 29.68 in1005.1 mb 0.00 in0.0 mm 0.00 in0.0 mm 0.09 in2.3 mm
08:09 AM 51.4°F10.8°C 48.0°F8.9°C 88% 2.0 mph NNW3.2 kmh NNW -- 29.68 in1005.1 mb 0.00 in0.0 mm 0.00 in0.0 mm 0.09 in2.3 mm
08:10 AM 51.4°F10.8°C 48.0°F8.9°C 88% 8.0 mph NW12.9 kmh NW -- 29.68 in1005.1 mb 0.00 in0.0 mm 0.00 in0.0 mm 0.09 in2.3 mm
08:11 AM 51.4°F10.8°C 48.0°F8.9°C 88% 4.0 mph 6.4 kmh -- 29.68 in1005.1 mb 0.00 in0.0 mm 0.00 in0.0 mm 0.09 in2.3 mm
08:12 AM 51.4°F10.8°C 48.0°F8.9°C 88% 5.0 mph WNW8.0 kmh WNW -- 29.68 in1005.1 mb 0.00 in0.0 mm 0.00 in0.0 mm 0.09 in2.3 mm
08:13 AM 51.4°F10.8°C 48.0°F8.9°C 88% 8.0 mph WNW12.9 kmh WNW -- 29.68 in1005.1 mb 0.00 in0.0 mm 0.00 in0.0 mm 0.09 in2.3 mm
08:14 AM 51.4°F10.8°C 48.0°F8.9°C 88% 5.0 mph W8.0 kmh W -- 29.68 in1005.1 mb 0.00 in0.0 mm 0.00 in0.0 mm 0.09 in2.3 mm
08:15 AM 51.4°F10.8°C 48.0°F8.9°C 88% 5.0 mph W8.0 kmh W -- 29.69 in1005.4 mb 0.00 in0.0 mm 0.00 in0.0 mm 0.09 in2.3 mm
08:16 AM 51.4°F10.8°C 48.0°F8.9°C 88% 5.0 mph WNW8.0 kmh WNW -- 29.70 in1005.8 mb 0.00 in0.0 mm 0.00 in0.0 mm 0.09 in2.3 mm
08:17 AM 51.4°F10.8°C 47.3°F8.5°C 86% 6.0 mph NW9.7 kmh NW -- 29.70 in1005.8 mb 0.00 in0.0 mm 0.00 in0.0 mm 0.09 in2.3 mm
08:18 AM 51.4°F10.8°C 48.0°F8.9°C 88% 4.0 mph SW6.4 kmh SW -- 29.70 in1005.8 mb 0.00 in0.0 mm 0.00 in0.0 mm 0.09 in2.3 mm
08:19 AM 51.3°F10.7°C 47.8°F8.8°C 88% 7.0 mph WSW11.3 kmh WSW -- 29.70 in1005.8 mb 0.00 in0.0 mm 0.00 in0.0 mm 0.09 in2.3 mm
08:20 AM 51.0°F10.6°C 47.6°F8.7°C 88% 8.0 mph SSW12.9 kmh SSW -- 29.71 in1006.1 mb 0.00 in0.0 mm 0.00 in0.0 mm 0.09 in2.3 mm
08:21 AM 51.0°F10.6°C 47.6°F8.7°C 88% 11.0 mph W17.7 kmh W -- 29.71 in1006.1 mb 0.00 in0.0 mm 0.00 in0.0 mm 0.09 in2.3 mm
08:22 AM 50.9°F10.5°C 47.4°F8.6°C 88% 8.0 mph SSW12.9 kmh SSW -- 29.71 in1006.1 mb 0.00 in0.0 mm 0.00 in0.0 mm 0.09 in2.3 mm
08:23 AM 50.7°F10.4°C 47.3°F8.5°C 88% 5.0 mph SSW8.0 kmh SSW -- 29.71 in1006.1 mb 0.00 in0.0 mm 0.00 in0.0 mm 0.09 in2.3 mm
08:24 AM 50.5°F10.3°C 47.1°F8.4°C 88% 14.0 mph SSW22.5 kmh SSW -- 29.71 in1006.1 mb 0.00 in0.0 mm 0.00 in0.0 mm 0.09 in2.3 mm
08:25 AM 50.1°F10.1°C 46.7°F8.2°C 88% 13.0 mph SW20.9 kmh SW -- 29.71 in1006.1 mb 0.00 in0.0 mm 0.00 in0.0 mm 0.09 in2.3 mm
08:26 AM 49.8°F9.9°C 46.4°F8.0°C 88% 6.0 mph W9.7 kmh W -- 29.72 in1006.4 mb 0.00 in0.0 mm 0.00 in0.0 mm 0.09 in2.3 mm
08:27 AM 49.8°F9.9°C 46.4°F8.0°C 88% 6.0 mph W9.7 kmh W -- 29.71 in1006.1 mb 0.00 in0.0 mm 0.00 in0.0 mm 0.09 in2.3 mm
08:28 AM 49.4°F9.7°C 46.0°F7.8°C 88% 9.0 mph SSW14.5 kmh SSW -- 29.72 in1006.4 mb 0.00 in0.0 mm 0.00 in0.0 mm 0.09 in2.3 mm
08:29 AM 49.2°F9.6°C 45.8°F7.7°C 88% 8.0 mph SW12.9 kmh SW -- 29.71 in1006.1 mb 0.00 in0.0 mm 0.00 in0.0 mm 0.09 in2.3 mm
08:30 AM 49.2°F9.6°C 45.8°F7.7°C 88% 9.0 mph WSW14.5 kmh WSW -- 29.72 in1006.4 mb 0.00 in0.0 mm 0.00 in0.0 mm 0.09 in2.3 mm
08:31 AM 49.0°F9.4°C 45.5°F7.5°C 88% 1.0 mph WSW1.6 kmh WSW -- 29.71 in1006.1 mb 0.00 in0.0 mm 0.00 in0.0 mm 0.09 in2.3 mm
08:32 AM 49.0°F9.4°C 45.5°F7.5°C 88% 8.0 mph SSW12.9 kmh SSW -- 29.72 in1006.4 mb 0.00 in0.0 mm 0.00 in0.0 mm 0.09 in2.3 mm
08:33 AM 49.0°F9.4°C 45.5°F7.5°C 88% 9.0 mph SW14.5 kmh SW -- 29.71 in1006.1 mb 0.00 in0.0 mm 0.00 in0.0 mm 0.09 in2.3 mm
08:34 AM 49.0°F9.4°C 45.5°F7.5°C 88% Calm Calm -- 29.71 in1006.1 mb 0.00 in0.0 mm 0.00 in0.0 mm 0.09 in2.3 mm
08:35 AM 49.0°F9.4°C 45.5°F7.5°C 88% 13.0 mph W20.9 kmh W -- 29.71 in1006.1 mb 0.00 in0.0 mm 0.00 in0.0 mm 0.09 in2.3 mm
08:36 AM 49.0°F9.4°C 45.5°F7.5°C 88% Calm Calm -- 29.71 in1006.1 mb 0.00 in0.0 mm 0.00 in0.0 mm 0.09 in2.3 mm
08:37 AM 49.0°F9.4°C 45.5°F7.5°C 88% 4.0 mph S6.4 kmh S -- 29.71 in1006.1 mb 0.00 in0.0 mm 0.00 in0.0 mm 0.09 in2.3 mm
08:38 AM 49.0°F9.4°C 45.5°F7.5°C 88% 5.0 mph W8.0 kmh W -- 29.72 in1006.4 mb 0.00 in0.0 mm 0.00 in0.0 mm 0.09 in2.3 mm
08:39 AM 49.0°F9.4°C 44.9°F7.2°C 86% Calm Calm -- 29.72 in1006.4 mb 0.00 in0.0 mm 0.00 in0.0 mm 0.09 in2.3 mm
08:40 AM 49.0°F9.4°C 44.9°F7.2°C 86% 10.0 mph W16.1 kmh W -- 29.72 in1006.4 mb 0.00 in0.0 mm 0.00 in0.0 mm 0.09 in2.3 mm
08:41 AM 49.0°F9.4°C 44.9°F7.2°C 86% Calm Calm -- 29.72 in1006.4 mb 0.00 in0.0 mm 0.00 in0.0 mm 0.09 in2.3 mm
08:42 AM 49.0°F9.4°C 44.9°F7.2°C 86% Calm Calm -- 29.72 in1006.4 mb 0.00 in0.0 mm 0.00 in0.0 mm 0.09 in2.3 mm
08:43 AM 49.0°F9.4°C 44.9°F7.2°C 86% Calm Calm -- 29.72 in1006.4 mb 0.00 in0.0 mm 0.00 in0.0 mm 0.09 in2.3 mm
08:44 AM 49.0°F9.4°C 44.9°F7.2°C 86% 8.0 mph SSW12.9 kmh SSW -- 29.72 in1006.4 mb 0.00 in0.0 mm 0.00 in0.0 mm 0.09 in2.3 mm
08:45 AM 49.0°F9.4°C 44.9°F7.2°C 86% Calm Calm -- 29.72 in1006.4 mb 0.00 in0.0 mm 0.00 in0.0 mm 0.09 in2.3 mm
08:46 AM 49.0°F9.4°C 44.9°F7.2°C 86% Calm Calm -- 29.72 in1006.4 mb 0.00 in0.0 mm 0.00 in0.0 mm 0.09 in2.3 mm
08:47 AM 49.0°F9.4°C 44.9°F7.2°C 86% 5.0 mph WNW8.0 kmh WNW -- 29.72 in1006.4 mb 0.00 in0.0 mm 0.00 in0.0 mm 0.09 in2.3 mm
08:48 AM 49.0°F9.4°C 44.9°F7.2°C 86% 10.0 mph WNW16.1 kmh WNW -- 29.72 in1006.4 mb 0.00 in0.0 mm 0.00 in0.0 mm 0.09 in2.3 mm
08:49 AM 49.0°F9.4°C 44.9°F7.2°C 86% 1.0 mph W1.6 kmh W -- 29.72 in1006.4 mb 0.00 in0.0 mm 0.00 in0.0 mm 0.09 in2.3 mm
08:50 AM 49.0°F9.4°C 44.9°F7.2°C 86% 1.0 mph SW1.6 kmh SW -- 29.72 in1006.4 mb 0.00 in0.0 mm 0.00 in0.0 mm 0.09 in2.3 mm
08:51 AM 49.0°F9.4°C 44.9°F7.2°C 86% 5.0 mph NW8.0 kmh NW -- 29.71 in1006.1 mb 0.00 in0.0 mm 0.00 in0.0 mm 0.09 in2.3 mm
08:52 AM 49.0°F9.4°C 44.9°F7.2°C 86% Calm Calm -- 29.72 in1006.4 mb 0.00 in0.0 mm 0.00 in0.0 mm 0.09 in2.3 mm
08:53 AM 49.0°F9.4°C 44.9°F7.2°C 86% 1.0 mph W1.6 kmh W -- 29.72 in1006.4 mb 0.00 in0.0 mm 0.00 in0.0 mm 0.09 in2.3 mm
08:54 AM 49.0°F9.4°C 44.9°F7.2°C 86% Calm Calm -- 29.72 in1006.4 mb 0.00 in0.0 mm 0.00 in0.0 mm 0.09 in2.3 mm
08:55 AM 49.0°F9.4°C 44.9°F7.2°C 86% Calm Calm -- 29.72 in1006.4 mb 0.00 in0.0 mm 0.00 in0.0 mm 0.09 in2.3 mm
08:56 AM 48.9°F9.4°C 44.9°F7.2°C 86% 11.0 mph W17.7 kmh W -- 29.72 in1006.4 mb 0.00 in0.0 mm 0.00 in0.0 mm 0.09 in2.3 mm
08:57 AM 48.9°F9.4°C 44.9°F7.2°C 86% Calm Calm -- 29.71 in1006.1 mb 0.00 in0.0 mm 0.00 in0.0 mm 0.09 in2.3 mm
08:58 AM 48.9°F9.4°C 45.5°F7.5°C 88% Calm Calm -- 29.72 in1006.4 mb 0.00 in0.0 mm 0.00 in0.0 mm 0.09 in2.3 mm
08:59 AM 48.9°F9.4°C 45.5°F7.5°C 88% Calm Calm -- 29.72 in1006.4 mb 0.00 in0.0 mm 0.00 in0.0 mm 0.09 in2.3 mm
09:00 AM 48.6°F9.2°C 45.1°F7.3°C 88% Calm Calm -- 29.72 in1006.4 mb 0.00 in0.0 mm 0.00 in0.0 mm 0.09 in2.3 mm
09:01 AM 48.6°F9.2°C 45.1°F7.3°C 88% 12.0 mph SW19.3 kmh SW -- 29.72 in1006.4 mb 0.00 in0.0 mm 0.00 in0.0 mm 0.09 in2.3 mm
09:02 AM 48.7°F9.3°C 45.3°F7.4°C 88% Calm Calm -- 29.72 in1006.4 mb 0.00 in0.0 mm 0.00 in0.0 mm 0.09 in2.3 mm
09:03 AM 48.5°F9.2°C 45.1°F7.3°C 88% Calm Calm -- 29.72 in1006.4 mb 0.00 in0.0 mm 0.00 in0.0 mm 0.09 in2.3 mm
09:04 AM 48.4°F9.1°C 45.0°F7.2°C 88% Calm Calm -- 29.72 in1006.4 mb 0.00 in0.0 mm 0.00 in0.0 mm 0.09 in2.3 mm
09:05 AM 48.4°F9.1°C 45.0°F7.2°C 88% 2.0 mph W3.2 kmh W -- 29.72 in1006.4 mb 0.00 in0.0 mm 0.00 in0.0 mm 0.09 in2.3 mm
09:06 AM 48.4°F9.1°C 45.0°F7.2°C 88% Calm Calm -- 29.72 in1006.4 mb 0.00 in0.0 mm 0.00 in0.0 mm 0.09 in2.3 mm
09:07 AM 48.4°F9.1°C 45.5°F7.5°C 90% Calm Calm -- 29.72 in1006.4 mb 0.00 in0.0 mm 0.00 in0.0 mm 0.09 in2.3 mm
09:08 AM 48.4°F9.1°C 45.5°F7.5°C 90% Calm Calm -- 29.71 in1006.1 mb 0.00 in0.0 mm 0.00 in0.0 mm 0.09 in2.3 mm
09:09 AM 48.2°F9.0°C 45.4°F7.4°C 90% Calm Calm -- 29.71 in1006.1 mb 0.00 in0.0 mm 0.00 in0.0 mm 0.09 in2.3 mm
09:10 AM 48.2°F9.0°C 45.4°F7.4°C 90% 6.0 mph W9.7 kmh W -- 29.71 in1006.1 mb 0.00 in0.0 mm 0.00 in0.0 mm 0.09 in2.3 mm
09:11 AM 48.2°F9.0°C 45.4°F7.4°C 90% 2.0 mph W3.2 kmh W -- 29.71 in1006.1 mb 0.00 in0.0 mm 0.00 in0.0 mm 0.09 in2.3 mm
09:12 AM 48.2°F9.0°C 45.4°F7.4°C 90% Calm Calm -- 29.71 in1006.1 mb 0.00 in0.0 mm 0.00 in0.0 mm 0.09 in2.3 mm
09:13 AM 48.2°F9.0°C 45.4°F7.4°C 90% Calm Calm -- 29.71 in1006.1 mb 0.00 in0.0 mm 0.00 in0.0 mm 0.09 in2.3 mm
09:14 AM 48.2°F9.0°C 45.4°F7.4°C 90% 10.0 mph SW16.1 kmh SW -- 29.71 in1006.1 mb 0.00 in0.0 mm 0.00 in0.0 mm 0.09 in2.3 mm
09:15 AM 48.2°F9.0°C 45.4°F7.4°C 90% Calm Calm -- 29.71 in1006.1 mb 0.00 in0.0 mm 0.00 in0.0 mm 0.09 in2.3 mm
09:16 AM 48.2°F9.0°C 45.4°F7.4°C 90% Calm Calm -- 29.71 in1006.1 mb 0.00 in0.0 mm 0.00 in0.0 mm 0.09 in2.3 mm
09:17 AM 48.2°F9.0°C 45.4°F7.4°C 90% 10.0 mph WNW16.1 kmh WNW -- 29.71 in1006.1 mb 0.00 in0.0 mm 0.00 in0.0 mm 0.09 in2.3 mm
09:18 AM 48.2°F9.0°C 45.4°F7.4°C 90% Calm Calm -- 29.71 in1006.1 mb 0.00 in0.0 mm 0.00 in0.0 mm 0.09 in2.3 mm
09:19 AM 48.2°F9.0°C 45.4°F7.4°C 90% 8.0 mph WNW12.9 kmh WNW -- 29.71 in1006.1 mb 0.00 in0.0 mm 0.00 in0.0 mm 0.09 in2.3 mm
09:20 AM 48.2°F9.0°C 45.4°F7.4°C 90% 8.0 mph W12.9 kmh W -- 29.71 in1006.1 mb 0.00 in0.0 mm 0.00 in0.0 mm 0.09 in2.3 mm
09:21 AM 48.2°F9.0°C 45.4°F7.4°C 90% 5.0 mph W8.0 kmh W -- 29.71 in1006.1 mb 0.00 in0.0 mm 0.00 in0.0 mm 0.09 in2.3 mm
09:22 AM 48.2°F9.0°C 45.4°F7.4°C 90% 10.0 mph WSW16.1 kmh WSW -- 29.70 in1005.8 mb 0.00 in0.0 mm 0.00 in0.0 mm 0.09 in2.3 mm
09:23 AM 48.2°F9.0°C 45.4°F7.4°C 90% 11.0 mph W17.7 kmh W -- 29.70 in1005.8 mb 0.00 in0.0 mm 0.00 in0.0 mm 0.09 in2.3 mm
09:25 AM 48.0°F8.9°C 45.2°F7.3°C 90% 2.0 mph WSW3.2 kmh WSW -- 29.70 in1005.8 mb 0.00 in0.0 mm 0.00 in0.0 mm 0.09 in2.3 mm
09:26 AM 48.0°F8.9°C 45.2°F7.3°C 90% 2.0 mph WNW3.2 kmh WNW -- 29.70 in1005.8 mb 0.00 in0.0 mm 0.00 in0.0 mm 0.09 in2.3 mm
09:27 AM 48.0°F8.9°C 45.2°F7.3°C 90% 4.0 mph ENE6.4 kmh ENE -- 29.70 in1005.8 mb 0.00 in0.0 mm 0.00 in0.0 mm 0.09 in2.3 mm
09:28 AM 48.0°F8.9°C 45.2°F7.3°C 90% 4.0 mph ENE6.4 kmh ENE -- 29.71 in1006.1 mb 0.00 in0.0 mm 0.00 in0.0 mm 0.09 in2.3 mm
09:29 AM 48.0°F8.9°C 45.2°F7.3°C 90% 5.0 mph W8.0 kmh W -- 29.71 in1006.1 mb 0.00 in0.0 mm 0.00 in0.0 mm 0.09 in2.3 mm
09:30 AM 48.0°F8.9°C 45.2°F7.3°C 90% Calm Calm -- 29.71 in1006.1 mb 0.00 in0.0 mm 0.00 in0.0 mm 0.09 in2.3 mm
09:31 AM 47.7°F8.7°C 44.8°F7.1°C 90% 11.0 mph W17.7 kmh W -- 29.71 in1006.1 mb 0.00 in0.0 mm 0.00 in0.0 mm 0.09 in2.3 mm
09:32 AM 47.7°F8.7°C 44.8°F7.1°C 90% 7.0 mph W11.3 kmh W -- 29.71 in1006.1 mb 0.01 in0.3 mm 0.60 in15.2 mm 0.10 in2.5 mm
09:33 AM 47.7°F8.7°C 45.1°F7.3°C 91% 11.0 mph WNW17.7 kmh WNW -- 29.70 in1005.8 mb 0.02 in0.5 mm 0.60 in15.2 mm 0.11 in2.8 mm
09:34 AM 47.6°F8.7°C 45.1°F7.3°C 91% 19.0 mph WNW30.6 kmh WNW -- 29.70 in1005.8 mb 0.02 in0.5 mm 0.00 in0.0 mm 0.11 in2.8 mm
09:35 AM 47.5°F8.6°C 45.0°F7.2°C 91% 1.0 mph W1.6 kmh W -- 29.70 in1005.8 mb 0.03 in0.8 mm 0.60 in15.2 mm 0.12 in3.0 mm
09:36 AM 47.5°F8.6°C 45.0°F7.2°C 91% 13.0 mph SW20.9 kmh SW -- 29.70 in1005.8 mb 0.03 in0.8 mm 0.00 in0.0 mm 0.12 in3.0 mm
09:37 AM 47.5°F8.6°C 45.5°F7.5°C 93% 14.0 mph S22.5 kmh S -- 29.70 in1005.8 mb 0.03 in0.8 mm 0.00 in0.0 mm 0.12 in3.0 mm
09:38 AM 47.3°F8.5°C 45.4°F7.4°C 93% 11.0 mph NW17.7 kmh NW -- 29.71 in1006.1 mb 0.03 in0.8 mm 0.00 in0.0 mm 0.12 in3.0 mm
09:39 AM 47.3°F8.5°C 45.4°F7.4°C 93% 18.0 mph W29.0 kmh W -- 29.70 in1005.8 mb 0.04 in1.0 mm 0.60 in15.2 mm 0.13 in3.3 mm
09:40 AM 47.1°F8.4°C 45.2°F7.3°C 93% 12.0 mph W19.3 kmh W -- 29.70 in1005.8 mb 0.04 in1.0 mm 0.00 in0.0 mm 0.13 in3.3 mm
09:41 AM 47.1°F8.4°C 45.2°F7.3°C 93% 13.0 mph NW20.9 kmh NW -- 29.70 in1005.8 mb 0.04 in1.0 mm 0.00 in0.0 mm 0.13 in3.3 mm
09:42 AM 47.1°F8.4°C 45.2°F7.3°C 93% 11.0 mph W17.7 kmh W -- 29.70 in1005.8 mb 0.04 in1.0 mm 0.00 in0.0 mm 0.13 in3.3 mm
09:43 AM 47.1°F8.4°C 45.2°F7.3°C 93% 3.0 mph W4.8 kmh W -- 29.70 in1005.8 mb 0.04 in1.0 mm 0.00 in0.0 mm 0.13 in3.3 mm
09:44 AM 47.1°F8.4°C 45.2°F7.3°C 93% 13.0 mph NW20.9 kmh NW -- 29.71 in1006.1 mb 0.05 in1.3 mm 0.60 in15.2 mm 0.14 in3.6 mm
09:45 AM 47.1°F8.4°C 45.2°F7.3°C 93% 10.0 mph WNW16.1 kmh WNW -- 29.71 in1006.1 mb 0.05 in1.3 mm 0.00 in0.0 mm 0.14 in3.6 mm
09:46 AM 47.1°F8.4°C 45.2°F7.3°C 93% 11.0 mph NNW17.7 kmh NNW -- 29.70 in1005.8 mb 0.05 in1.3 mm 0.00 in0.0 mm 0.14 in3.6 mm
09:47 AM 47.1°F8.4°C 45.2°F7.3°C 93% 16.0 mph W25.7 kmh W -- 29.70 in1005.8 mb 0.05 in1.3 mm 0.00 in0.0 mm 0.14 in3.6 mm
09:48 AM 47.1°F8.4°C 45.2°F7.3°C 93% 5.0 mph NW8.0 kmh NW -- 29.70 in1005.8 mb 0.05 in1.3 mm 0.00 in0.0 mm 0.14 in3.6 mm
09:49 AM 47.1°F8.4°C 45.2°F7.3°C 93% 13.0 mph NNW20.9 kmh NNW -- 29.70 in1005.8 mb 0.05 in1.3 mm 0.00 in0.0 mm 0.14 in3.6 mm
09:50 AM 47.1°F8.4°C 45.2°F7.3°C 93% 1.0 mph WNW1.6 kmh WNW -- 29.70 in1005.8 mb 0.05 in1.3 mm 0.00 in0.0 mm 0.14 in3.6 mm
09:51 AM 47.1°F8.4°C 45.2°F7.3°C 93% Calm Calm -- 29.70 in1005.8 mb 0.05 in1.3 mm 0.00 in0.0 mm 0.14 in3.6 mm
09:52 AM 47.1°F8.4°C 45.2°F7.3°C 93% 12.0 mph W19.3 kmh W -- 29.70 in1005.8 mb 0.05 in1.3 mm 0.00 in0.0 mm 0.14 in3.6 mm
09:53 AM 47.1°F8.4°C 45.2°F7.3°C 93% 9.0 mph W14.5 kmh W -- 29.70 in1005.8 mb 0.05 in1.3 mm 0.00 in0.0 mm 0.14 in3.6 mm
09:55 AM 47.1°F8.4°C 45.2°F7.3°C 93% 11.0 mph W17.7 kmh W -- 29.70 in1005.8 mb 0.05 in1.3 mm 0.00 in0.0 mm 0.14 in3.6 mm
09:56 AM 47.1°F8.4°C 45.2°F7.3°C 93% 8.0 mph WNW12.9 kmh WNW -- 29.70 in1005.8 mb 0.05 in1.3 mm 0.00 in0.0 mm 0.14 in3.6 mm
09:57 AM 47.1°F8.4°C 45.2°F7.3°C 93% 16.0 mph WNW25.7 kmh WNW -- 29.69 in1005.4 mb 0.06 in1.5 mm 0.60 in15.2 mm 0.15 in3.8 mm
09:58 AM 47.1°F8.4°C 45.2°F7.3°C 93% 13.0 mph WNW20.9 kmh WNW -- 29.70 in1005.8 mb 0.06 in1.5 mm 0.00 in0.0 mm 0.15 in3.8 mm
09:59 AM 47.1°F8.4°C 45.2°F7.3°C 93% 13.0 mph W20.9 kmh W -- 29.70 in1005.8 mb 0.06 in1.5 mm 0.00 in0.0 mm 0.15 in3.8 mm
10:01 AM 47.1°F8.4°C 45.2°F7.3°C 93% 15.0 mph WNW24.1 kmh WNW -- 29.70 in1005.8 mb 0.00 in0.0 mm 0.00 in0.0 mm 0.15 in3.8 mm
10:02 AM 47.1°F8.4°C 45.2°F7.3°C 93% 7.0 mph WNW11.3 kmh WNW -- 29.70 in1005.8 mb 0.00 in0.0 mm 0.00 in0.0 mm 0.15 in3.8 mm
10:03 AM 47.1°F8.4°C 45.2°F7.3°C 93% 6.0 mph NNW9.7 kmh NNW -- 29.70 in1005.8 mb 0.00 in0.0 mm 0.00 in0.0 mm 0.15 in3.8 mm
10:04 AM 47.1°F8.4°C 45.2°F7.3°C 93% 7.0 mph WNW11.3 kmh WNW -- 29.70 in1005.8 mb 0.00 in0.0 mm 0.00 in0.0 mm 0.15 in3.8 mm
10:05 AM 47.1°F8.4°C 45.2°F7.3°C 93% 12.0 mph NW19.3 kmh NW -- 29.70 in1005.8 mb 0.00 in0.0 mm 0.00 in0.0 mm 0.15 in3.8 mm
10:06 AM 47.1°F8.4°C 45.2°F7.3°C 93% 16.0 mph WNW25.7 kmh WNW -- 29.70 in1005.8 mb 0.00 in0.0 mm 0.00 in0.0 mm 0.15 in3.8 mm
10:07 AM 47.1°F8.4°C 45.2°F7.3°C 93% 12.0 mph NW19.3 kmh NW -- 29.70 in1005.8 mb 0.00 in0.0 mm 0.00 in0.0 mm 0.15 in3.8 mm
10:08 AM 47.1°F8.4°C 45.2°F7.3°C 93% 9.0 mph W14.5 kmh W -- 29.70 in1005.8 mb 0.00 in0.0 mm 0.00 in0.0 mm 0.15 in3.8 mm
10:09 AM 47.1°F8.4°C 45.2°F7.3°C 93% 2.0 mph WNW3.2 kmh WNW -- 29.70 in1005.8 mb 0.00 in0.0 mm 0.00 in0.0 mm 0.15 in3.8 mm
10:10 AM 47.1°F8.4°C 45.2°F7.3°C 93% 6.0 mph W9.7 kmh W -- 29.70 in1005.8 mb 0.00 in0.0 mm 0.00 in0.0 mm 0.15 in3.8 mm
10:11 AM 47.1°F8.4°C 45.2°F7.3°C 93% 10.0 mph W16.1 kmh W -- 29.70 in1005.8 mb 0.00 in0.0 mm 0.00 in0.0 mm 0.15 in3.8 mm
10:12 AM 47.1°F8.4°C 45.2°F7.3°C 93% 1.0 mph NW1.6 kmh NW -- 29.70 in1005.8 mb 0.00 in0.0 mm 0.00 in0.0 mm 0.15 in3.8 mm
10:13 AM 47.1°F8.4°C 45.2°F7.3°C 93% 15.0 mph WNW24.1 kmh WNW -- 29.70 in1005.8 mb 0.00 in0.0 mm 0.00 in0.0 mm 0.15 in3.8 mm
10:14 AM 47.1°F8.4°C 45.2°F7.3°C 93% 10.0 mph W16.1 kmh W -- 29.70 in1005.8 mb 0.00 in0.0 mm 0.00 in0.0 mm 0.15 in3.8 mm
10:15 AM 47.1°F8.4°C 45.2°F7.3°C 93% 10.0 mph WNW16.1 kmh WNW -- 29.70 in1005.8 mb 0.00 in0.0 mm 0.00 in0.0 mm 0.15 in3.8 mm
10:16 AM 47.1°F8.4°C 45.2°F7.3°C 93% 12.0 mph WNW19.3 kmh WNW -- 29.70 in1005.8 mb 0.00 in0.0 mm 0.00 in0.0 mm 0.15 in3.8 mm
10:17 AM 47.1°F8.4°C 45.2°F7.3°C 93% 12.0 mph W19.3 kmh W -- 29.70 in1005.8 mb 0.00 in0.0 mm 0.00 in0.0 mm 0.15 in3.8 mm
10:18 AM 47.1°F8.4°C 45.2°F7.3°C 93% 7.0 mph W11.3 kmh W -- 29.70 in1005.8 mb 0.00 in0.0 mm 0.00 in0.0 mm 0.15 in3.8 mm
10:19 AM 47.1°F8.4°C 45.2°F7.3°C 93% 10.0 mph 16.1 kmh -- 29.70 in1005.8 mb 0.00 in0.0 mm 0.00 in0.0 mm 0.15 in3.8 mm
10:20 AM 47.1°F8.4°C 45.2°F7.3°C 93% 9.0 mph WNW14.5 kmh WNW -- 29.70 in1005.8 mb 0.00 in0.0 mm 0.00 in0.0 mm 0.15 in3.8 mm
10:21 AM 47.1°F8.4°C 45.2°F7.3°C 93% 2.0 mph WNW3.2 kmh WNW -- 29.70 in1005.8 mb 0.00 in0.0 mm 0.00 in0.0 mm 0.15 in3.8 mm
10:22 AM 47.1°F8.4°C 45.2°F7.3°C 93% 11.0 mph NW17.7 kmh NW -- 29.70 in1005.8 mb 0.00 in0.0 mm 0.00 in0.0 mm 0.15 in3.8 mm
10:23 AM 47.1°F8.4°C 45.2°F7.3°C 93% 3.0 mph W4.8 kmh W -- 29.70 in1005.8 mb 0.00 in0.0 mm 0.00 in0.0 mm 0.15 in3.8 mm
10:24 AM 47.1°F8.4°C 45.2°F7.3°C 93% 6.0 mph SSW9.7 kmh SSW -- 29.70 in1005.8 mb 0.00 in0.0 mm 0.00 in0.0 mm 0.15 in3.8 mm
10:25 AM 47.1°F8.4°C 45.2°F7.3°C 93% 17.0 mph SSW27.4 kmh SSW -- 29.69 in1005.4 mb 0.00 in0.0 mm 0.00 in0.0 mm 0.15 in3.8 mm
10:26 AM 47.1°F8.4°C 45.2°F7.3°C 93% 13.0 mph WNW20.9 kmh WNW -- 29.69 in1005.4 mb 0.00 in0.0 mm 0.00 in0.0 mm 0.15 in3.8 mm
10:27 AM 47.1°F8.4°C 45.2°F7.3°C 93% 21.0 mph E33.8 kmh E -- 29.69 in1005.4 mb 0.00 in0.0 mm 0.00 in0.0 mm 0.15 in3.8 mm
10:28 AM 47.1°F8.4°C 45.2°F7.3°C 93% 14.0 mph WNW22.5 kmh WNW -- 29.69 in1005.4 mb 0.00 in0.0 mm 0.00 in0.0 mm 0.15 in3.8 mm
10:29 AM 47.3°F8.5°C 45.4°F7.4°C 93% 12.0 mph W19.3 kmh W -- 29.69 in1005.4 mb 0.00 in0.0 mm 0.00 in0.0 mm 0.15 in3.8 mm
10:30 AM 47.3°F8.5°C 45.4°F7.4°C 93% 12.0 mph WNW19.3 kmh WNW -- 29.69 in1005.4 mb 0.00 in0.0 mm 0.00 in0.0 mm 0.15 in3.8 mm
10:31 AM 47.3°F8.5°C 45.4°F7.4°C 93% 17.0 mph NW27.4 kmh NW -- 29.69 in1005.4 mb 0.00 in0.0 mm 0.00 in0.0 mm 0.15 in3.8 mm
10:32 AM 47.5°F8.6°C 45.5°F7.5°C 93% 2.0 mph W3.2 kmh W -- 29.69 in1005.4 mb 0.00 in0.0 mm 0.00 in0.0 mm 0.15 in3.8 mm
10:33 AM 47.5°F8.6°C 45.5°F7.5°C 93% 8.0 mph W12.9 kmh W -- 29.69 in1005.4 mb 0.00 in0.0 mm 0.00 in0.0 mm 0.15 in3.8 mm
10:34 AM 47.5°F8.6°C 45.5°F7.5°C 93% 16.0 mph W25.7 kmh W -- 29.69 in1005.4 mb 0.00 in0.0 mm 0.00 in0.0 mm 0.15 in3.8 mm
10:35 AM 47.5°F8.6°C 45.5°F7.5°C 93% 11.0 mph W17.7 kmh W -- 29.69 in1005.4 mb 0.00 in0.0 mm 0.00 in0.0 mm 0.15 in3.8 mm
10:36 AM 47.5°F8.6°C 45.5°F7.5°C 93% 9.0 mph NW14.5 kmh NW -- 29.69 in1005.4 mb 0.00 in0.0 mm 0.00 in0.0 mm 0.15 in3.8 mm
10:37 AM 47.5°F8.6°C 45.0°F7.2°C 91% 14.0 mph W22.5 kmh W -- 29.69 in1005.4 mb 0.00 in0.0 mm 0.00 in0.0 mm 0.15 in3.8 mm
10:38 AM 47.6°F8.7°C 45.1°F7.3°C 91% 12.0 mph NE19.3 kmh NE -- 29.69 in1005.4 mb 0.00 in0.0 mm 0.00 in0.0 mm 0.15 in3.8 mm
10:39 AM 47.6°F8.7°C 45.1°F7.3°C 91% 3.0 mph NNW4.8 kmh NNW -- 29.69 in1005.4 mb 0.00 in0.0 mm 0.00 in0.0 mm 0.15 in3.8 mm
10:40 AM 47.6°F8.7°C 45.1°F7.3°C 91% 16.0 mph W25.7 kmh W -- 29.69 in1005.4 mb 0.00 in0.0 mm 0.00 in0.0 mm 0.15 in3.8 mm
10:41 AM 47.6°F8.7°C 45.1°F7.3°C 91% 13.0 mph W20.9 kmh W -- 29.69 in1005.4 mb 0.00 in0.0 mm 0.00 in0.0 mm 0.15 in3.8 mm
10:42 AM 47.6°F8.7°C 45.1°F7.3°C 91% 1.0 mph W1.6 kmh W -- 29.69 in1005.4 mb 0.00 in0.0 mm 0.00 in0.0 mm 0.15 in3.8 mm
10:44 AM 47.7°F8.7°C 45.1°F7.3°C 91% 7.0 mph W11.3 kmh W -- 29.69 in1005.4 mb 0.00 in0.0 mm 0.00 in0.0 mm 0.15 in3.8 mm
10:45 AM 48.0°F8.9°C 45.5°F7.5°C 91% 16.0 mph NW25.7 kmh NW -- 29.69 in1005.4 mb 0.00 in0.0 mm 0.00 in0.0 mm 0.15 in3.8 mm
10:46 AM 48.0°F8.9°C 45.5°F7.5°C 91% 11.0 mph W17.7 kmh W -- 29.69 in1005.4 mb 0.00 in0.0 mm 0.00 in0.0 mm 0.15 in3.8 mm
10:47 AM 48.2°F9.0°C 45.7°F7.6°C 91% 1.0 mph WNW1.6 kmh WNW -- 29.69 in1005.4 mb 0.00 in0.0 mm 0.00 in0.0 mm 0.15 in3.8 mm
10:48 AM 48.4°F9.1°C 45.8°F7.7°C 91% Calm Calm -- 29.69 in1005.4 mb 0.00 in0.0 mm 0.00 in0.0 mm 0.15 in3.8 mm
10:49 AM 48.5°F9.2°C 46.0°F7.8°C 91% 9.0 mph NNW14.5 kmh NNW -- 29.69 in1005.4 mb 0.00 in0.0 mm 0.00 in0.0 mm 0.15 in3.8 mm
10:50 AM 48.5°F9.2°C 46.0°F7.8°C 91% 10.0 mph W16.1 kmh W -- 29.69 in1005.4 mb 0.00 in0.0 mm 0.00 in0.0 mm 0.15 in3.8 mm
10:51 AM 48.6°F9.2°C 46.0°F7.8°C 91% 10.0 mph NW16.1 kmh NW -- 29.69 in1005.4 mb 0.00 in0.0 mm 0.00 in0.0 mm 0.15 in3.8 mm
10:52 AM 48.9°F9.4°C 46.4°F8.0°C 91% 1.0 mph W1.6 kmh W -- 29.69 in1005.4 mb 0.00 in0.0 mm 0.00 in0.0 mm 0.15 in3.8 mm
10:54 AM 48.9°F9.4°C 46.1°F7.8°C 90% 6.0 mph NW9.7 kmh NW -- 29.69 in1005.4 mb 0.00 in0.0 mm 0.00 in0.0 mm 0.15 in3.8 mm
10:55 AM 49.0°F9.4°C 45.5°F7.5°C 88% 14.0 mph WNW22.5 kmh WNW -- 29.69 in1005.4 mb 0.00 in0.0 mm 0.00 in0.0 mm 0.15 in3.8 mm
10:56 AM 49.0°F9.4°C 45.5°F7.5°C 88% Calm Calm -- 29.69 in1005.4 mb 0.00 in0.0 mm 0.00 in0.0 mm 0.15 in3.8 mm
10:57 AM 49.0°F9.4°C 45.5°F7.5°C 88% 6.0 mph NNE9.7 kmh NNE -- 29.69 in1005.4 mb 0.00 in0.0 mm 0.00 in0.0 mm 0.15 in3.8 mm
10:58 AM 49.0°F9.4°C 45.5°F7.5°C 88% 3.0 mph ESE4.8 kmh ESE -- 29.69 in1005.4 mb 0.00 in0.0 mm 0.00 in0.0 mm 0.15 in3.8 mm
10:59 AM 49.0°F9.4°C 45.5°F7.5°C 88% 5.0 mph NNW8.0 kmh NNW -- 29.69 in1005.4 mb 0.00 in0.0 mm 0.00 in0.0 mm 0.15 in3.8 mm
11:00 AM 49.0°F9.4°C 45.5°F7.5°C 88% 7.0 mph SSW11.3 kmh SSW -- 29.69 in1005.4 mb 0.00 in0.0 mm 0.00 in0.0 mm 0.15 in3.8 mm
11:01 AM 49.2°F9.6°C 45.8°F7.7°C 88% Calm Calm -- 29.69 in1005.4 mb 0.00 in0.0 mm 0.00 in0.0 mm 0.15 in3.8 mm
11:02 AM 49.2°F9.6°C 45.8°F7.7°C 88% 9.0 mph NNE14.5 kmh NNE -- 29.69 in1005.4 mb 0.00 in0.0 mm 0.00 in0.0 mm 0.15 in3.8 mm
11:03 AM 49.2°F9.6°C 45.8°F7.7°C 88% 5.0 mph WNW8.0 kmh WNW -- 29.69 in1005.4 mb 0.00 in0.0 mm 0.00 in0.0 mm 0.15 in3.8 mm
11:04 AM 49.2°F9.6°C 45.8°F7.7°C 88% 1.0 mph NNE1.6 kmh NNE -- 29.68 in1005.1 mb 0.00 in0.0 mm 0.00 in0.0 mm 0.15 in3.8 mm
11:05 AM 49.2°F9.6°C 45.8°F7.7°C 88% 3.0 mph NNE4.8 kmh NNE -- 29.68 in1005.1 mb 0.00 in0.0 mm 0.00 in0.0 mm 0.15 in3.8 mm
11:06 AM 49.2°F9.6°C 45.8°F7.7°C 88% 6.0 mph WNW9.7 kmh WNW -- 29.68 in1005.1 mb 0.00 in0.0 mm 0.00 in0.0 mm 0.15 in3.8 mm
11:07 AM 49.2°F9.6°C 45.8°F7.7°C 88% 2.0 mph W3.2 kmh W -- 29.69 in1005.4 mb 0.00 in0.0 mm 0.00 in0.0 mm 0.15 in3.8 mm
11:08 AM 49.2°F9.6°C 45.8°F7.7°C 88% Calm Calm -- 29.68 in1005.1 mb 0.00 in0.0 mm 0.00 in0.0 mm 0.15 in3.8 mm
11:09 AM 49.2°F9.6°C 45.8°F7.7°C 88% Calm Calm -- 29.68 in1005.1 mb 0.00 in0.0 mm 0.00 in0.0 mm 0.15 in3.8 mm
11:10 AM 49.2°F9.6°C 45.8°F7.7°C 88% 3.0 mph WNW4.8 kmh WNW -- 29.68 in1005.1 mb 0.00 in0.0 mm 0.00 in0.0 mm 0.15 in3.8 mm
11:11 AM 49.2°F9.6°C 45.8°F7.7°C 88% 3.0 mph NNW4.8 kmh NNW -- 29.69 in1005.4 mb 0.00 in0.0 mm 0.00 in0.0 mm 0.15 in3.8 mm
11:12 AM 49.0°F9.4°C 45.5°F7.5°C 88% 10.0 mph NNW16.1 kmh NNW -- 29.68 in1005.1 mb 0.00 in0.0 mm 0.00 in0.0 mm 0.15 in3.8 mm
11:13 AM 49.0°F9.4°C 45.5°F7.5°C 88% 13.0 mph WSW20.9 kmh WSW -- 29.68 in1005.1 mb 0.00 in0.0 mm 0.00 in0.0 mm 0.15 in3.8 mm
11:14 AM 49.0°F9.4°C 45.5°F7.5°C 88% 2.0 mph WNW3.2 kmh WNW -- 29.68 in1005.1 mb 0.00 in0.0 mm 0.00 in0.0 mm 0.15 in3.8 mm
11:15 AM 49.0°F9.4°C 45.5°F7.5°C 88% 12.0 mph SW19.3 kmh SW -- 29.68 in1005.1 mb 0.00 in0.0 mm 0.00 in0.0 mm 0.15 in3.8 mm
11:16 AM 49.0°F9.4°C 45.5°F7.5°C 88% 5.0 mph W8.0 kmh W -- 29.68 in1005.1 mb 0.00 in0.0 mm 0.00 in0.0 mm 0.15 in3.8 mm
11:17 AM 49.0°F9.4°C 45.5°F7.5°C 88% 2.0 mph NNW3.2 kmh NNW -- 29.68 in1005.1 mb 0.00 in0.0 mm 0.00 in0.0 mm 0.15 in3.8 mm
11:18 AM 49.0°F9.4°C 45.5°F7.5°C 88% 3.0 mph NNW4.8 kmh NNW -- 29.68 in1005.1 mb 0.00 in0.0 mm 0.00 in0.0 mm 0.15 in3.8 mm
11:19 AM 49.0°F9.4°C 45.5°F7.5°C 88% Calm Calm -- 29.68 in1005.1 mb 0.00 in0.0 mm 0.00 in0.0 mm 0.15 in3.8 mm
11:20 AM 49.0°F9.4°C 46.1°F7.8°C 90% 5.0 mph WNW8.0 kmh WNW -- 29.68 in1005.1 mb 0.00 in0.0 mm 0.00 in0.0 mm 0.15 in3.8 mm
11:21 AM 49.0°F9.4°C 46.1°F7.8°C 90% 1.0 mph WNW1.6 kmh WNW -- 29.68 in1005.1 mb 0.00 in0.0 mm 0.00 in0.0 mm 0.15 in3.8 mm
11:22 AM 49.0°F9.4°C 45.5°F7.5°C 88% 10.0 mph NW16.1 kmh NW -- 29.67 in1004.7 mb 0.00 in0.0 mm 0.00 in0.0 mm 0.15 in3.8 mm
11:23 AM 49.0°F9.4°C 45.5°F7.5°C 88% 20.0 mph NW32.2 kmh NW -- 29.67 in1004.7 mb 0.00 in0.0 mm 0.00 in0.0 mm 0.15 in3.8 mm
11:24 AM 49.0°F9.4°C 45.5°F7.5°C 88% 6.0 mph WNW9.7 kmh WNW -- 29.67 in1004.7 mb 0.00 in0.0 mm 0.00 in0.0 mm 0.15 in3.8 mm
11:25 AM 49.2°F9.6°C 45.8°F7.7°C 88% 3.0 mph W4.8 kmh W -- 29.67 in1004.7 mb 0.00 in0.0 mm 0.00 in0.0 mm 0.15 in3.8 mm
11:27 AM 49.2°F9.6°C 45.8°F7.7°C 88% 11.0 mph WNW17.7 kmh WNW -- 29.67 in1004.7 mb 0.00 in0.0 mm 0.00 in0.0 mm 0.15 in3.8 mm
11:28 AM 49.2°F9.6°C 45.8°F7.7°C 88% 5.0 mph WNW8.0 kmh WNW -- 29.67 in1004.7 mb 0.00 in0.0 mm 0.00 in0.0 mm 0.15 in3.8 mm
11:29 AM 49.2°F9.6°C 45.8°F7.7°C 88% 6.0 mph WNW9.7 kmh WNW -- 29.67 in1004.7 mb 0.00 in0.0 mm 0.00 in0.0 mm 0.15 in3.8 mm
11:30 AM 49.4°F9.7°C 46.0°F7.8°C 88% 2.0 mph WNW3.2 kmh WNW -- 29.67 in1004.7 mb 0.00 in0.0 mm 0.00 in0.0 mm 0.15 in3.8 mm
11:31 AM 49.4°F9.7°C 46.0°F7.8°C 88% 6.0 mph W9.7 kmh W -- 29.67 in1004.7 mb 0.00 in0.0 mm 0.00 in0.0 mm 0.15 in3.8 mm
11:32 AM 49.4°F9.7°C 46.0°F7.8°C 88% 16.0 mph W25.7 kmh W -- 29.67 in1004.7 mb 0.00 in0.0 mm 0.00 in0.0 mm 0.15 in3.8 mm
11:33 AM 49.4°F9.7°C 46.0°F7.8°C 88% Calm Calm -- 29.66 in1004.4 mb 0.00 in0.0 mm 0.00 in0.0 mm 0.15 in3.8 mm
11:34 AM 49.6°F9.8°C 46.2°F7.9°C 88% 18.0 mph 29.0 kmh -- 29.67 in1004.7 mb 0.00 in0.0 mm 0.00 in0.0 mm 0.15 in3.8 mm
11:35 AM 49.6°F9.8°C 46.2°F7.9°C 88% 11.0 mph W17.7 kmh W -- 29.67 in1004.7 mb 0.00 in0.0 mm 0.00 in0.0 mm 0.15 in3.8 mm
11:36 AM 49.6°F9.8°C 46.2°F7.9°C 88% Calm Calm -- 29.66 in1004.4 mb 0.00 in0.0 mm 0.00 in0.0 mm 0.15 in3.8 mm
11:37 AM 49.6°F9.8°C 46.2°F7.9°C 88% 1.0 mph W1.6 kmh W -- 29.66 in1004.4 mb 0.00 in0.0 mm 0.00 in0.0 mm 0.15 in3.8 mm
11:38 AM 49.6°F9.8°C 46.2°F7.9°C 88% 5.0 mph NNW8.0 kmh NNW -- 29.66 in1004.4 mb 0.00 in0.0 mm 0.00 in0.0 mm 0.15 in3.8 mm
11:39 AM 49.8°F9.9°C 46.4°F8.0°C 88% Calm Calm -- 29.66 in1004.4 mb 0.00 in0.0 mm 0.00 in0.0 mm 0.15 in3.8 mm
11:40 AM 49.8°F9.9°C 46.4°F8.0°C 88% 5.0 mph NW8.0 kmh NW -- 29.67 in1004.7 mb 0.00 in0.0 mm 0.00 in0.0 mm 0.15 in3.8 mm
11:41 AM 49.8°F9.9°C 46.4°F8.0°C 88% 11.0 mph 17.7 kmh -- 29.66 in1004.4 mb 0.00 in0.0 mm 0.00 in0.0 mm 0.15 in3.8 mm
11:42 AM 49.8°F9.9°C 46.4°F8.0°C 88% 2.0 mph WNW3.2 kmh WNW -- 29.66 in1004.4 mb 0.00 in0.0 mm 0.00 in0.0 mm 0.15 in3.8 mm
11:43 AM 49.8°F9.9°C 46.4°F8.0°C 88% 1.0 mph WNW1.6 kmh WNW -- 29.66 in1004.4 mb 0.00 in0.0 mm 0.00 in0.0 mm 0.15 in3.8 mm
11:44 AM 49.8°F9.9°C 46.4°F8.0°C 88% 2.0 mph WNW3.2 kmh WNW -- 29.67 in1004.7 mb 0.00 in0.0 mm 0.00 in0.0 mm 0.15 in3.8 mm
11:45 AM 49.8°F9.9°C 46.4°F8.0°C 88% 12.0 mph W19.3 kmh W -- 29.66 in1004.4 mb 0.00 in0.0 mm 0.00 in0.0 mm 0.15 in3.8 mm
11:46 AM 49.8°F9.9°C 46.4°F8.0°C 88% 5.0 mph NNW8.0 kmh NNW -- 29.66 in1004.4 mb 0.00 in0.0 mm 0.00 in0.0 mm 0.15 in3.8 mm
11:47 AM 49.8°F9.9°C 46.4°F8.0°C 88% Calm Calm -- 29.66 in1004.4 mb 0.00 in0.0 mm 0.00 in0.0 mm 0.15 in3.8 mm
11:48 AM 49.8°F9.9°C 46.4°F8.0°C 88% 1.0 mph NW1.6 kmh NW -- 29.66 in1004.4 mb 0.00 in0.0 mm 0.00 in0.0 mm 0.15 in3.8 mm
11:49 AM 49.8°F9.9°C 46.4°F8.0°C 88% 1.0 mph WNW1.6 kmh WNW -- 29.66 in1004.4 mb 0.00 in0.0 mm 0.00 in0.0 mm 0.15 in3.8 mm
11:50 AM 49.8°F9.9°C 46.4°F8.0°C 88% 9.0 mph NW14.5 kmh NW -- 29.66 in1004.4 mb 0.00 in0.0 mm 0.00 in0.0 mm 0.15 in3.8 mm
11:51 AM 49.8°F9.9°C 45.8°F7.7°C 86% Calm Calm -- 29.66 in1004.4 mb 0.00 in0.0 mm 0.00 in0.0 mm 0.15 in3.8 mm
11:52 AM 49.8°F9.9°C 45.8°F7.7°C 86% 4.0 mph WNW6.4 kmh WNW -- 29.66 in1004.4 mb 0.00 in0.0 mm 0.00 in0.0 mm 0.15 in3.8 mm
11:53 AM 49.6°F9.8°C 45.6°F7.6°C 86% 6.0 mph WNW9.7 kmh WNW -- 29.66 in1004.4 mb 0.00 in0.0 mm 0.00 in0.0 mm 0.15 in3.8 mm
11:54 AM 49.6°F9.8°C 45.6°F7.6°C 86% 7.0 mph WNW11.3 kmh WNW -- 29.66 in1004.4 mb 0.00 in0.0 mm 0.00 in0.0 mm 0.15 in3.8 mm
11:55 AM 49.6°F9.8°C 45.6°F7.6°C 86% 10.0 mph WSW16.1 kmh WSW -- 29.66 in1004.4 mb 0.00 in0.0 mm 0.00 in0.0 mm 0.15 in3.8 mm
11:56 AM 49.6°F9.8°C 45.6°F7.6°C 86% 1.0 mph W1.6 kmh W -- 29.66 in1004.4 mb 0.00 in0.0 mm 0.00 in0.0 mm 0.15 in3.8 mm
11:58 AM 49.4°F9.7°C 45.4°F7.4°C 86% 6.0 mph W9.7 kmh W -- 29.66 in1004.4 mb 0.00 in0.0 mm 0.00 in0.0 mm 0.15 in3.8 mm
11:59 AM 49.4°F9.7°C 45.4°F7.4°C 86% 4.0 mph W6.4 kmh W -- 29.66 in1004.4 mb 0.00 in0.0 mm 0.00 in0.0 mm 0.15 in3.8 mm
12:00 PM 49.2°F9.6°C 45.2°F7.3°C 86% Calm Calm -- 29.66 in1004.4 mb 0.00 in0.0 mm 0.00 in0.0 mm 0.15 in3.8 mm
12:01 PM 49.2°F9.6°C 45.2°F7.3°C 86% 3.0 mph NW4.8 kmh NW -- 29.66 in1004.4 mb 0.00 in0.0 mm 0.00 in0.0 mm 0.15 in3.8 mm
12:02 PM 49.0°F9.4°C 44.9°F7.2°C 86% 3.0 mph NW4.8 kmh NW -- 29.67 in1004.7 mb 0.00 in0.0 mm 0.00 in0.0 mm 0.15 in3.8 mm
12:03 PM 49.0°F9.4°C 45.5°F7.5°C 88% 1.0 mph W1.6 kmh W -- 29.67 in1004.7 mb 0.00 in0.0 mm 0.00 in0.0 mm 0.15 in3.8 mm
12:04 PM 49.0°F9.4°C 45.5°F7.5°C 88% Calm Calm -- 29.66 in1004.4 mb 0.00 in0.0 mm 0.00 in0.0 mm 0.15 in3.8 mm
12:05 PM 48.9°F9.4°C 45.5°F7.5°C 88% 6.0 mph NW9.7 kmh NW -- 29.66 in1004.4 mb 0.00 in0.0 mm 0.00 in0.0 mm 0.15 in3.8 mm
12:06 PM 48.9°F9.4°C 45.5°F7.5°C 88% Calm Calm -- 29.66 in1004.4 mb 0.00 in0.0 mm 0.00 in0.0 mm 0.15 in3.8 mm
12:07 PM 48.9°F9.4°C 45.5°F7.5°C 88% 1.0 mph WNW1.6 kmh WNW -- 29.66 in1004.4 mb 0.00 in0.0 mm 0.00 in0.0 mm 0.15 in3.8 mm
12:08 PM 48.9°F9.4°C 45.5°F7.5°C 88% Calm Calm -- 29.66 in1004.4 mb 0.00 in0.0 mm 0.00 in0.0 mm 0.15 in3.8 mm
12:09 PM 48.6°F9.2°C 45.1°F7.3°C 88% 1.0 mph NW1.6 kmh NW -- 29.67 in1004.7 mb 0.00 in0.0 mm 0.00 in0.0 mm 0.15 in3.8 mm
12:10 PM 48.5°F9.2°C 45.7°F7.6°C 90% Calm Calm -- 29.66 in1004.4 mb 0.00 in0.0 mm 0.00 in0.0 mm 0.15 in3.8 mm
12:11 PM 48.5°F9.2°C 45.7°F7.6°C 90% 11.0 mph W17.7 kmh W -- 29.66 in1004.4 mb 0.01 in0.3 mm 0.60 in15.2 mm 0.16 in4.1 mm
12:12 PM 48.4°F9.1°C 45.5°F7.5°C 90% Calm Calm -- 29.66 in1004.4 mb 0.01 in0.3 mm 0.00 in0.0 mm 0.16 in4.1 mm
12:13 PM 48.2°F9.0°C 45.7°F7.6°C 91% Calm Calm -- 29.67 in1004.7 mb 0.01 in0.3 mm 0.00 in0.0 mm 0.16 in4.1 mm
12:14 PM 48.2°F9.0°C 45.7°F7.6°C 91% 2.0 mph W3.2 kmh W -- 29.67 in1004.7 mb 0.01 in0.3 mm 0.00 in0.0 mm 0.16 in4.1 mm
12:15 PM 48.0°F8.9°C 45.5°F7.5°C 91% 1.0 mph WNW1.6 kmh WNW -- 29.67 in1004.7 mb 0.01 in0.3 mm 0.00 in0.0 mm 0.16 in4.1 mm
12:16 PM 47.7°F8.7°C 45.1°F7.3°C 91% 7.0 mph NNW11.3 kmh NNW -- 29.66 in1004.4 mb 0.02 in0.5 mm 0.60 in15.2 mm 0.17 in4.3 mm
12:17 PM 47.7°F8.7°C 45.1°F7.3°C 91% 1.0 mph NW1.6 kmh NW -- 29.67 in1004.7 mb 0.02 in0.5 mm 0.00 in0.0 mm 0.17 in4.3 mm
12:18 PM 47.7°F8.7°C 45.1°F7.3°C 91% Calm Calm -- 29.67 in1004.7 mb 0.02 in0.5 mm 0.00 in0.0 mm 0.17 in4.3 mm
12:19 PM 47.7°F8.7°C 45.1°F7.3°C 91% Calm Calm -- 29.67 in1004.7 mb 0.02 in0.5 mm 0.00 in0.0 mm 0.17 in4.3 mm
12:20 PM 47.7°F8.7°C 45.1°F7.3°C 91% 17.0 mph NW27.4 kmh NW -- 29.67 in1004.7 mb 0.03 in0.8 mm 0.60 in15.2 mm 0.18 in4.6 mm
12:21 PM 47.6°F8.7°C 45.1°F7.3°C 91% 4.0 mph W6.4 kmh W -- 29.67 in1004.7 mb 0.03 in0.8 mm 0.00 in0.0 mm 0.18 in4.6 mm
12:22 PM 47.6°F8.7°C 45.1°F7.3°C 91% 1.0 mph W1.6 kmh W -- 29.67 in1004.7 mb 0.03 in0.8 mm 0.00 in0.0 mm 0.18 in4.6 mm
12:23 PM 47.6°F8.7°C 45.1°F7.3°C 91% 10.0 mph W16.1 kmh W -- 29.67 in1004.7 mb 0.03 in0.8 mm 0.00 in0.0 mm 0.18 in4.6 mm
12:24 PM 47.5°F8.6°C 45.0°F7.2°C 91% 3.0 mph NNW4.8 kmh NNW -- 29.67 in1004.7 mb 0.03 in0.8 mm 0.00 in0.0 mm 0.18 in4.6 mm
12:25 PM 47.5°F8.6°C 45.0°F7.2°C 91% Calm Calm -- 29.67 in1004.7 mb 0.04 in1.0 mm 0.60 in15.2 mm 0.19 in4.8 mm
12:26 PM 47.5°F8.6°C 45.0°F7.2°C 91% 3.0 mph NW4.8 kmh NW -- 29.67 in1004.7 mb 0.04 in1.0 mm 0.00 in0.0 mm 0.19 in4.8 mm
12:27 PM 47.5°F8.6°C 45.0°F7.2°C 91% 4.0 mph NNW6.4 kmh NNW -- 29.67 in1004.7 mb 0.04 in1.0 mm 0.00 in0.0 mm 0.19 in4.8 mm
12:28 PM 47.3°F8.5°C 44.8°F7.1°C 91% 1.0 mph SSW1.6 kmh SSW -- 29.67 in1004.7 mb 0.04 in1.0 mm 0.00 in0.0 mm 0.19 in4.8 mm
12:29 PM 47.3°F8.5°C 44.8°F7.1°C 91% Calm Calm -- 29.67 in1004.7 mb 0.04 in1.0 mm 0.00 in0.0 mm 0.19 in4.8 mm
12:30 PM 47.3°F8.5°C 44.8°F7.1°C 91% 8.0 mph W12.9 kmh W -- 29.67 in1004.7 mb 0.05 in1.3 mm 0.60 in15.2 mm 0.20 in5.1 mm
12:31 PM 47.3°F8.5°C 44.8°F7.1°C 91% 1.0 mph W1.6 kmh W -- 29.67 in1004.7 mb 0.05 in1.3 mm 0.00 in0.0 mm 0.20 in5.1 mm
12:32 PM 47.3°F8.5°C 45.4°F7.4°C 93% 10.0 mph W16.1 kmh W -- 29.67 in1004.7 mb 0.05 in1.3 mm 0.00 in0.0 mm 0.20 in5.1 mm
12:33 PM 47.3°F8.5°C 45.4°F7.4°C 93% 3.0 mph NNW4.8 kmh NNW -- 29.67 in1004.7 mb 0.05 in1.3 mm 0.00 in0.0 mm 0.20 in5.1 mm
12:34 PM 47.3°F8.5°C 45.4°F7.4°C 93% 10.0 mph WNW16.1 kmh WNW -- 29.67 in1004.7 mb 0.05 in1.3 mm 0.00 in0.0 mm 0.20 in5.1 mm
12:35 PM 47.1°F8.4°C 45.2°F7.3°C 93% 3.0 mph W4.8 kmh W -- 29.67 in1004.7 mb 0.06 in1.5 mm 0.60 in15.2 mm 0.21 in5.3 mm
12:36 PM 47.1°F8.4°C 45.2°F7.3°C 93% 6.0 mph NW9.7 kmh NW -- 29.68 in1005.1 mb 0.06 in1.5 mm 0.00 in0.0 mm 0.21 in5.3 mm
12:37 PM 47.1°F8.4°C 45.2°F7.3°C 93% 5.0 mph WNW8.0 kmh WNW -- 29.68 in1005.1 mb 0.06 in1.5 mm 0.00 in0.0 mm 0.21 in5.3 mm
12:38 PM 47.1°F8.4°C 45.2°F7.3°C 93% 9.0 mph WNW14.5 kmh WNW -- 29.68 in1005.1 mb 0.06 in1.5 mm 0.00 in0.0 mm 0.21 in5.3 mm
12:39 PM 47.1°F8.4°C 45.2°F7.3°C 93% 1.0 mph WNW1.6 kmh WNW -- 29.68 in1005.1 mb 0.07 in1.8 mm 0.60 in15.2 mm 0.22 in5.6 mm
12:40 PM 47.1°F8.4°C 45.2°F7.3°C 93% Calm Calm -- 29.68 in1005.1 mb 0.07 in1.8 mm 0.00 in0.0 mm 0.22 in5.6 mm
12:42 PM 47.1°F8.4°C 45.2°F7.3°C 93% 2.0 mph W3.2 kmh W -- 29.68 in1005.1 mb 0.07 in1.8 mm 0.00 in0.0 mm 0.22 in5.6 mm
12:43 PM 47.1°F8.4°C 45.2°F7.3°C 93% 11.0 mph NNW17.7 kmh NNW -- 29.68 in1005.1 mb 0.07 in1.8 mm 0.00 in0.0 mm 0.22 in5.6 mm
12:44 PM 46.9°F8.3°C 45.0°F7.2°C 93% Calm Calm -- 29.68 in1005.1 mb 0.07 in1.8 mm 0.00 in0.0 mm 0.22 in5.6 mm
12:45 PM 46.9°F8.3°C 45.0°F7.2°C 93% Calm Calm -- 29.68 in1005.1 mb 0.08 in2.0 mm 0.60 in15.2 mm 0.23 in5.8 mm
12:46 PM 46.9°F8.3°C 45.0°F7.2°C 93% 1.0 mph WNW1.6 kmh WNW -- 29.68 in1005.1 mb 0.08 in2.0 mm 0.00 in0.0 mm 0.23 in5.8 mm
12:47 PM 46.9°F8.3°C 45.0°F7.2°C 93% 5.0 mph W8.0 kmh W -- 29.68 in1005.1 mb 0.08 in2.0 mm 0.00 in0.0 mm 0.23 in5.8 mm
12:48 PM 46.9°F8.3°C 45.0°F7.2°C 93% 2.0 mph WNW3.2 kmh WNW -- 29.68 in1005.1 mb 0.09 in2.3 mm 0.60 in15.2 mm 0.24 in6.1 mm
12:49 PM 46.7°F8.2°C 44.8°F7.1°C 93% 1.0 mph NNE1.6 kmh NNE -- 29.68 in1005.1 mb 0.09 in2.3 mm 0.00 in0.0 mm 0.24 in6.1 mm
12:50 PM 46.7°F8.2°C 44.8°F7.1°C 93% 2.0 mph WNW3.2 kmh WNW -- 29.68 in1005.1 mb 0.10 in2.5 mm 0.60 in15.2 mm 0.25 in6.4 mm
12:51 PM 46.7°F8.2°C 44.8°F7.1°C 93% Calm Calm -- 29.68 in1005.1 mb 0.10 in2.5 mm 0.00 in0.0 mm 0.25 in6.4 mm
12:53 PM 46.7°F8.2°C 44.8°F7.1°C 93% 1.0 mph NW1.6 kmh NW -- 29.68 in1005.1 mb 0.10 in2.5 mm 0.00 in0.0 mm 0.25 in6.4 mm
12:54 PM 46.7°F8.2°C 44.8°F7.1°C 93% Calm Calm -- 29.68 in1005.1 mb 0.11 in2.8 mm 0.60 in15.2 mm 0.26 in6.6 mm
12:55 PM 46.7°F8.2°C 44.8°F7.1°C 93% Calm Calm -- 29.68 in1005.1 mb 0.11 in2.8 mm 0.00 in0.0 mm 0.26 in6.6 mm
12:56 PM 46.7°F8.2°C 44.8°F7.1°C 93% Calm Calm -- 29.68 in1005.1 mb 0.11 in2.8 mm 0.00 in0.0 mm 0.26 in6.6 mm
12:57 PM 46.7°F8.2°C 44.8°F7.1°C 93% 6.0 mph W9.7 kmh W -- 29.68 in1005.1 mb 0.11 in2.8 mm 0.00 in0.0 mm 0.26 in6.6 mm
12:58 PM 46.5°F8.1°C 44.6°F7.0°C 93% 5.0 mph WNW8.0 kmh WNW -- 29.68 in1005.1 mb 0.11 in2.8 mm 0.00 in0.0 mm 0.26 in6.6 mm
12:59 PM 46.5°F8.1°C 44.6°F7.0°C 93% 16.0 mph NE25.7 kmh NE -- 29.68 in1005.1 mb 0.11 in2.8 mm 0.00 in0.0 mm 0.26 in6.6 mm
01:00 PM 46.5°F8.1°C 44.6°F7.0°C 93% 1.0 mph WNW1.6 kmh WNW -- 29.67 in1004.7 mb 0.11 in2.8 mm 0.00 in0.0 mm 0.26 in6.6 mm
01:01 PM 46.4°F8.0°C 44.5°F6.9°C 93% 12.0 mph WSW19.3 kmh WSW -- 29.67 in1004.7 mb 0.00 in0.0 mm 0.00 in0.0 mm 0.26 in6.6 mm
01:02 PM 46.4°F8.0°C 44.5°F6.9°C 93% 2.0 mph WNW3.2 kmh WNW -- 29.67 in1004.7 mb 0.01 in0.3 mm 0.60 in15.2 mm 0.27 in6.9 mm
01:03 PM 46.4°F8.0°C 45.0°F7.2°C 95% 4.0 mph WNW6.4 kmh WNW -- 29.67 in1004.7 mb 0.01 in0.3 mm 0.00 in0.0 mm 0.27 in6.9 mm
01:04 PM 46.4°F8.0°C 45.0°F7.2°C 95% 2.0 mph NW3.2 kmh NW -- 29.68 in1005.1 mb 0.02 in0.5 mm 0.60 in15.2 mm 0.28 in7.1 mm
01:05 PM 46.1°F7.8°C 44.7°F7.1°C 95% 12.0 mph WNW19.3 kmh WNW -- 29.68 in1005.1 mb 0.02 in0.5 mm 0.00 in0.0 mm 0.28 in7.1 mm
01:06 PM 46.1°F7.8°C 44.7°F7.1°C 95% 7.0 mph WNW11.3 kmh WNW -- 29.68 in1005.1 mb 0.02 in0.5 mm 0.00 in0.0 mm 0.28 in7.1 mm
01:07 PM 46.1°F7.8°C 44.7°F7.1°C 95% 5.0 mph WNW8.0 kmh WNW -- 29.68 in1005.1 mb 0.03 in0.8 mm 0.60 in15.2 mm 0.29 in7.4 mm
01:08 PM 45.9°F7.7°C 44.5°F6.9°C 95% Calm Calm -- 29.68 in1005.1 mb 0.03 in0.8 mm 0.00 in0.0 mm 0.29 in7.4 mm
01:09 PM 45.9°F7.7°C 44.5°F6.9°C 95% 6.0 mph NW9.7 kmh NW -- 29.68 in1005.1 mb 0.03 in0.8 mm 0.00 in0.0 mm 0.29 in7.4 mm
01:10 PM 45.9°F7.7°C 44.5°F6.9°C 95% 4.0 mph W6.4 kmh W -- 29.68 in1005.1 mb 0.03 in0.8 mm 0.00 in0.0 mm 0.29 in7.4 mm
01:11 PM 45.9°F7.7°C 44.5°F6.9°C 95% 5.0 mph W8.0 kmh W -- 29.68 in1005.1 mb 0.04 in1.0 mm 0.60 in15.2 mm 0.30 in7.6 mm
01:12 PM 45.9°F7.7°C 44.5°F6.9°C 95% Calm Calm -- 29.68 in1005.1 mb 0.04 in1.0 mm 0.00 in0.0 mm 0.30 in7.6 mm
01:13 PM 45.9°F7.7°C 44.5°F6.9°C 95% 2.0 mph NW3.2 kmh NW -- 29.68 in1005.1 mb 0.04 in1.0 mm 0.00 in0.0 mm 0.30 in7.6 mm
01:14 PM 45.9°F7.7°C 44.5°F6.9°C 95% Calm Calm -- 29.68 in1005.1 mb 0.04 in1.0 mm 0.00 in0.0 mm 0.30 in7.6 mm
01:15 PM 45.9°F7.7°C 44.5°F6.9°C 95% 1.0 mph W1.6 kmh W -- 29.68 in1005.1 mb 0.04 in1.0 mm 0.00 in0.0 mm 0.30 in7.6 mm
01:16 PM 45.9°F7.7°C 44.5°F6.9°C 95% Calm Calm -- 29.68 in1005.1 mb 0.04 in1.0 mm 0.00 in0.0 mm 0.30 in7.6 mm
01:17 PM 46.0°F7.8°C 44.7°F7.1°C 95% Calm Calm -- 29.67 in1004.7 mb 0.05 in1.3 mm 0.60 in15.2 mm 0.31 in7.9 mm
01:18 PM 45.9°F7.7°C 44.8°F7.1°C 96% Calm Calm -- 29.68 in1005.1 mb 0.05 in1.3 mm 0.00 in0.0 mm 0.31 in7.9 mm
01:19 PM 45.9°F7.7°C 44.8°F7.1°C 96% Calm Calm -- 29.68 in1005.1 mb 0.05 in1.3 mm 0.00 in0.0 mm 0.31 in7.9 mm
01:20 PM 45.9°F7.7°C 44.8°F7.1°C 96% 6.0 mph W9.7 kmh W -- 29.68 in1005.1 mb 0.05 in1.3 mm 0.00 in0.0 mm 0.31 in7.9 mm
01:21 PM 45.9°F7.7°C 44.8°F7.1°C 96% 10.0 mph WNW16.1 kmh WNW -- 29.68 in1005.1 mb 0.05 in1.3 mm 0.00 in0.0 mm 0.31 in7.9 mm
01:22 PM 45.9°F7.7°C 44.8°F7.1°C 96% 15.0 mph WNW24.1 kmh WNW -- 29.68 in1005.1 mb 0.05 in1.3 mm 0.00 in0.0 mm 0.31 in7.9 mm
01:23 PM 45.9°F7.7°C 44.8°F7.1°C 96% Calm Calm -- 29.68 in1005.1 mb 0.05 in1.3 mm 0.00 in0.0 mm 0.31 in7.9 mm
01:24 PM 45.9°F7.7°C 44.8°F7.1°C 96% 1.0 mph WNW1.6 kmh WNW -- 29.68 in1005.1 mb 0.05 in1.3 mm 0.00 in0.0 mm 0.31 in7.9 mm
01:25 PM 45.9°F7.7°C 44.8°F7.1°C 96% 3.0 mph NW4.8 kmh NW -- 29.68 in1005.1 mb 0.06 in1.5 mm 0.60 in15.2 mm 0.32 in8.1 mm
01:26 PM 45.9°F7.7°C 44.8°F7.1°C 96% 1.0 mph NW1.6 kmh NW -- 29.67 in1004.7 mb 0.06 in1.5 mm 0.00 in0.0 mm 0.32 in8.1 mm
01:27 PM 45.9°F7.7°C 44.8°F7.1°C 96% 1.0 mph W1.6 kmh W -- 29.67 in1004.7 mb 0.06 in1.5 mm 0.00 in0.0 mm 0.32 in8.1 mm
01:28 PM 45.9°F7.7°C 44.8°F7.1°C 96% 1.0 mph WNW1.6 kmh WNW -- 29.67 in1004.7 mb 0.06 in1.5 mm 0.00 in0.0 mm 0.32 in8.1 mm
01:29 PM 45.9°F7.7°C 44.8°F7.1°C 96% 9.0 mph W14.5 kmh W -- 29.67 in1004.7 mb 0.07 in1.8 mm 0.60 in15.2 mm 0.33 in8.4 mm
01:30 PM 45.9°F7.7°C 44.8°F7.1°C 96% 7.0 mph W11.3 kmh W -- 29.67 in1004.7 mb 0.07 in1.8 mm 0.00 in0.0 mm 0.33 in8.4 mm
01:31 PM 45.9°F7.7°C 44.8°F7.1°C 96% 10.0 mph W16.1 kmh W -- 29.67 in1004.7 mb 0.07 in1.8 mm 0.00 in0.0 mm 0.33 in8.4 mm
01:32 PM 45.9°F7.7°C 44.8°F7.1°C 96% 4.0 mph W6.4 kmh W -- 29.68 in1005.1 mb 0.08 in2.0 mm 0.60 in15.2 mm 0.34 in8.6 mm
01:33 PM 45.9°F7.7°C 44.8°F7.1°C 96% 1.0 mph NNW1.6 kmh NNW -- 29.67 in1004.7 mb 0.08 in2.0 mm 0.00 in0.0 mm 0.34 in8.6 mm
01:34 PM 45.9°F7.7°C 44.8°F7.1°C 96% 2.0 mph 3.2 kmh -- 29.68 in1005.1 mb 0.08 in2.0 mm 0.00 in0.0 mm 0.34 in8.6 mm
01:35 PM 45.9°F7.7°C 44.8°F7.1°C 96% Calm Calm -- 29.68 in1005.1 mb 0.08 in2.0 mm 0.00 in0.0 mm 0.34 in8.6 mm
01:36 PM 45.9°F7.7°C 44.8°F7.1°C 96% Calm Calm -- 29.67 in1004.7 mb 0.09 in2.3 mm 0.60 in15.2 mm 0.35 in8.9 mm
01:37 PM 45.9°F7.7°C 44.8°F7.1°C 96% 4.0 mph WNW6.4 kmh WNW -- 29.67 in1004.7 mb 0.09 in2.3 mm 0.00 in0.0 mm 0.35 in8.9 mm
01:38 PM 45.9°F7.7°C 44.8°F7.1°C 96% 8.0 mph SW12.9 kmh SW -- 29.67 in1004.7 mb 0.10 in2.5 mm 0.60 in15.2 mm 0.36 in9.1 mm
01:39 PM 45.9°F7.7°C 44.8°F7.1°C 96% Calm Calm -- 29.67 in1004.7 mb 0.10 in2.5 mm 0.00 in0.0 mm 0.36 in9.1 mm
01:40 PM 45.9°F7.7°C 44.8°F7.1°C 96% Calm Calm -- 29.67 in1004.7 mb 0.10 in2.5 mm 0.00 in0.0 mm 0.36 in9.1 mm
01:41 PM 45.9°F7.7°C 44.8°F7.1°C 96% 3.0 mph WNW4.8 kmh WNW -- 29.67 in1004.7 mb 0.10 in2.5 mm 0.00 in0.0 mm 0.36 in9.1 mm
01:42 PM 45.9°F7.7°C 44.8°F7.1°C 96% 1.0 mph WNW1.6 kmh WNW -- 29.67 in1004.7 mb 0.10 in2.5 mm 0.00 in0.0 mm 0.36 in9.1 mm
01:43 PM 45.9°F7.7°C 44.8°F7.1°C 96% Calm Calm -- 29.67 in1004.7 mb 0.11 in2.8 mm 0.60 in15.2 mm 0.37 in9.4 mm
01:44 PM 45.9°F7.7°C 44.8°F7.1°C 96% 6.0 mph NNW9.7 kmh NNW -- 29.67 in1004.7 mb 0.11 in2.8 mm 0.00 in0.0 mm 0.37 in9.4 mm
01:45 PM 45.9°F7.7°C 44.8°F7.1°C 96% 2.0 mph NW3.2 kmh NW -- 29.67 in1004.7 mb 0.11 in2.8 mm 0.00 in0.0 mm 0.37 in9.4 mm
01:46 PM 45.9°F7.7°C 44.8°F7.1°C 96% Calm Calm -- 29.67 in1004.7 mb 0.11 in2.8 mm 0.00 in0.0 mm 0.37 in9.4 mm
01:47 PM 45.9°F7.7°C 44.8°F7.1°C 96% 2.0 mph WNW3.2 kmh WNW -- 29.67 in1004.7 mb 0.11 in2.8 mm 0.00 in0.0 mm 0.37 in9.4 mm
01:48 PM 45.9°F7.7°C 44.8°F7.1°C 96% 11.0 mph W17.7 kmh W -- 29.67 in1004.7 mb 0.11 in2.8 mm 0.00 in0.0 mm 0.37 in9.4 mm
01:49 PM 45.9°F7.7°C 44.8°F7.1°C 96% 10.0 mph W16.1 kmh W -- 29.67 in1004.7 mb 0.11 in2.8 mm 0.00 in0.0 mm 0.37 in9.4 mm
01:50 PM 45.9°F7.7°C 44.8°F7.1°C 96% Calm Calm -- 29.68 in1005.1 mb 0.11 in2.8 mm 0.00 in0.0 mm 0.37 in9.4 mm
01:51 PM 45.9°F7.7°C 44.8°F7.1°C 96% Calm Calm -- 29.68 in1005.1 mb 0.11 in2.8 mm 0.00 in0.0 mm 0.37 in9.4 mm
01:52 PM 45.9°F7.7°C 44.8°F7.1°C 96% 5.0 mph WNW8.0 kmh WNW -- 29.68 in1005.1 mb 0.11 in2.8 mm 0.00 in0.0 mm 0.37 in9.4 mm
01:53 PM 45.9°F7.7°C 44.8°F7.1°C 96% 10.0 mph NW16.1 kmh NW -- 29.68 in1005.1 mb 0.12 in3.0 mm 0.60 in15.2 mm 0.38 in9.7 mm
01:54 PM 45.9°F7.7°C 44.8°F7.1°C 96% Calm Calm -- 29.68 in1005.1 mb 0.12 in3.0 mm 0.00 in0.0 mm 0.38 in9.7 mm
01:56 PM 45.9°F7.7°C 44.8°F7.1°C 96% 13.0 mph NW20.9 kmh NW -- 29.69 in1005.4 mb 0.12 in3.0 mm 0.00 in0.0 mm 0.38 in9.7 mm
01:57 PM 45.9°F7.7°C 44.8°F7.1°C 96% 5.0 mph W8.0 kmh W -- 29.68 in1005.1 mb 0.12 in3.0 mm 0.00 in0.0 mm 0.38 in9.7 mm
01:58 PM 45.9°F7.7°C 44.8°F7.1°C 96% 1.0 mph WSW1.6 kmh WSW -- 29.68 in1005.1 mb 0.12 in3.0 mm 0.00 in0.0 mm 0.38 in9.7 mm
01:59 PM 45.9°F7.7°C 44.8°F7.1°C 96% 4.0 mph W6.4 kmh W -- 29.68 in1005.1 mb 0.12 in3.0 mm 0.00 in0.0 mm 0.38 in9.7 mm
02:00 PM 45.9°F7.7°C 44.8°F7.1°C 96% 15.0 mph NW24.1 kmh NW -- 29.68 in1005.1 mb 0.12 in3.0 mm 0.00 in0.0 mm 0.38 in9.7 mm
02:01 PM 45.9°F7.7°C 44.8°F7.1°C 96% 1.0 mph 1.6 kmh -- 29.68 in1005.1 mb 0.00 in0.0 mm 0.00 in0.0 mm 0.38 in9.7 mm
02:02 PM 46.0°F7.8°C 44.9°F7.2°C 96% 15.0 mph W24.1 kmh W -- 29.68 in1005.1 mb 0.01 in0.3 mm 0.60 in15.2 mm 0.39 in9.9 mm
02:03 PM 45.9°F7.7°C 44.8°F7.1°C 96% 4.0 mph W6.4 kmh W -- 29.68 in1005.1 mb 0.01 in0.3 mm 0.00 in0.0 mm 0.39 in9.9 mm
02:04 PM 45.9°F7.7°C 44.8°F7.1°C 96% 1.0 mph NE1.6 kmh NE -- 29.68 in1005.1 mb 0.01 in0.3 mm 0.00 in0.0 mm 0.39 in9.9 mm
02:05 PM 45.9°F7.7°C 44.8°F7.1°C 96% 1.0 mph W1.6 kmh W -- 29.68 in1005.1 mb 0.01 in0.3 mm 0.00 in0.0 mm 0.39 in9.9 mm
02:06 PM 45.9°F7.7°C 44.8°F7.1°C 96% 13.0 mph W20.9 kmh W -- 29.68 in1005.1 mb 0.02 in0.5 mm 0.60 in15.2 mm 0.40 in10.2 mm
02:07 PM 45.9°F7.7°C 44.8°F7.1°C 96% 7.0 mph NW11.3 kmh NW -- 29.68 in1005.1 mb 0.02 in0.5 mm 0.00 in0.0 mm 0.40 in10.2 mm
02:08 PM 45.9°F7.7°C 44.8°F7.1°C 96% Calm Calm -- 29.68 in1005.1 mb 0.02 in0.5 mm 0.00 in0.0 mm 0.40 in10.2 mm
02:09 PM 45.9°F7.7°C 44.8°F7.1°C 96% Calm Calm -- 29.67 in1004.7 mb 0.02 in0.5 mm 0.00 in0.0 mm 0.40 in10.2 mm
02:10 PM 45.9°F7.7°C 44.8°F7.1°C 96% 14.0 mph W22.5 kmh W -- 29.68 in1005.1 mb 0.03 in0.8 mm 0.60 in15.2 mm 0.41 in10.4 mm
02:11 PM 45.9°F7.7°C 44.8°F7.1°C 96% 1.0 mph W1.6 kmh W -- 29.68 in1005.1 mb 0.03 in0.8 mm 0.00 in0.0 mm 0.41 in10.4 mm
02:12 PM 45.9°F7.7°C 44.8°F7.1°C 96% 1.0 mph NNW1.6 kmh NNW -- 29.68 in1005.1 mb 0.03 in0.8 mm 0.00 in0.0 mm 0.41 in10.4 mm
02:13 PM 45.9°F7.7°C 44.8°F7.1°C 96% 15.0 mph W24.1 kmh W -- 29.68 in1005.1 mb 0.03 in0.8 mm 0.00 in0.0 mm 0.41 in10.4 mm
02:14 PM 45.9°F7.7°C 44.8°F7.1°C 96% 17.0 mph WSW27.4 kmh WSW -- 29.67 in1004.7 mb 0.04 in1.0 mm 0.60 in15.2 mm 0.42 in10.7 mm
02:15 PM 45.9°F7.7°C 44.8°F7.1°C 96% 12.0 mph SSW19.3 kmh SSW -- 29.67 in1004.7 mb 0.04 in1.0 mm 0.00 in0.0 mm 0.42 in10.7 mm
02:16 PM 45.9°F7.7°C 44.8°F7.1°C 96% 6.0 mph W9.7 kmh W -- 29.67 in1004.7 mb 0.04 in1.0 mm 0.00 in0.0 mm 0.42 in10.7 mm
02:17 PM 45.9°F7.7°C 44.8°F7.1°C 96% 11.0 mph W17.7 kmh W -- 29.67 in1004.7 mb 0.04 in1.0 mm 0.00 in0.0 mm 0.42 in10.7 mm
02:18 PM 45.9°F7.7°C 44.8°F7.1°C 96% 8.0 mph WNW12.9 kmh WNW -- 29.67 in1004.7 mb 0.04 in1.0 mm 0.00 in0.0 mm 0.42 in10.7 mm
02:19 PM 45.9°F7.7°C 44.8°F7.1°C 96% 11.0 mph WSW17.7 kmh WSW -- 29.67 in1004.7 mb 0.04 in1.0 mm 0.00 in0.0 mm 0.42 in10.7 mm
02:20 PM 45.9°F7.7°C 44.8°F7.1°C 96% 11.0 mph WNW17.7 kmh WNW -- 29.68 in1005.1 mb 0.04 in1.0 mm 0.00 in0.0 mm 0.42 in10.7 mm
02:21 PM 45.9°F7.7°C 44.8°F7.1°C 96% 8.0 mph WSW12.9 kmh WSW -- 29.67 in1004.7 mb 0.05 in1.3 mm 0.60 in15.2 mm 0.43 in10.9 mm
02:22 PM 45.9°F7.7°C 44.8°F7.1°C 96% 11.0 mph W17.7 kmh W -- 29.67 in1004.7 mb 0.05 in1.3 mm 0.00 in0.0 mm 0.43 in10.9 mm
02:23 PM 45.9°F7.7°C 44.8°F7.1°C 96% 7.0 mph W11.3 kmh W -- 29.67 in1004.7 mb 0.05 in1.3 mm 0.00 in0.0 mm 0.43 in10.9 mm
02:24 PM 45.9°F7.7°C 44.8°F7.1°C 96% 1.0 mph W1.6 kmh W -- 29.67 in1004.7 mb 0.06 in1.5 mm 0.60 in15.2 mm 0.44 in11.2 mm
02:25 PM 45.9°F7.7°C 44.8°F7.1°C 96% 2.0 mph SSW3.2 kmh SSW -- 29.67 in1004.7 mb 0.06 in1.5 mm 0.00 in0.0 mm 0.44 in11.2 mm
02:26 PM 45.9°F7.7°C 44.8°F7.1°C 96% Calm Calm -- 29.68 in1005.1 mb 0.06 in1.5 mm 0.00 in0.0 mm 0.44 in11.2 mm
02:27 PM 45.9°F7.7°C 44.8°F7.1°C 96% 16.0 mph NW25.7 kmh NW -- 29.68 in1005.1 mb 0.06 in1.5 mm 0.00 in0.0 mm 0.44 in11.2 mm
02:28 PM 45.9°F7.7°C 44.8°F7.1°C 96% 17.0 mph W27.4 kmh W -- 29.67 in1004.7 mb 0.06 in1.5 mm 0.00 in0.0 mm 0.44 in11.2 mm
02:29 PM 45.9°F7.7°C 44.8°F7.1°C 96% 15.0 mph NNE24.1 kmh NNE -- 29.67 in1004.7 mb 0.06 in1.5 mm 0.00 in0.0 mm 0.44 in11.2 mm
02:30 PM 45.9°F7.7°C 44.8°F7.1°C 96% 6.0 mph W9.7 kmh W -- 29.68 in1005.1 mb 0.07 in1.8 mm 0.60 in15.2 mm 0.45 in11.4 mm
02:31 PM 45.9°F7.7°C 44.8°F7.1°C 96% 20.0 mph NNW32.2 kmh NNW -- 29.68 in1005.1 mb 0.07 in1.8 mm 0.00 in0.0 mm 0.45 in11.4 mm
02:32 PM 46.0°F7.8°C 45.2°F7.3°C 97% 4.0 mph WNW6.4 kmh WNW -- 29.68 in1005.1 mb 0.07 in1.8 mm 0.00 in0.0 mm 0.45 in11.4 mm
02:34 PM 45.9°F7.7°C 44.8°F7.1°C 96% 13.0 mph WNW20.9 kmh WNW -- 29.68 in1005.1 mb 0.07 in1.8 mm 0.00 in0.0 mm 0.45 in11.4 mm
02:35 PM 45.9°F7.7°C 44.8°F7.1°C 96% 1.0 mph NNW1.6 kmh NNW -- 29.68 in1005.1 mb 0.07 in1.8 mm 0.00 in0.0 mm 0.45 in11.4 mm
02:37 PM 45.9°F7.7°C 44.8°F7.1°C 96% 6.0 mph W9.7 kmh W -- 29.68 in1005.1 mb 0.08 in2.0 mm 0.30 in7.6 mm 0.46 in11.7 mm
02:38 PM 45.9°F7.7°C 44.8°F7.1°C 96% 17.0 mph WNW27.4 kmh WNW -- 29.68 in1005.1 mb 0.08 in2.0 mm 0.00 in0.0 mm 0.46 in11.7 mm
02:39 PM 45.9°F7.7°C 44.8°F7.1°C 96% 16.0 mph W25.7 kmh W -- 29.68 in1005.1 mb 0.08 in2.0 mm 0.00 in0.0 mm 0.46 in11.7 mm
02:40 PM 45.9°F7.7°C 44.8°F7.1°C 96% 1.0 mph WNW1.6 kmh WNW -- 29.68 in1005.1 mb 0.08 in2.0 mm 0.00 in0.0 mm 0.46 in11.7 mm
02:41 PM 45.9°F7.7°C 44.8°F7.1°C 96% 11.0 mph W17.7 kmh W -- 29.68 in1005.1 mb 0.08 in2.0 mm 0.00 in0.0 mm 0.46 in11.7 mm
02:42 PM 46.1°F7.8°C 44.9°F7.2°C 96% Calm Calm -- 29.68 in1005.1 mb 0.08 in2.0 mm 0.00 in0.0 mm 0.46 in11.7 mm
02:43 PM 46.1°F7.8°C 44.9°F7.2°C 96% 3.0 mph NW4.8 kmh NW -- 29.68 in1005.1 mb 0.08 in2.0 mm 0.00 in0.0 mm 0.46 in11.7 mm
02:44 PM 46.1°F7.8°C 44.9°F7.2°C 96% 2.0 mph NW3.2 kmh NW -- 29.68 in1005.1 mb 0.08 in2.0 mm 0.00 in0.0 mm 0.46 in11.7 mm
02:45 PM 46.1°F7.8°C 44.9°F7.2°C 96% 15.0 mph WSW24.1 kmh WSW -- 29.68 in1005.1 mb 0.08 in2.0 mm 0.00 in0.0 mm 0.46 in11.7 mm
02:46 PM 46.1°F7.8°C 44.9°F7.2°C 96% 13.0 mph NNW20.9 kmh NNW -- 29.68 in1005.1 mb 0.09 in2.3 mm 0.60 in15.2 mm 0.47 in11.9 mm
02:47 PM 46.2°F7.9°C 45.4°F7.4°C 97% 14.0 mph NNW22.5 kmh NNW -- 29.68 in1005.1 mb 0.10 in2.5 mm 0.60 in15.2 mm 0.47 in11.9 mm
02:48 PM 46.2°F7.9°C 45.4°F7.4°C 97% 6.0 mph W9.7 kmh W -- 29.67 in1004.7 mb 0.09 in2.3 mm 0.00 in0.0 mm 0.47 in11.9 mm
02:49 PM 46.1°F7.8°C 44.9°F7.2°C 96% 5.0 mph W8.0 kmh W -- 29.68 in1005.1 mb 0.09 in2.3 mm 0.00 in0.0 mm 0.47 in11.9 mm
02:50 PM 46.1°F7.8°C 44.9°F7.2°C 96% 14.0 mph NNW22.5 kmh NNW -- 29.67 in1004.7 mb 0.09 in2.3 mm 0.00 in0.0 mm 0.47 in11.9 mm
02:51 PM 46.1°F7.8°C 44.9°F7.2°C 96% 10.0 mph W16.1 kmh W -- 29.67 in1004.7 mb 0.09 in2.3 mm 0.00 in0.0 mm 0.47 in11.9 mm
02:52 PM 46.1°F7.8°C 44.9°F7.2°C 96% 16.0 mph W25.7 kmh W -- 29.67 in1004.7 mb 0.09 in2.3 mm 0.00 in0.0 mm 0.47 in11.9 mm
02:53 PM 46.1°F7.8°C 44.9°F7.2°C 96% 14.0 mph W22.5 kmh W -- 29.67 in1004.7 mb 0.10 in2.5 mm 0.60 in15.2 mm 0.48 in12.2 mm
02:54 PM 46.1°F7.8°C 44.9°F7.2°C 96% 6.0 mph NW9.7 kmh NW -- 29.67 in1004.7 mb 0.10 in2.5 mm 0.00 in0.0 mm 0.48 in12.2 mm
02:55 PM 46.1°F7.8°C 44.9°F7.2°C 96% 4.0 mph NW6.4 kmh NW -- 29.68 in1005.1 mb 0.10 in2.5 mm 0.00 in0.0 mm 0.48 in12.2 mm
02:56 PM 46.1°F7.8°C 44.9°F7.2°C 96% 1.0 mph NW1.6 kmh NW -- 29.67 in1004.7 mb 0.10 in2.5 mm 0.00 in0.0 mm 0.48 in12.2 mm
02:57 PM 46.1°F7.8°C 44.9°F7.2°C 96% 11.0 mph W17.7 kmh W -- 29.67 in1004.7 mb 0.10 in2.5 mm 0.00 in0.0 mm 0.48 in12.2 mm
02:59 PM 46.1°F7.8°C 44.9°F7.2°C 96% Calm Calm -- 29.67 in1004.7 mb 0.10 in2.5 mm 0.00 in0.0 mm 0.48 in12.2 mm
03:02 PM 46.2°F7.9°C 45.4°F7.4°C 97% Calm Calm -- 29.67 in1004.7 mb 0.00 in0.0 mm 0.00 in0.0 mm 0.49 in12.4 mm
03:03 PM 46.1°F7.8°C 44.9°F7.2°C 96% Calm Calm -- 29.68 in1005.1 mb 0.00 in0.0 mm 0.00 in0.0 mm 0.49 in12.4 mm
03:04 PM 46.1°F7.8°C 44.9°F7.2°C 96% Calm Calm -- 29.68 in1005.1 mb 0.00 in0.0 mm 0.00 in0.0 mm 0.49 in12.4 mm
03:05 PM 46.1°F7.8°C 44.9°F7.2°C 96% 7.0 mph W11.3 kmh W -- 29.67 in1004.7 mb 0.00 in0.0 mm 0.00 in0.0 mm 0.49 in12.4 mm
03:06 PM 46.1°F7.8°C 44.9°F7.2°C 96% 1.0 mph W1.6 kmh W -- 29.67 in1004.7 mb 0.00 in0.0 mm 0.00 in0.0 mm 0.49 in12.4 mm
03:08 PM 46.1°F7.8°C 44.9°F7.2°C 96% 6.0 mph SW9.7 kmh SW -- 29.67 in1004.7 mb 0.01 in0.3 mm 0.30 in7.6 mm 0.50 in12.7 mm
03:09 PM 46.1°F7.8°C 44.9°F7.2°C 96% Calm Calm -- 29.67 in1004.7 mb 0.09 in2.3 mm 4.80 in121.9 mm 0.50 in12.7 mm
03:10 PM 46.1°F7.8°C 44.9°F7.2°C 96% 9.0 mph WNW14.5 kmh WNW -- 29.67 in1004.7 mb 0.01 in0.3 mm 0.00 in0.0 mm 0.50 in12.7 mm
03:11 PM 46.1°F7.8°C 44.9°F7.2°C 96% 1.0 mph W1.6 kmh W -- 29.67 in1004.7 mb 0.01 in0.3 mm 0.00 in0.0 mm 0.50 in12.7 mm
03:13 PM 46.1°F7.8°C 44.9°F7.2°C 96% 5.0 mph NNW8.0 kmh NNW -- 29.67 in1004.7 mb 0.01 in0.3 mm 0.00 in0.0 mm 0.50 in12.7 mm
03:14 PM 46.1°F7.8°C 44.9°F7.2°C 96% 8.0 mph WNW12.9 kmh WNW -- 29.67 in1004.7 mb 0.01 in0.3 mm 0.00 in0.0 mm 0.50 in12.7 mm
03:15 PM 46.1°F7.8°C 44.9°F7.2°C 96% 7.0 mph W11.3 kmh W -- 29.67 in1004.7 mb 0.02 in0.5 mm 0.60 in15.2 mm 0.51 in13.0 mm
03:16 PM 46.1°F7.8°C 44.9°F7.2°C 96% 8.0 mph W12.9 kmh W -- 29.67 in1004.7 mb 0.02 in0.5 mm 0.00 in0.0 mm 0.51 in13.0 mm
03:17 PM 46.2°F7.9°C 45.4°F7.4°C 97% 14.0 mph W22.5 kmh W -- 29.67 in1004.7 mb 0.09 in2.3 mm 4.20 in106.7 mm 0.51 in13.0 mm
03:19 PM 46.1°F7.8°C 44.9°F7.2°C 96% 15.0 mph W24.1 kmh W -- 29.67 in1004.7 mb 0.09 in2.3 mm 0.00 in0.0 mm 0.51 in13.0 mm
03:20 PM 46.1°F7.8°C 44.9°F7.2°C 96% 5.0 mph W8.0 kmh W -- 29.67 in1004.7 mb 0.02 in0.5 mm 0.00 in0.0 mm 0.51 in13.0 mm
03:22 PM 46.1°F7.8°C 44.9°F7.2°C 96% 9.0 mph W14.5 kmh W -- 29.67 in1004.7 mb 0.02 in0.5 mm 0.00 in0.0 mm 0.51 in13.0 mm
03:23 PM 45.9°F7.7°C 44.8°F7.1°C 96% 13.0 mph W20.9 kmh W -- 29.67 in1004.7 mb 0.02 in0.5 mm 0.00 in0.0 mm 0.51 in13.0 mm
03:24 PM 45.9°F7.7°C 44.8°F7.1°C 96% 2.0 mph NNE3.2 kmh NNE -- 29.67 in1004.7 mb 0.02 in0.5 mm 0.00 in0.0 mm 0.51 in13.0 mm
03:25 PM 45.9°F7.7°C 44.8°F7.1°C 96% 1.0 mph W1.6 kmh W -- 29.67 in1004.7 mb 0.03 in0.8 mm 0.60 in15.2 mm 0.52 in13.2 mm
03:26 PM 45.9°F7.7°C 44.8°F7.1°C 96% Calm Calm -- 29.67 in1004.7 mb 0.03 in0.8 mm 0.00 in0.0 mm 0.52 in13.2 mm
03:27 PM 45.9°F7.7°C 44.8°F7.1°C 96% 1.0 mph WNW1.6 kmh WNW -- 29.67 in1004.7 mb 0.03 in0.8 mm 0.00 in0.0 mm 0.52 in13.2 mm
03:28 PM 45.9°F7.7°C 44.8°F7.1°C 96% 6.0 mph WNW9.7 kmh WNW -- 29.67 in1004.7 mb 0.03 in0.8 mm 0.00 in0.0 mm 0.52 in13.2 mm
03:29 PM 45.9°F7.7°C 44.8°F7.1°C 96% 1.0 mph W1.6 kmh W -- 29.67 in1004.7 mb 0.03 in0.8 mm 0.00 in0.0 mm 0.52 in13.2 mm
03:30 PM 45.9°F7.7°C 44.8°F7.1°C 96% 4.0 mph SW6.4 kmh SW -- 29.67 in1004.7 mb 0.03 in0.8 mm 0.00 in0.0 mm 0.52 in13.2 mm
03:31 PM 45.9°F7.7°C 44.8°F7.1°C 96% 13.0 mph WNW20.9 kmh WNW -- 29.67 in1004.7 mb 0.03 in0.8 mm 0.00 in0.0 mm 0.52 in13.2 mm
03:32 PM 45.9°F7.7°C 44.8°F7.1°C 96% 1.0 mph WNW1.6 kmh WNW -- 29.67 in1004.7 mb 0.03 in0.8 mm 0.00 in0.0 mm 0.52 in13.2 mm
03:33 PM 45.9°F7.7°C 44.8°F7.1°C 96% 9.0 mph WNW14.5 kmh WNW -- 29.67 in1004.7 mb 0.03 in0.8 mm 0.00 in0.0 mm 0.52 in13.2 mm
03:34 PM 45.9°F7.7°C 44.8°F7.1°C 96% 10.0 mph W16.1 kmh W -- 29.67 in1004.7 mb 0.03 in0.8 mm 0.00 in0.0 mm 0.52 in13.2 mm
03:35 PM 45.9°F7.7°C 44.8°F7.1°C 96% 3.0 mph WNW4.8 kmh WNW -- 29.67 in1004.7 mb 0.03 in0.8 mm 0.00 in0.0 mm 0.52 in13.2 mm
03:36 PM 45.9°F7.7°C 44.8°F7.1°C 96% 5.0 mph WSW8.0 kmh WSW -- 29.67 in1004.7 mb 0.03 in0.8 mm 0.00 in0.0 mm 0.52 in13.2 mm
03:37 PM 45.9°F7.7°C 44.8°F7.1°C 96% 1.0 mph NW1.6 kmh NW -- 29.67 in1004.7 mb 0.03 in0.8 mm 0.00 in0.0 mm 0.52 in13.2 mm
03:38 PM 45.9°F7.7°C 44.8°F7.1°C 96% 1.0 mph W1.6 kmh W -- 29.67 in1004.7 mb 0.03 in0.8 mm 0.00 in0.0 mm 0.52 in13.2 mm
03:39 PM 45.9°F7.7°C 44.8°F7.1°C 96% 17.0 mph NW27.4 kmh NW -- 29.66 in1004.4 mb 0.03 in0.8 mm 0.00 in0.0 mm 0.52 in13.2 mm
03:40 PM 45.9°F7.7°C 44.8°F7.1°C 96% 4.0 mph SW6.4 kmh SW -- 29.66 in1004.4 mb 0.03 in0.8 mm 0.00 in0.0 mm 0.52 in13.2 mm
03:41 PM 45.9°F7.7°C 44.8°F7.1°C 96% 10.0 mph W16.1 kmh W -- 29.66 in1004.4 mb 0.03 in0.8 mm 0.00 in0.0 mm 0.52 in13.2 mm
03:42 PM 45.9°F7.7°C 44.8°F7.1°C 96% 6.0 mph WSW9.7 kmh WSW -- 29.66 in1004.4 mb 0.04 in1.0 mm 0.60 in15.2 mm 0.53 in13.5 mm
03:43 PM 45.9°F7.7°C 44.8°F7.1°C 96% 12.0 mph WSW19.3 kmh WSW -- 29.66 in1004.4 mb 0.04 in1.0 mm 0.00 in0.0 mm 0.53 in13.5 mm
03:44 PM 45.9°F7.7°C 44.8°F7.1°C 96% Calm Calm -- 29.66 in1004.4 mb 0.04 in1.0 mm 0.00 in0.0 mm 0.53 in13.5 mm
03:45 PM 45.9°F7.7°C 44.8°F7.1°C 96% 17.0 mph 27.4 kmh -- 29.66 in1004.4 mb 0.04 in1.0 mm 0.00 in0.0 mm 0.53 in13.5 mm
03:46 PM 45.9°F7.7°C 44.8°F7.1°C 96% 18.0 mph 29.0 kmh -- 29.66 in1004.4 mb 0.04 in1.0 mm 0.00 in0.0 mm 0.53 in13.5 mm
03:47 PM 45.9°F7.7°C 44.8°F7.1°C 96% 15.0 mph NW24.1 kmh NW -- 29.66 in1004.4 mb 0.04 in1.0 mm 0.00 in0.0 mm 0.53 in13.5 mm
03:48 PM 45.9°F7.7°C 44.8°F7.1°C 96% Calm Calm -- 29.66 in1004.4 mb 0.04 in1.0 mm 0.00 in0.0 mm 0.53 in13.5 mm
03:49 PM 45.9°F7.7°C 44.8°F7.1°C 96% 13.0 mph W20.9 kmh W -- 29.66 in1004.4 mb 0.04 in1.0 mm 0.00 in0.0 mm 0.53 in13.5 mm
03:50 PM 45.9°F7.7°C 44.8°F7.1°C 96% 1.0 mph WNW1.6 kmh WNW -- 29.66 in1004.4 mb 0.04 in1.0 mm 0.00 in0.0 mm 0.53 in13.5 mm
03:51 PM 45.9°F7.7°C 44.8°F7.1°C 96% 12.0 mph SW19.3 kmh SW -- 29.66 in1004.4 mb 0.04 in1.0 mm 0.00 in0.0 mm 0.53 in13.5 mm
03:52 PM 45.9°F7.7°C 44.8°F7.1°C 96% 1.0 mph WNW1.6 kmh WNW -- 29.66 in1004.4 mb 0.04 in1.0 mm 0.00 in0.0 mm 0.53 in13.5 mm
03:53 PM 45.9°F7.7°C 44.8°F7.1°C 96% 6.0 mph NNW9.7 kmh NNW -- 29.65 in1004.1 mb 0.04 in1.0 mm 0.00 in0.0 mm 0.53 in13.5 mm
03:54 PM 45.9°F7.7°C 44.8°F7.1°C 96% 22.0 mph NW35.4 kmh NW -- 29.66 in1004.4 mb 0.05 in1.3 mm 0.60 in15.2 mm 0.54 in13.7 mm
03:55 PM 45.9°F7.7°C 44.8°F7.1°C 96% 7.0 mph W11.3 kmh W -- 29.65 in1004.1 mb 0.05 in1.3 mm 0.00 in0.0 mm 0.54 in13.7 mm
03:56 PM 45.9°F7.7°C 44.8°F7.1°C 96% 17.0 mph W27.4 kmh W -- 29.64 in1003.7 mb 0.05 in1.3 mm 0.00 in0.0 mm 0.54 in13.7 mm
03:57 PM 45.9°F7.7°C 44.8°F7.1°C 96% 18.0 mph W29.0 kmh W -- 29.64 in1003.7 mb 0.05 in1.3 mm 0.00 in0.0 mm 0.54 in13.7 mm
03:58 PM 45.9°F7.7°C 44.8°F7.1°C 96% 13.0 mph WNW20.9 kmh WNW -- 29.64 in1003.7 mb 0.05 in1.3 mm 0.00 in0.0 mm 0.54 in13.7 mm
04:00 PM 45.9°F7.7°C 44.8°F7.1°C 96% 21.0 mph W33.8 kmh W -- 29.64 in1003.7 mb 0.05 in1.3 mm 0.00 in0.0 mm 0.54 in13.7 mm
04:01 PM 45.9°F7.7°C 44.8°F7.1°C 96% 17.0 mph WNW27.4 kmh WNW -- 29.64 in1003.7 mb 0.00 in0.0 mm 0.00 in0.0 mm 0.54 in13.7 mm
04:02 PM 45.9°F7.7°C 44.8°F7.1°C 96% 14.0 mph 22.5 kmh -- 29.64 in1003.7 mb 0.01 in0.3 mm 0.60 in15.2 mm 0.55 in14.0 mm
04:03 PM 45.9°F7.7°C 44.8°F7.1°C 96% 12.0 mph WNW19.3 kmh WNW -- 29.64 in1003.7 mb 0.01 in0.3 mm 0.00 in0.0 mm 0.55 in14.0 mm
04:04 PM 45.9°F7.7°C 44.8°F7.1°C 96% 22.0 mph W35.4 kmh W -- 29.64 in1003.7 mb 0.01 in0.3 mm 0.00 in0.0 mm 0.55 in14.0 mm
04:05 PM 45.9°F7.7°C 44.8°F7.1°C 96% 11.0 mph W17.7 kmh W -- 29.64 in1003.7 mb 0.01 in0.3 mm 0.00 in0.0 mm 0.55 in14.0 mm
04:06 PM 45.9°F7.7°C 44.8°F7.1°C 96% 15.0 mph W24.1 kmh W -- 29.64 in1003.7 mb 0.01 in0.3 mm 0.00 in0.0 mm 0.55 in14.0 mm
04:07 PM 45.9°F7.7°C 44.8°F7.1°C 96% 16.0 mph W25.7 kmh W -- 29.64 in1003.7 mb 0.02 in0.5 mm 0.60 in15.2 mm 0.56 in14.2 mm
04:08 PM 45.9°F7.7°C 44.8°F7.1°C 96% 6.0 mph SSW9.7 kmh SSW -- 29.64 in1003.7 mb 0.02 in0.5 mm 0.00 in0.0 mm 0.56 in14.2 mm
04:09 PM 45.9°F7.7°C 44.8°F7.1°C 96% 12.0 mph NW19.3 kmh NW -- 29.64 in1003.7 mb 0.02 in0.5 mm 0.00 in0.0 mm 0.56 in14.2 mm
04:10 PM 45.9°F7.7°C 44.8°F7.1°C 96% 17.0 mph W27.4 kmh W -- 29.65 in1004.1 mb 0.02 in0.5 mm 0.00 in0.0 mm 0.56 in14.2 mm
04:11 PM 45.9°F7.7°C 44.8°F7.1°C 96% 8.0 mph WSW12.9 kmh WSW -- 29.65 in1004.1 mb 0.02 in0.5 mm 0.00 in0.0 mm 0.56 in14.2 mm
04:12 PM 45.9°F7.7°C 44.8°F7.1°C 96% 11.0 mph WNW17.7 kmh WNW -- 29.65 in1004.1 mb 0.02 in0.5 mm 0.00 in0.0 mm 0.56 in14.2 mm
04:13 PM 45.9°F7.7°C 44.8°F7.1°C 96% 3.0 mph W4.8 kmh W -- 29.65 in1004.1 mb 0.02 in0.5 mm 0.00 in0.0 mm 0.56 in14.2 mm
04:14 PM 45.9°F7.7°C 44.8°F7.1°C 96% 3.0 mph 4.8 kmh -- 29.64 in1003.7 mb 0.03 in0.8 mm 0.60 in15.2 mm 0.57 in14.5 mm
04:15 PM 45.9°F7.7°C 44.8°F7.1°C 96% 8.0 mph NW12.9 kmh NW -- 29.64 in1003.7 mb 0.03 in0.8 mm 0.00 in0.0 mm 0.57 in14.5 mm
04:16 PM 45.9°F7.7°C 44.8°F7.1°C 96% 13.0 mph SW20.9 kmh SW -- 29.65 in1004.1 mb 0.03 in0.8 mm 0.00 in0.0 mm 0.57 in14.5 mm
04:17 PM 45.9°F7.7°C 44.8°F7.1°C 96% 5.0 mph W8.0 kmh W -- 29.65 in1004.1 mb 0.03 in0.8 mm 0.00 in0.0 mm 0.57 in14.5 mm
04:18 PM 45.9°F7.7°C 44.8°F7.1°C 96% 4.0 mph SW6.4 kmh SW -- 29.65 in1004.1 mb 0.03 in0.8 mm 0.00 in0.0 mm 0.57 in14.5 mm
04:19 PM 45.9°F7.7°C 44.8°F7.1°C 96% 12.0 mph W19.3 kmh W -- 29.65 in1004.1 mb 0.03 in0.8 mm 0.00 in0.0 mm 0.57 in14.5 mm
04:20 PM 45.9°F7.7°C 44.8°F7.1°C 96% 14.0 mph W22.5 kmh W -- 29.65 in1004.1 mb 0.03 in0.8 mm 0.00 in0.0 mm 0.57 in14.5 mm
04:21 PM 45.9°F7.7°C 44.8°F7.1°C 96% 11.0 mph ESE17.7 kmh ESE -- 29.65 in1004.1 mb 0.03 in0.8 mm 0.00 in0.0 mm 0.57 in14.5 mm
04:22 PM 45.9°F7.7°C 44.8°F7.1°C 96% 3.0 mph ESE4.8 kmh ESE -- 29.65 in1004.1 mb 0.05 in1.3 mm 1.20 in30.5 mm 0.57 in14.5 mm
04:23 PM 45.9°F7.7°C 44.8°F7.1°C 96% Calm Calm -- 29.65 in1004.1 mb 0.03 in0.8 mm 0.00 in0.0 mm 0.57 in14.5 mm
04:24 PM 45.9°F7.7°C 44.8°F7.1°C 96% 10.0 mph W16.1 kmh W -- 29.65 in1004.1 mb 0.04 in1.0 mm 0.60 in15.2 mm 0.58 in14.7 mm
04:25 PM 45.9°F7.7°C 44.8°F7.1°C 96% 1.0 mph NW1.6 kmh NW -- 29.65 in1004.1 mb 0.04 in1.0 mm 0.00 in0.0 mm 0.58 in14.7 mm
04:26 PM 45.9°F7.7°C 44.8°F7.1°C 96% 11.0 mph W17.7 kmh W -- 29.65 in1004.1 mb 0.04 in1.0 mm 0.00 in0.0 mm 0.58 in14.7 mm
04:27 PM 45.9°F7.7°C 44.8°F7.1°C 96% 1.0 mph W1.6 kmh W -- 29.64 in1003.7 mb 0.04 in1.0 mm 0.00 in0.0 mm 0.58 in14.7 mm
04:28 PM 45.9°F7.7°C 45.3°F7.4°C 98% 13.0 mph W20.9 kmh W -- 29.65 in1004.1 mb 0.04 in1.0 mm 0.00 in0.0 mm 0.58 in14.7 mm
04:29 PM 45.9°F7.7°C 45.3°F7.4°C 98% 3.0 mph W4.8 kmh W -- 29.65 in1004.1 mb 0.04 in1.0 mm 0.00 in0.0 mm 0.58 in14.7 mm
04:30 PM 46.1°F7.8°C 45.5°F7.5°C 98% 12.0 mph W19.3 kmh W -- 29.65 in1004.1 mb 0.04 in1.0 mm 0.00 in0.0 mm 0.58 in14.7 mm
04:31 PM 46.1°F7.8°C 45.5°F7.5°C 98% 1.0 mph W1.6 kmh W -- 29.64 in1003.7 mb 0.04 in1.0 mm 0.00 in0.0 mm 0.58 in14.7 mm
04:32 PM 46.4°F8.0°C 45.9°F7.7°C 98% 8.0 mph 12.9 kmh -- 29.64 in1003.7 mb 0.04 in1.0 mm 0.00 in0.0 mm 0.58 in14.7 mm
04:33 PM 46.4°F8.0°C 45.9°F7.7°C 98% 13.0 mph WSW20.9 kmh WSW -- 29.65 in1004.1 mb 0.04 in1.0 mm 0.00 in0.0 mm 0.58 in14.7 mm
04:34 PM 46.4°F8.0°C 45.9°F7.7°C 98% 2.0 mph NNW3.2 kmh NNW -- 29.65 in1004.1 mb 0.04 in1.0 mm 0.00 in0.0 mm 0.58 in14.7 mm
04:35 PM 46.4°F8.0°C 45.9°F7.7°C 98% 10.0 mph NNW16.1 kmh NNW -- 29.65 in1004.1 mb 0.04 in1.0 mm 0.00 in0.0 mm 0.58 in14.7 mm
04:36 PM 46.4°F8.0°C 45.9°F7.7°C 98% 7.0 mph W11.3 kmh W -- 29.65 in1004.1 mb 0.04 in1.0 mm 0.00 in0.0 mm 0.58 in14.7 mm
04:37 PM 46.4°F8.0°C 45.9°F7.7°C 98% 12.0 mph WNW19.3 kmh WNW -- 29.65 in1004.1 mb 0.04 in1.0 mm 0.00 in0.0 mm 0.58 in14.7 mm
04:38 PM 46.4°F8.0°C 45.9°F7.7°C 98% 12.0 mph NNW19.3 kmh NNW -- 29.65 in1004.1 mb 0.04 in1.0 mm 0.00 in0.0 mm 0.58 in14.7 mm
04:39 PM 46.4°F8.0°C 45.9°F7.7°C 98% 11.0 mph W17.7 kmh W -- 29.65 in1004.1 mb 0.04 in1.0 mm 0.00 in0.0 mm 0.58 in14.7 mm
04:40 PM 46.4°F8.0°C 45.9°F7.7°C 98% 7.0 mph W11.3 kmh W -- 29.65 in1004.1 mb 0.04 in1.0 mm 0.00 in0.0 mm 0.58 in14.7 mm
04:41 PM 46.4°F8.0°C 45.9°F7.7°C 98% 12.0 mph SW19.3 kmh SW -- 29.65 in1004.1 mb 0.04 in1.0 mm 0.00 in0.0 mm 0.58 in14.7 mm
04:42 PM 46.4°F8.0°C 45.9°F7.7°C 98% 5.0 mph NW8.0 kmh NW -- 29.65 in1004.1 mb 0.04 in1.0 mm 0.00 in0.0 mm 0.58 in14.7 mm
04:43 PM 46.4°F8.0°C 45.9°F7.7°C 98% 12.0 mph W19.3 kmh W -- 29.65 in1004.1 mb 0.04 in1.0 mm 0.00 in0.0 mm 0.58 in14.7 mm
04:44 PM 46.4°F8.0°C 45.9°F7.7°C 98% Calm Calm -- 29.65 in1004.1 mb 0.04 in1.0 mm 0.00 in0.0 mm 0.58 in14.7 mm
04:45 PM 46.4°F8.0°C 45.9°F7.7°C 98% 1.0 mph W1.6 kmh W -- 29.65 in1004.1 mb 0.04 in1.0 mm 0.00 in0.0 mm 0.58 in14.7 mm
04:46 PM 46.4°F8.0°C 45.9°F7.7°C 98% 14.0 mph NNW22.5 kmh NNW -- 29.65 in1004.1 mb 0.04 in1.0 mm 0.00 in0.0 mm 0.58 in14.7 mm
04:47 PM 46.4°F8.0°C 45.9°F7.7°C 98% 5.0 mph W8.0 kmh W -- 29.65 in1004.1 mb 0.04 in1.0 mm 0.00 in0.0 mm 0.58 in14.7 mm
04:48 PM 46.4°F8.0°C 45.9°F7.7°C 98% 1.0 mph WNW1.6 kmh WNW -- 29.65 in1004.1 mb 0.04 in1.0 mm 0.00 in0.0 mm 0.58 in14.7 mm
04:49 PM 46.5°F8.1°C 46.0°F7.8°C 98% 3.0 mph W4.8 kmh W -- 29.64 in1003.7 mb 0.04 in1.0 mm 0.00 in0.0 mm 0.58 in14.7 mm
04:50 PM 46.5°F8.1°C 46.0°F7.8°C 98% 5.0 mph W8.0 kmh W -- 29.64 in1003.7 mb 0.04 in1.0 mm 0.00 in0.0 mm 0.58 in14.7 mm
04:51 PM 46.5°F8.1°C 45.5°F7.5°C 96% 5.0 mph W8.0 kmh W -- 29.65 in1004.1 mb 0.04 in1.0 mm 0.00 in0.0 mm 0.58 in14.7 mm
04:52 PM 46.5°F8.1°C 45.5°F7.5°C 96% 1.0 mph WSW1.6 kmh WSW -- 29.65 in1004.1 mb 0.04 in1.0 mm 0.00 in0.0 mm 0.58 in14.7 mm
04:53 PM 46.5°F8.1°C 45.5°F7.5°C 96% 9.0 mph W14.5 kmh W -- 29.65 in1004.1 mb 0.04 in1.0 mm 0.00 in0.0 mm 0.58 in14.7 mm
04:54 PM 46.4°F8.0°C 45.3°F7.4°C 96% 9.0 mph WSW14.5 kmh WSW -- 29.65 in1004.1 mb 0.04 in1.0 mm 0.00 in0.0 mm 0.58 in14.7 mm
04:55 PM 46.4°F8.0°C 45.3°F7.4°C 96% 5.0 mph WSW8.0 kmh WSW -- 29.65 in1004.1 mb 0.04 in1.0 mm 0.00 in0.0 mm 0.58 in14.7 mm
04:57 PM 46.4°F8.0°C 45.3°F7.4°C 96% 15.0 mph W24.1 kmh W -- 29.65 in1004.1 mb 0.04 in1.0 mm 0.00 in0.0 mm 0.58 in14.7 mm
04:58 PM 46.4°F8.0°C 45.3°F7.4°C 96% 16.0 mph WSW25.7 kmh WSW -- 29.65 in1004.1 mb 0.04 in1.0 mm 0.00 in0.0 mm 0.58 in14.7 mm
04:59 PM 46.4°F8.0°C 45.3°F7.4°C 96% 15.0 mph W24.1 kmh W -- 29.65 in1004.1 mb 0.04 in1.0 mm 0.00 in0.0 mm 0.58 in14.7 mm
05:00 PM 46.4°F8.0°C 45.3°F7.4°C 96% 1.0 mph W1.6 kmh W -- 29.65 in1004.1 mb 0.04 in1.0 mm 0.00 in0.0 mm 0.58 in14.7 mm
05:01 PM 46.4°F8.0°C 45.3°F7.4°C 96% 13.0 mph W20.9 kmh W -- 29.66 in1004.4 mb 0.00 in0.0 mm 0.00 in0.0 mm 0.58 in14.7 mm
05:02 PM 46.4°F8.0°C 45.3°F7.4°C 96% 1.0 mph W1.6 kmh W -- 29.66 in1004.4 mb 0.00 in0.0 mm 0.00 in0.0 mm 0.58 in14.7 mm
05:03 PM 46.4°F8.0°C 45.3°F7.4°C 96% 1.0 mph SW1.6 kmh SW -- 29.66 in1004.4 mb 0.00 in0.0 mm 0.00 in0.0 mm 0.58 in14.7 mm
05:04 PM 46.4°F8.0°C 45.3°F7.4°C 96% 2.0 mph W3.2 kmh W -- 29.66 in1004.4 mb 0.00 in0.0 mm 0.00 in0.0 mm 0.58 in14.7 mm
05:05 PM 46.4°F8.0°C 45.3°F7.4°C 96% 1.0 mph WNW1.6 kmh WNW -- 29.66 in1004.4 mb 0.00 in0.0 mm 0.00 in0.0 mm 0.58 in14.7 mm
05:06 PM 46.4°F8.0°C 45.3°F7.4°C 96% 1.0 mph WSW1.6 kmh WSW -- 29.66 in1004.4 mb 0.00 in0.0 mm 0.00 in0.0 mm 0.58 in14.7 mm
05:08 PM 46.4°F8.0°C 45.3°F7.4°C 96% 8.0 mph W12.9 kmh W -- 29.66 in1004.4 mb 0.00 in0.0 mm 0.00 in0.0 mm 0.58 in14.7 mm
05:09 PM 46.4°F8.0°C 45.3°F7.4°C 96% Calm Calm -- 29.66 in1004.4 mb 0.00 in0.0 mm 0.00 in0.0 mm 0.58 in14.7 mm
05:10 PM 46.4°F8.0°C 45.3°F7.4°C 96% 5.0 mph NW8.0 kmh NW -- 29.66 in1004.4 mb 0.00 in0.0 mm 0.00 in0.0 mm 0.58 in14.7 mm
05:11 PM 46.4°F8.0°C 45.3°F7.4°C 96% 6.0 mph NW9.7 kmh NW -- 29.66 in1004.4 mb 0.00 in0.0 mm 0.00 in0.0 mm 0.58 in14.7 mm
05:12 PM 46.4°F8.0°C 45.3°F7.4°C 96% 12.0 mph W19.3 kmh W -- 29.66 in1004.4 mb 0.00 in0.0 mm 0.00 in0.0 mm 0.58 in14.7 mm
05:13 PM 46.4°F8.0°C 45.3°F7.4°C 96% 3.0 mph W4.8 kmh W -- 29.66 in1004.4 mb 0.00 in0.0 mm 0.00 in0.0 mm 0.58 in14.7 mm
05:14 PM 46.4°F8.0°C 45.3°F7.4°C 96% Calm Calm -- 29.66 in1004.4 mb 0.00 in0.0 mm 0.00 in0.0 mm 0.58 in14.7 mm
05:15 PM 46.5°F8.1°C 45.5°F7.5°C 96% Calm Calm -- 29.66 in1004.4 mb 0.00 in0.0 mm 0.00 in0.0 mm 0.58 in14.7 mm
05:16 PM 46.5°F8.1°C 45.5°F7.5°C 96% 3.0 mph W4.8 kmh W -- 29.66 in1004.4 mb 0.00 in0.0 mm 0.00 in0.0 mm 0.58 in14.7 mm
05:17 PM 46.6°F8.1°C 45.8°F7.7°C 97% 1.0 mph W1.6 kmh W -- 29.66 in1004.4 mb 0.00 in0.0 mm 0.00 in0.0 mm 0.58 in14.7 mm
05:18 PM 46.5°F8.1°C 45.5°F7.5°C 96% Calm Calm -- 29.66 in1004.4 mb 0.00 in0.0 mm 0.00 in0.0 mm 0.58 in14.7 mm
05:19 PM 46.5°F8.1°C 45.5°F7.5°C 96% 2.0 mph NW3.2 kmh NW -- 29.66 in1004.4 mb 0.00 in0.0 mm 0.00 in0.0 mm 0.58 in14.7 mm
05:20 PM 46.5°F8.1°C 45.5°F7.5°C 96% 9.0 mph WNW14.5 kmh WNW -- 29.66 in1004.4 mb 0.00 in0.0 mm 0.00 in0.0 mm 0.58 in14.7 mm
05:21 PM 46.5°F8.1°C 45.5°F7.5°C 96% 8.0 mph WNW12.9 kmh WNW -- 29.66 in1004.4 mb 0.00 in0.0 mm 0.00 in0.0 mm 0.58 in14.7 mm
05:22 PM 46.7°F8.2°C 45.7°F7.6°C 96% 6.0 mph WNW9.7 kmh WNW -- 29.66 in1004.4 mb 0.00 in0.0 mm 0.00 in0.0 mm 0.58 in14.7 mm
05:23 PM 46.7°F8.2°C 45.7°F7.6°C 96% Calm Calm -- 29.66 in1004.4 mb 0.00 in0.0 mm 0.00 in0.0 mm 0.58 in14.7 mm
05:24 PM 46.7°F8.2°C 45.7°F7.6°C 96% Calm Calm -- 29.66 in1004.4 mb 0.00 in0.0 mm 0.00 in0.0 mm 0.58 in14.7 mm
05:25 PM 46.7°F8.2°C 45.7°F7.6°C 96% 4.0 mph W6.4 kmh W -- 29.66 in1004.4 mb 0.00 in0.0 mm 0.00 in0.0 mm 0.58 in14.7 mm
05:26 PM 46.7°F8.2°C 45.7°F7.6°C 96% Calm Calm -- 29.66 in1004.4 mb 0.00 in0.0 mm 0.00 in0.0 mm 0.58 in14.7 mm
05:27 PM 46.9°F8.3°C 45.8°F7.7°C 96% 12.0 mph W19.3 kmh W -- 29.66 in1004.4 mb 0.00 in0.0 mm 0.00 in0.0 mm 0.58 in14.7 mm
05:28 PM 46.9°F8.3°C 45.8°F7.7°C 96% 2.0 mph WSW3.2 kmh WSW -- 29.66 in1004.4 mb 0.00 in0.0 mm 0.00 in0.0 mm 0.58 in14.7 mm
05:29 PM 46.9°F8.3°C 45.8°F7.7°C 96% 1.0 mph W1.6 kmh W -- 29.66 in1004.4 mb 0.00 in0.0 mm 0.00 in0.0 mm 0.58 in14.7 mm
05:30 PM 46.9°F8.3°C 45.8°F7.7°C 96% Calm Calm -- 29.66 in1004.4 mb 0.00 in0.0 mm 0.00 in0.0 mm 0.58 in14.7 mm
05:31 PM 46.9°F8.3°C 45.8°F7.7°C 96% 3.0 mph WSW4.8 kmh WSW -- 29.66 in1004.4 mb 0.00 in0.0 mm 0.00 in0.0 mm 0.58 in14.7 mm
05:32 PM 46.9°F8.3°C 45.8°F7.7°C 96% 13.0 mph SW20.9 kmh SW -- 29.66 in1004.4 mb 0.00 in0.0 mm 0.00 in0.0 mm 0.58 in14.7 mm
05:33 PM 46.9°F8.3°C 45.8°F7.7°C 96% 5.0 mph SSW8.0 kmh SSW -- 29.66 in1004.4 mb 0.00 in0.0 mm 0.00 in0.0 mm 0.58 in14.7 mm
05:34 PM 46.9°F8.3°C 45.8°F7.7°C 96% 2.0 mph W3.2 kmh W -- 29.66 in1004.4 mb 0.00 in0.0 mm 0.00 in0.0 mm 0.58 in14.7 mm
05:35 PM 46.9°F8.3°C 45.8°F7.7°C 96% Calm Calm -- 29.66 in1004.4 mb 0.00 in0.0 mm 0.00 in0.0 mm 0.58 in14.7 mm
05:36 PM 46.9°F8.3°C 45.8°F7.7°C 96% 1.0 mph W1.6 kmh W -- 29.66 in1004.4 mb 0.00 in0.0 mm 0.00 in0.0 mm 0.58 in14.7 mm
05:37 PM 46.9°F8.3°C 45.8°F7.7°C 96% Calm Calm -- 29.67 in1004.7 mb 0.00 in0.0 mm 0.00 in0.0 mm 0.58 in14.7 mm
05:38 PM 46.9°F8.3°C 45.8°F7.7°C 96% 3.0 mph WNW4.8 kmh WNW -- 29.67 in1004.7 mb 0.00 in0.0 mm 0.00 in0.0 mm 0.58 in14.7 mm
05:39 PM 46.7°F8.2°C 45.7°F7.6°C 96% 3.0 mph NNE4.8 kmh NNE -- 29.66 in1004.4 mb 0.00 in0.0 mm 0.00 in0.0 mm 0.58 in14.7 mm
05:40 PM 46.7°F8.2°C 45.7°F7.6°C 96% 1.0 mph WNW1.6 kmh WNW -- 29.66 in1004.4 mb 0.00 in0.0 mm 0.00 in0.0 mm 0.58 in14.7 mm
05:41 PM 46.7°F8.2°C 45.7°F7.6°C 96% 1.0 mph W1.6 kmh W -- 29.66 in1004.4 mb 0.00 in0.0 mm 0.00 in0.0 mm 0.58 in14.7 mm
05:43 PM 46.7°F8.2°C 45.7°F7.6°C 96% Calm Calm -- 29.66 in1004.4 mb 0.00 in0.0 mm 0.00 in0.0 mm 0.58 in14.7 mm
05:44 PM 46.7°F8.2°C 45.7°F7.6°C 96% 15.0 mph NW24.1 kmh NW -- 29.66 in1004.4 mb 0.00 in0.0 mm 0.00 in0.0 mm 0.58 in14.7 mm
05:45 PM 46.7°F8.2°C 45.7°F7.6°C 96% 5.0 mph WNW8.0 kmh WNW -- 29.66 in1004.4 mb 0.00 in0.0 mm 0.00 in0.0 mm 0.58 in14.7 mm
05:46 PM 46.7°F8.2°C 45.7°F7.6°C 96% 1.0 mph WSW1.6 kmh WSW -- 29.66 in1004.4 mb 0.00 in0.0 mm 0.00 in0.0 mm 0.58 in14.7 mm
05:47 PM 46.7°F8.2°C 45.7°F7.6°C 96% 8.0 mph W12.9 kmh W -- 29.66 in1004.4 mb 0.00 in0.0 mm 0.00 in0.0 mm 0.58 in14.7 mm
05:48 PM 46.7°F8.2°C 45.7°F7.6°C 96% 1.0 mph WSW1.6 kmh WSW -- 29.66 in1004.4 mb 0.00 in0.0 mm 0.00 in0.0 mm 0.58 in14.7 mm
05:49 PM 46.7°F8.2°C 45.7°F7.6°C 96% Calm Calm -- 29.66 in1004.4 mb 0.00 in0.0 mm 0.00 in0.0 mm 0.58 in14.7 mm
05:50 PM 46.7°F8.2°C 45.7°F7.6°C 96% 7.0 mph W11.3 kmh W -- 29.66 in1004.4 mb 0.00 in0.0 mm 0.00 in0.0 mm 0.58 in14.7 mm
05:51 PM 46.7°F8.2°C 45.7°F7.6°C 96% Calm Calm -- 29.66 in1004.4 mb 0.00 in0.0 mm 0.00 in0.0 mm 0.58 in14.7 mm
05:52 PM 46.7°F8.2°C 45.7°F7.6°C 96% 1.0 mph W1.6 kmh W -- 29.66 in1004.4 mb 0.00 in0.0 mm 0.00 in0.0 mm 0.58 in14.7 mm
05:54 PM 46.7°F8.2°C 45.7°F7.6°C 96% 8.0 mph NW12.9 kmh NW -- 29.66 in1004.4 mb 0.00 in0.0 mm 0.00 in0.0 mm 0.58 in14.7 mm
05:55 PM 46.7°F8.2°C 45.7°F7.6°C 96% 4.0 mph W6.4 kmh W -- 29.66 in1004.4 mb 0.00 in0.0 mm 0.00 in0.0 mm 0.58 in14.7 mm
05:56 PM 46.7°F8.2°C 45.7°F7.6°C 96% 4.0 mph WNW6.4 kmh WNW -- 29.66 in1004.4 mb 0.00 in0.0 mm 0.00 in0.0 mm 0.58 in14.7 mm
05:57 PM 46.7°F8.2°C 45.4°F7.4°C 95% Calm Calm -- 29.66 in1004.4 mb 0.00 in0.0 mm 0.00 in0.0 mm 0.58 in14.7 mm
05:58 PM 46.7°F8.2°C 45.4°F7.4°C 95% 2.0 mph WNW3.2 kmh WNW -- 29.66 in1004.4 mb 0.00 in0.0 mm 0.00 in0.0 mm 0.58 in14.7 mm
05:59 PM 46.7°F8.2°C 45.4°F7.4°C 95% 1.0 mph NNW1.6 kmh NNW -- 29.66 in1004.4 mb 0.00 in0.0 mm 0.00 in0.0 mm 0.58 in14.7 mm
06:02 PM 46.8°F8.2°C 45.4°F7.4°C 95% 5.0 mph W8.0 kmh W -- 29.66 in1004.4 mb 0.00 in0.0 mm 0.00 in0.0 mm 0.58 in14.7 mm
06:05 PM 46.7°F8.2°C 45.4°F7.4°C 95% 1.0 mph WNW1.6 kmh WNW -- 29.66 in1004.4 mb 0.00 in0.0 mm 0.00 in0.0 mm 0.58 in14.7 mm
06:06 PM 46.7°F8.2°C 45.4°F7.4°C 95% 4.0 mph WNW6.4 kmh WNW -- 29.66 in1004.4 mb 0.00 in0.0 mm 0.00 in0.0 mm 0.58 in14.7 mm
06:07 PM 46.7°F8.2°C 45.4°F7.4°C 95% 1.0 mph W1.6 kmh W -- 29.66 in1004.4 mb 0.00 in0.0 mm 0.00 in0.0 mm 0.58 in14.7 mm
06:08 PM 46.7°F8.2°C 45.4°F7.4°C 95% 5.0 mph WSW8.0 kmh WSW -- 29.66 in1004.4 mb 0.00 in0.0 mm 0.00 in0.0 mm 0.58 in14.7 mm
06:09 PM 46.7°F8.2°C 45.4°F7.4°C 95% Calm Calm -- 29.66 in1004.4 mb 0.00 in0.0 mm 0.00 in0.0 mm 0.58 in14.7 mm
06:10 PM 46.7°F8.2°C 45.4°F7.4°C 95% Calm Calm -- 29.66 in1004.4 mb 0.00 in0.0 mm 0.00 in0.0 mm 0.58 in14.7 mm
06:11 PM 46.7°F8.2°C 45.4°F7.4°C 95% 5.0 mph W8.0 kmh W -- 29.66 in1004.4 mb 0.00 in0.0 mm 0.00 in0.0 mm 0.58 in14.7 mm
06:12 PM 46.7°F8.2°C 45.4°F7.4°C 95% Calm Calm -- 29.66 in1004.4 mb 0.00 in0.0 mm 0.00 in0.0 mm 0.58 in14.7 mm
06:13 PM 46.9°F8.3°C 45.6°F7.6°C 95% 1.0 mph WNW1.6 kmh WNW -- 29.66 in1004.4 mb 0.00 in0.0 mm 0.00 in0.0 mm 0.58 in14.7 mm
06:15 PM 46.9°F8.3°C 45.6°F7.6°C 95% 2.0 mph W3.2 kmh W -- 29.65 in1004.1 mb 0.00 in0.0 mm 0.00 in0.0 mm 0.58 in14.7 mm
06:17 PM 46.9°F8.3°C 45.6°F7.6°C 95% Calm Calm -- 29.65 in1004.1 mb 0.00 in0.0 mm 0.00 in0.0 mm 0.58 in14.7 mm
06:19 PM 46.9°F8.3°C 45.6°F7.6°C 95% 1.0 mph WSW1.6 kmh WSW -- 29.66 in1004.4 mb 0.00 in0.0 mm 0.00 in0.0 mm 0.58 in14.7 mm
06:20 PM 46.9°F8.3°C 45.6°F7.6°C 95% 1.0 mph W1.6 kmh W -- 29.66 in1004.4 mb 0.00 in0.0 mm 0.00 in0.0 mm 0.58 in14.7 mm
06:21 PM 46.9°F8.3°C 45.6°F7.6°C 95% 2.0 mph W3.2 kmh W -- 29.66 in1004.4 mb 0.00 in0.0 mm 0.00 in0.0 mm 0.58 in14.7 mm
06:22 PM 46.9°F8.3°C 45.6°F7.6°C 95% 6.0 mph W9.7 kmh W -- 29.66 in1004.4 mb 0.00 in0.0 mm 0.00 in0.0 mm 0.58 in14.7 mm
06:23 PM 46.9°F8.3°C 45.6°F7.6°C 95% 4.0 mph W6.4 kmh W -- 29.66 in1004.4 mb 0.00 in0.0 mm 0.00 in0.0 mm 0.58 in14.7 mm
06:24 PM 46.9°F8.3°C 45.6°F7.6°C 95% 5.0 mph W8.0 kmh W -- 29.66 in1004.4 mb 0.00 in0.0 mm 0.00 in0.0 mm 0.58 in14.7 mm
06:25 PM 46.9°F8.3°C 45.6°F7.6°C 95% 11.0 mph W17.7 kmh W -- 29.66 in1004.4 mb 0.00 in0.0 mm 0.00 in0.0 mm 0.58 in14.7 mm
06:26 PM 46.9°F8.3°C 45.6°F7.6°C 95% 8.0 mph NW12.9 kmh NW -- 29.66 in1004.4 mb 0.00 in0.0 mm 0.00 in0.0 mm 0.58 in14.7 mm
06:27 PM 46.9°F8.3°C 45.6°F7.6°C 95% 2.0 mph 3.2 kmh -- 29.66 in1004.4 mb 0.00 in0.0 mm 0.00 in0.0 mm 0.58 in14.7 mm
06:28 PM 46.9°F8.3°C 45.6°F7.6°C 95% 7.0 mph W11.3 kmh W -- 29.66 in1004.4 mb 0.00 in0.0 mm 0.00 in0.0 mm 0.58 in14.7 mm
06:30 PM 46.9°F8.3°C 45.6°F7.6°C 95% Calm Calm -- 29.66 in1004.4 mb 0.00 in0.0 mm 0.00 in0.0 mm 0.58 in14.7 mm
06:31 PM 47.1°F8.4°C 45.7°F7.6°C 95% 4.0 mph W6.4 kmh W -- 29.66 in1004.4 mb 0.00 in0.0 mm 0.00 in0.0 mm 0.58 in14.7 mm
06:32 PM 47.1°F8.4°C 45.7°F7.6°C 95% 5.0 mph W8.0 kmh W -- 29.66 in1004.4 mb 0.00 in0.0 mm 0.00 in0.0 mm 0.58 in14.7 mm
06:33 PM 47.1°F8.4°C 45.7°F7.6°C 95% 2.0 mph W3.2 kmh W -- 29.66 in1004.4 mb 0.00 in0.0 mm 0.00 in0.0 mm 0.58 in14.7 mm
06:35 PM 47.1°F8.4°C 45.7°F7.6°C 95% 3.0 mph W4.8 kmh W -- 29.66 in1004.4 mb 0.00 in0.0 mm 0.00 in0.0 mm 0.58 in14.7 mm
06:36 PM 47.1°F8.4°C 45.7°F7.6°C 95% 2.0 mph W3.2 kmh W -- 29.66 in1004.4 mb 0.00 in0.0 mm 0.00 in0.0 mm 0.58 in14.7 mm
06:37 PM 47.1°F8.4°C 45.7°F7.6°C 95% Calm Calm -- 29.66 in1004.4 mb 0.00 in0.0 mm 0.00 in0.0 mm 0.58 in14.7 mm
06:38 PM 47.1°F8.4°C 45.7°F7.6°C 95% Calm Calm -- 29.67 in1004.7 mb 0.00 in0.0 mm 0.00 in0.0 mm 0.58 in14.7 mm
06:39 PM 47.1°F8.4°C 45.7°F7.6°C 95% 2.0 mph W3.2 kmh W -- 29.67 in1004.7 mb 0.00 in0.0 mm 0.00 in0.0 mm 0.58 in14.7 mm
06:40 PM 47.1°F8.4°C 45.7°F7.6°C 95% 4.0 mph W6.4 kmh W -- 29.67 in1004.7 mb 0.00 in0.0 mm 0.00 in0.0 mm 0.58 in14.7 mm
06:43 PM 47.1°F8.4°C 45.7°F7.6°C 95% 1.0 mph SW1.6 kmh SW -- 29.67 in1004.7 mb 0.00 in0.0 mm 0.00 in0.0 mm 0.58 in14.7 mm
06:47 PM 46.9°F8.3°C 45.6°F7.6°C 95% 1.0 mph NE1.6 kmh NE -- 29.68 in1005.1 mb 0.00 in0.0 mm 0.00 in0.0 mm 0.58 in14.7 mm
06:48 PM 46.9°F8.3°C 45.6°F7.6°C 95% 12.0 mph NE19.3 kmh NE -- 29.68 in1005.1 mb 0.00 in0.0 mm 0.00 in0.0 mm 0.58 in14.7 mm
06:50 PM 46.9°F8.3°C 45.8°F7.7°C 96% Calm Calm -- 29.67 in1004.7 mb 0.00 in0.0 mm 0.00 in0.0 mm 0.58 in14.7 mm
06:51 PM 46.9°F8.3°C 45.8°F7.7°C 96% 1.0 mph WNW1.6 kmh WNW -- 29.67 in1004.7 mb 0.00 in0.0 mm 0.00 in0.0 mm 0.58 in14.7 mm
06:52 PM 46.9°F8.3°C 45.8°F7.7°C 96% 10.0 mph W16.1 kmh W -- 29.67 in1004.7 mb 0.00 in0.0 mm 0.00 in0.0 mm 0.58 in14.7 mm
06:55 PM 46.9°F8.3°C 45.8°F7.7°C 96% 1.0 mph W1.6 kmh W -- 29.67 in1004.7 mb 0.00 in0.0 mm 0.00 in0.0 mm 0.58 in14.7 mm
06:58 PM 46.9°F8.3°C 45.8°F7.7°C 96% 2.0 mph NW3.2 kmh NW -- 29.67 in1004.7 mb 0.00 in0.0 mm 0.00 in0.0 mm 0.58 in14.7 mm
06:59 PM 46.9°F8.3°C 45.8°F7.7°C 96% 9.0 mph NW14.5 kmh NW -- 29.67 in1004.7 mb 0.00 in0.0 mm 0.00 in0.0 mm 0.58 in14.7 mm
07:02 PM 46.9°F8.3°C 45.8°F7.7°C 96% 2.0 mph W3.2 kmh W -- 29.67 in1004.7 mb 0.00 in0.0 mm 0.00 in0.0 mm 0.58 in14.7 mm
07:03 PM 46.9°F8.3°C 45.8°F7.7°C 96% 7.0 mph WNW11.3 kmh WNW -- 29.67 in1004.7 mb 0.00 in0.0 mm 0.00 in0.0 mm 0.58 in14.7 mm
07:06 PM 46.9°F8.3°C 45.8°F7.7°C 96% 2.0 mph WNW3.2 kmh WNW -- 29.68 in1005.1 mb 0.00 in0.0 mm 0.00 in0.0 mm 0.58 in14.7 mm
07:07 PM 46.9°F8.3°C 45.8°F7.7°C 96% 2.0 mph W3.2 kmh W -- 29.68 in1005.1 mb 0.00 in0.0 mm 0.00 in0.0 mm 0.58 in14.7 mm
07:08 PM 46.9°F8.3°C 45.8°F7.7°C 96% 1.0 mph 1.6 kmh -- 29.67 in1004.7 mb 0.00 in0.0 mm 0.00 in0.0 mm 0.58 in14.7 mm
07:09 PM 46.9°F8.3°C 45.8°F7.7°C 96% 1.0 mph NW1.6 kmh NW -- 29.67 in1004.7 mb 0.00 in0.0 mm 0.00 in0.0 mm 0.58 in14.7 mm
07:10 PM 46.9°F8.3°C 45.8°F7.7°C 96% 14.0 mph NNW22.5 kmh NNW -- 29.67 in1004.7 mb 0.00 in0.0 mm 0.00 in0.0 mm 0.58 in14.7 mm
07:11 PM 46.9°F8.3°C 45.8°F7.7°C 96% 4.0 mph W6.4 kmh W -- 29.67 in1004.7 mb 0.00 in0.0 mm 0.00 in0.0 mm 0.58 in14.7 mm
07:13 PM 46.9°F8.3°C 45.8°F7.7°C 96% Calm Calm -- 29.67 in1004.7 mb 0.00 in0.0 mm 0.00 in0.0 mm 0.58 in14.7 mm
07:14 PM 46.9°F8.3°C 45.8°F7.7°C 96% 1.0 mph W1.6 kmh W -- 29.67 in1004.7 mb 0.00 in0.0 mm 0.00 in0.0 mm 0.58 in14.7 mm
07:16 PM 46.9°F8.3°C 45.8°F7.7°C 96% Calm Calm -- 29.67 in1004.7 mb 0.00 in0.0 mm 0.00 in0.0 mm 0.58 in14.7 mm
07:17 PM 46.8°F8.2°C 45.9°F7.7°C 97% 8.0 mph W12.9 kmh W -- 29.67 in1004.7 mb 0.00 in0.0 mm 0.00 in0.0 mm 0.58 in14.7 mm
07:24 PM 46.5°F8.1°C 45.5°F7.5°C 96% 3.0 mph NW4.8 kmh NW -- 29.67 in1004.7 mb 0.00 in0.0 mm 0.00 in0.0 mm 0.58 in14.7 mm
07:25 PM 46.5°F8.1°C 45.5°F7.5°C 96% 1.0 mph W1.6 kmh W -- 29.67 in1004.7 mb 0.01 in0.3 mm 0.60 in15.2 mm 0.59 in15.0 mm
07:26 PM 46.5°F8.1°C 45.5°F7.5°C 96% Calm Calm -- 29.67 in1004.7 mb 0.01 in0.3 mm 0.00 in0.0 mm 0.59 in15.0 mm
07:27 PM 46.5°F8.1°C 45.5°F7.5°C 96% 3.0 mph NW4.8 kmh NW -- 29.67 in1004.7 mb 0.01 in0.3 mm 0.00 in0.0 mm 0.59 in15.0 mm
07:32 PM 46.5°F8.1°C 45.5°F7.5°C 96% 2.0 mph W3.2 kmh W -- 29.67 in1004.7 mb 0.01 in0.3 mm 0.00 in0.0 mm 0.59 in15.0 mm
07:37 PM 46.4°F8.0°C 45.6°F7.6°C 97% Calm Calm -- 29.67 in1004.7 mb 0.02 in0.5 mm 0.12 in3.0 mm 0.60 in15.2 mm
07:44 PM 46.4°F8.0°C 45.6°F7.6°C 97% Calm Calm -- 29.67 in1004.7 mb 0.02 in0.5 mm 0.00 in0.0 mm 0.60 in15.2 mm
07:47 PM 46.4°F8.0°C 45.6°F7.6°C 97% 4.0 mph WNW6.4 kmh WNW -- 29.67 in1004.7 mb 0.02 in0.5 mm 0.00 in0.0 mm 0.60 in15.2 mm
07:53 PM 46.2°F7.9°C 45.4°F7.4°C 97% 3.0 mph NW4.8 kmh NW -- 29.67 in1004.7 mb 0.03 in0.8 mm 0.10 in2.5 mm 0.61 in15.5 mm
07:55 PM 46.1°F7.8°C 44.9°F7.2°C 96% 1.0 mph NW1.6 kmh NW -- 29.67 in1004.7 mb 0.03 in0.8 mm 0.00 in0.0 mm 0.61 in15.5 mm
07:57 PM 46.2°F7.9°C 45.4°F7.4°C 97% 1.0 mph NW1.6 kmh NW -- 29.67 in1004.7 mb 0.03 in0.8 mm 0.00 in0.0 mm 0.61 in15.5 mm
08:02 PM 46.0°F7.8°C 45.2°F7.3°C 97% 1.0 mph NNW1.6 kmh NNW -- 29.67 in1004.7 mb 0.03 in0.8 mm 0.00 in0.0 mm 0.61 in15.5 mm
08:09 PM 46.0°F7.8°C 45.2°F7.3°C 97% 4.0 mph W6.4 kmh W -- 29.67 in1004.7 mb 0.03 in0.8 mm 0.00 in0.0 mm 0.61 in15.5 mm
08:10 PM 45.9°F7.7°C 44.8°F7.1°C 96% 8.0 mph W12.9 kmh W -- 29.67 in1004.7 mb 0.03 in0.8 mm 0.00 in0.0 mm 0.61 in15.5 mm
08:12 PM 45.9°F7.7°C 44.8°F7.1°C 96% Calm Calm -- 29.67 in1004.7 mb 0.00 in0.0 mm 0.00 in0.0 mm 0.61 in15.5 mm
08:13 PM 45.9°F7.7°C 44.8°F7.1°C 96% 2.0 mph W3.2 kmh W -- 29.67 in1004.7 mb 0.00 in0.0 mm 0.00 in0.0 mm 0.61 in15.5 mm
08:14 PM 45.9°F7.7°C 44.8°F7.1°C 96% 5.0 mph NW8.0 kmh NW -- 29.67 in1004.7 mb 0.00 in0.0 mm 0.00 in0.0 mm 0.61 in15.5 mm
08:15 PM 45.9°F7.7°C 44.8°F7.1°C 96% Calm Calm -- 29.67 in1004.7 mb 0.00 in0.0 mm 0.00 in0.0 mm 0.61 in15.5 mm
08:16 PM 45.9°F7.7°C 44.8°F7.1°C 96% 1.0 mph NW1.6 kmh NW -- 29.67 in1004.7 mb 0.00 in0.0 mm 0.00 in0.0 mm 0.61 in15.5 mm
08:17 PM 46.0°F7.8°C 45.2°F7.3°C 97% 4.0 mph W6.4 kmh W -- 29.67 in1004.7 mb 0.00 in0.0 mm 0.00 in0.0 mm 0.61 in15.5 mm
08:20 PM 46.0°F7.8°C 45.2°F7.3°C 97% Calm Calm -- 29.68 in1005.1 mb 0.00 in0.0 mm 0.00 in0.0 mm 0.61 in15.5 mm
08:22 PM 46.0°F7.8°C 45.2°F7.3°C 97% 7.0 mph WNW11.3 kmh WNW -- 29.67 in1004.7 mb 0.00 in0.0 mm 0.00 in0.0 mm 0.61 in15.5 mm
08:25 PM 46.0°F7.8°C 45.2°F7.3°C 97% Calm Calm -- 29.67 in1004.7 mb 0.00 in0.0 mm 0.00 in0.0 mm 0.61 in15.5 mm
08:30 PM 46.0°F7.8°C 45.2°F7.3°C 97% 1.0 mph W1.6 kmh W -- 29.67 in1004.7 mb 0.02 in0.5 mm 0.24 in6.1 mm 0.61 in15.5 mm
08:32 PM 46.0°F7.8°C 45.2°F7.3°C 97% 4.0 mph W6.4 kmh W -- 29.67 in1004.7 mb 0.01 in0.3 mm 0.00 in0.0 mm 0.61 in15.5 mm
08:40 PM 46.0°F7.8°C 45.2°F7.3°C 97% 1.0 mph W1.6 kmh W -- 29.67 in1004.7 mb 0.01 in0.3 mm 0.00 in0.0 mm 0.61 in15.5 mm
08:43 PM 46.0°F7.8°C 45.2°F7.3°C 97% 8.0 mph W12.9 kmh W -- 29.67 in1004.7 mb 0.00 in0.0 mm 0.00 in0.0 mm 0.61 in15.5 mm
08:44 PM 45.9°F7.7°C 44.8°F7.1°C 96% 2.0 mph W3.2 kmh W -- 29.68 in1005.1 mb 0.00 in0.0 mm 0.00 in0.0 mm 0.61 in15.5 mm
08:45 PM 45.9°F7.7°C 44.8°F7.1°C 96% Calm Calm -- 29.68 in1005.1 mb 0.00 in0.0 mm 0.00 in0.0 mm 0.61 in15.5 mm
08:46 PM 45.9°F7.7°C 44.8°F7.1°C 96% 1.0 mph WNW1.6 kmh WNW -- 29.68 in1005.1 mb 0.00 in0.0 mm 0.00 in0.0 mm 0.61 in15.5 mm
08:47 PM 46.0°F7.8°C 45.2°F7.3°C 97% Calm Calm -- 29.68 in1005.1 mb 0.00 in0.0 mm 0.00 in0.0 mm 0.61 in15.5 mm
08:49 PM 46.0°F7.8°C 45.2°F7.3°C 97% Calm Calm -- 29.67 in1004.7 mb 0.00 in0.0 mm 0.00 in0.0 mm 0.61 in15.5 mm
08:50 PM 45.9°F7.7°C 44.8°F7.1°C 96% 1.0 mph WNW1.6 kmh WNW -- 29.68 in1005.1 mb 0.00 in0.0 mm 0.00 in0.0 mm 0.61 in15.5 mm
08:51 PM 45.9°F7.7°C 44.8°F7.1°C 96% Calm Calm -- 29.68 in1005.1 mb 0.00 in0.0 mm 0.00 in0.0 mm 0.61 in15.5 mm
08:52 PM 45.9°F7.7°C 45.0°F7.2°C 97% Calm Calm -- 29.68 in1005.1 mb 0.00 in0.0 mm 0.00 in0.0 mm 0.61 in15.5 mm
08:57 PM 45.9°F7.7°C 45.0°F7.2°C 97% Calm Calm -- 29.68 in1005.1 mb 0.00 in0.0 mm 0.00 in0.0 mm 0.61 in15.5 mm
08:58 PM 45.9°F7.7°C 44.8°F7.1°C 96% Calm Calm -- 29.68 in1005.1 mb 0.00 in0.0 mm 0.00 in0.0 mm 0.61 in15.5 mm
09:02 PM 45.9°F7.7°C 45.0°F7.2°C 97% Calm Calm -- 29.68 in1005.1 mb 0.00 in0.0 mm 0.00 in0.0 mm 0.61 in15.5 mm
09:05 PM 45.9°F7.7°C 44.8°F7.1°C 96% 1.0 mph NW1.6 kmh NW -- 29.67 in1004.7 mb 0.00 in0.0 mm 0.00 in0.0 mm 0.62 in15.7 mm
09:07 PM 45.9°F7.7°C 45.0°F7.2°C 97% 1.0 mph NW1.6 kmh NW -- 29.67 in1004.7 mb 0.01 in0.3 mm 0.30 in7.6 mm 0.62 in15.7 mm
09:12 PM 45.7°F7.6°C 44.9°F7.2°C 97% Calm Calm -- 29.67 in1004.7 mb 0.01 in0.3 mm 0.00 in0.0 mm 0.62 in15.7 mm
09:14 PM 45.7°F7.6°C 44.9°F7.2°C 97% Calm Calm -- 29.67 in1004.7 mb 0.00 in0.0 mm 0.00 in0.0 mm 0.62 in15.7 mm
09:15 PM 45.7°F7.6°C 45.1°F7.3°C 98% Calm Calm -- 29.67 in1004.7 mb 0.00 in0.0 mm 0.00 in0.0 mm 0.62 in15.7 mm
09:16 PM 45.7°F7.6°C 45.1°F7.3°C 98% Calm Calm -- 29.67 in1004.7 mb 0.00 in0.0 mm 0.00 in0.0 mm 0.62 in15.7 mm
09:20 PM 45.7°F7.6°C 45.1°F7.3°C 98% Calm Calm -- 29.68 in1005.1 mb 0.00 in0.0 mm 0.00 in0.0 mm 0.62 in15.7 mm
09:22 PM 45.7°F7.6°C 45.1°F7.3°C 98% 1.0 mph W1.6 kmh W -- 29.68 in1005.1 mb 0.01 in0.3 mm 0.30 in7.6 mm 0.62 in15.7 mm
09:27 PM 45.7°F7.6°C 45.1°F7.3°C 98% Calm Calm -- 29.68 in1005.1 mb 0.01 in0.3 mm 0.00 in0.0 mm 0.62 in15.7 mm
09:35 PM 45.7°F7.6°C 45.1°F7.3°C 98% 3.0 mph W4.8 kmh W -- 29.68 in1005.1 mb 0.01 in0.3 mm 0.00 in0.0 mm 0.62 in15.7 mm
09:38 PM 45.5°F7.5°C 45.0°F7.2°C 98% Calm Calm -- 29.68 in1005.1 mb 0.00 in0.0 mm 0.00 in0.0 mm 0.62 in15.7 mm
09:40 PM 45.5°F7.5°C 45.0°F7.2°C 98% 2.0 mph NNW3.2 kmh NNW -- 29.67 in1004.7 mb 0.00 in0.0 mm 0.00 in0.0 mm 0.62 in15.7 mm
09:42 PM 45.5°F7.5°C 45.0°F7.2°C 98% 1.0 mph W1.6 kmh W -- 29.68 in1005.1 mb 0.02 in0.5 mm 0.60 in15.2 mm 0.63 in16.0 mm
09:43 PM 45.5°F7.5°C 45.0°F7.2°C 98% Calm Calm -- 29.68 in1005.1 mb 0.01 in0.3 mm 0.00 in0.0 mm 0.63 in16.0 mm
09:44 PM 45.5°F7.5°C 45.0°F7.2°C 98% Calm Calm -- 29.67 in1004.7 mb 0.01 in0.3 mm 0.00 in0.0 mm 0.63 in16.0 mm
09:45 PM 45.5°F7.5°C 45.0°F7.2°C 98% Calm Calm -- 29.68 in1005.1 mb 0.01 in0.3 mm 0.00 in0.0 mm 0.63 in16.0 mm
09:46 PM 45.5°F7.5°C 45.0°F7.2°C 98% 1.0 mph W1.6 kmh W -- 29.68 in1005.1 mb 0.01 in0.3 mm 0.00 in0.0 mm 0.63 in16.0 mm
09:47 PM 45.5°F7.5°C 45.0°F7.2°C 98% Calm Calm -- 29.68 in1005.1 mb 0.01 in0.3 mm 0.00 in0.0 mm 0.63 in16.0 mm
09:53 PM 45.5°F7.5°C 45.0°F7.2°C 98% 2.0 mph W3.2 kmh W -- 29.68 in1005.1 mb 0.02 in0.5 mm 0.10 in2.5 mm 0.63 in16.0 mm
09:57 PM 45.5°F7.5°C 45.0°F7.2°C 98% Calm Calm -- 29.68 in1005.1 mb 0.02 in0.5 mm 0.00 in0.0 mm 0.63 in16.0 mm
09:58 PM 45.5°F7.5°C 45.0°F7.2°C 98% 1.0 mph WNW1.6 kmh WNW -- 29.67 in1004.7 mb 0.01 in0.3 mm 0.00 in0.0 mm 0.63 in16.0 mm
09:59 PM 45.5°F7.5°C 45.0°F7.2°C 98% Calm Calm -- 29.68 in1005.1 mb 0.01 in0.3 mm 0.00 in0.0 mm 0.63 in16.0 mm
10:00 PM 45.5°F7.5°C 45.0°F7.2°C 98% Calm Calm -- 29.68 in1005.1 mb 0.01 in0.3 mm 0.00 in0.0 mm 0.63 in16.0 mm
10:01 PM 45.5°F7.5°C 45.0°F7.2°C 98% 1.0 mph NNW1.6 kmh NNW -- 29.68 in1005.1 mb 0.01 in0.3 mm 0.00 in0.0 mm 0.63 in16.0 mm
10:03 PM 45.5°F7.5°C 45.0°F7.2°C 98% Calm Calm -- 29.68 in1005.1 mb 0.00 in0.0 mm 0.00 in0.0 mm 0.63 in16.0 mm
10:07 PM 45.5°F7.5°C 45.0°F7.2°C 98% Calm Calm -- 29.68 in1005.1 mb 0.01 in0.3 mm 0.15 in3.8 mm 0.63 in16.0 mm
10:08 PM 45.5°F7.5°C 45.0°F7.2°C 98% Calm Calm -- 29.67 in1004.7 mb 0.00 in0.0 mm 0.00 in0.0 mm 0.63 in16.0 mm
10:12 PM 45.5°F7.5°C 45.0°F7.2°C 98% Calm Calm -- 29.68 in1005.1 mb 0.01 in0.3 mm 0.15 in3.8 mm 0.64 in16.3 mm
10:16 PM 45.5°F7.5°C 45.0°F7.2°C 98% Calm Calm -- 29.68 in1005.1 mb 0.01 in0.3 mm 0.00 in0.0 mm 0.64 in16.3 mm
10:17 PM 45.5°F7.5°C 45.0°F7.2°C 98% 3.0 mph W4.8 kmh W -- 29.68 in1005.1 mb 0.02 in0.5 mm 0.60 in15.2 mm 0.64 in16.3 mm
10:18 PM 45.5°F7.5°C 45.0°F7.2°C 98% Calm Calm -- 29.67 in1004.7 mb 0.02 in0.5 mm 0.00 in0.0 mm 0.64 in16.3 mm
10:23 PM 45.5°F7.5°C 45.0°F7.2°C 98% Calm Calm -- 29.68 in1005.1 mb 0.01 in0.3 mm 0.00 in0.0 mm 0.64 in16.3 mm
10:24 PM 45.5°F7.5°C 45.0°F7.2°C 98% 3.0 mph W4.8 kmh W -- 29.68 in1005.1 mb 0.01 in0.3 mm 0.00 in0.0 mm 0.64 in16.3 mm
10:27 PM 45.5°F7.5°C 45.0°F7.2°C 98% Calm Calm -- 29.68 in1005.1 mb 0.01 in0.3 mm 0.00 in0.0 mm 0.64 in16.3 mm
10:29 PM 45.5°F7.5°C 45.0°F7.2°C 98% 4.0 mph WNW6.4 kmh WNW -- 29.68 in1005.1 mb 0.01 in0.3 mm 0.00 in0.0 mm 0.64 in16.3 mm
10:30 PM 45.5°F7.5°C 45.0°F7.2°C 98% Calm Calm -- 29.68 in1005.1 mb 0.01 in0.3 mm 0.00 in0.0 mm 0.64 in16.3 mm
10:31 PM 45.5°F7.5°C 45.0°F7.2°C 98% Calm Calm -- 29.68 in1005.1 mb 0.01 in0.3 mm 0.00 in0.0 mm 0.64 in16.3 mm
10:32 PM 45.5°F7.5°C 45.0°F7.2°C 98% Calm Calm -- 29.68 in1005.1 mb 0.01 in0.3 mm 0.00 in0.0 mm 0.64 in16.3 mm
10:34 PM 45.5°F7.5°C 45.0°F7.2°C 98% Calm Calm -- 29.68 in1005.1 mb 0.01 in0.3 mm 0.00 in0.0 mm 0.64 in16.3 mm
10:37 PM 45.5°F7.5°C 45.0°F7.2°C 98% Calm Calm -- 29.68 in1005.1 mb 0.01 in0.3 mm 0.00 in0.0 mm 0.64 in16.3 mm
10:38 PM 45.5°F7.5°C 45.0°F7.2°C 98% Calm Calm -- 29.68 in1005.1 mb 0.01 in0.3 mm 0.00 in0.0 mm 0.64 in16.3 mm
10:40 PM 45.5°F7.5°C 45.0°F7.2°C 98% 6.0 mph W9.7 kmh W -- 29.68 in1005.1 mb 0.01 in0.3 mm 0.00 in0.0 mm 0.64 in16.3 mm
10:41 PM 45.5°F7.5°C 45.0°F7.2°C 98% Calm Calm -- 29.68 in1005.1 mb 0.01 in0.3 mm 0.00 in0.0 mm 0.64 in16.3 mm
10:42 PM 45.5°F7.5°C 45.0°F7.2°C 98% Calm Calm -- 29.68 in1005.1 mb 0.01 in0.3 mm 0.00 in0.0 mm 0.64 in16.3 mm
10:43 PM 45.5°F7.5°C 45.0°F7.2°C 98% Calm Calm -- 29.68 in1005.1 mb 0.01 in0.3 mm 0.00 in0.0 mm 0.64 in16.3 mm
10:45 PM 45.5°F7.5°C 45.0°F7.2°C 98% Calm Calm -- 29.68 in1005.1 mb 0.01 in0.3 mm 0.00 in0.0 mm 0.64 in16.3 mm
10:46 PM 45.5°F7.5°C 45.0°F7.2°C 98% Calm Calm -- 29.68 in1005.1 mb 0.01 in0.3 mm 0.00 in0.0 mm 0.64 in16.3 mm
10:47 PM 45.5°F7.5°C 45.0°F7.2°C 98% Calm Calm -- 29.68 in1005.1 mb 0.01 in0.3 mm 0.00 in0.0 mm 0.64 in16.3 mm
10:48 PM 45.5°F7.5°C 45.0°F7.2°C 98% 2.0 mph W3.2 kmh W -- 29.68 in1005.1 mb 0.01 in0.3 mm 0.00 in0.0 mm 0.64 in16.3 mm
10:49 PM 45.5°F7.5°C 45.0°F7.2°C 98% Calm Calm -- 29.68 in1005.1 mb 0.01 in0.3 mm 0.00 in0.0 mm 0.64 in16.3 mm
10:50 PM 45.5°F7.5°C 45.0°F7.2°C 98% 2.0 mph WNW3.2 kmh WNW -- 29.68 in1005.1 mb 0.01 in0.3 mm 0.00 in0.0 mm 0.64 in16.3 mm
10:51 PM 45.5°F7.5°C 45.0°F7.2°C 98% Calm Calm -- 29.68 in1005.1 mb 0.01 in0.3 mm 0.00 in0.0 mm 0.64 in16.3 mm
10:52 PM 45.5°F7.5°C 45.0°F7.2°C 98% 1.0 mph NW1.6 kmh NW -- 29.68 in1005.1 mb 0.01 in0.3 mm 0.00 in0.0 mm 0.64 in16.3 mm
10:53 PM 45.5°F7.5°C 45.0°F7.2°C 98% Calm Calm -- 29.68 in1005.1 mb 0.01 in0.3 mm 0.00 in0.0 mm 0.64 in16.3 mm
10:55 PM 45.5°F7.5°C 45.0°F7.2°C 98% Calm Calm -- 29.68 in1005.1 mb 0.01 in0.3 mm 0.00 in0.0 mm 0.64 in16.3 mm
10:56 PM 45.5°F7.5°C 45.0°F7.2°C 98% 1.0 mph WNW1.6 kmh WNW -- 29.68 in1005.1 mb 0.01 in0.3 mm 0.00 in0.0 mm 0.64 in16.3 mm
10:57 PM 45.5°F7.5°C 45.0°F7.2°C 98% Calm Calm -- 29.68 in1005.1 mb 0.01 in0.3 mm 0.00 in0.0 mm 0.64 in16.3 mm
10:58 PM 45.5°F7.5°C 45.0°F7.2°C 98% 1.0 mph WNW1.6 kmh WNW -- 29.68 in1005.1 mb 0.01 in0.3 mm 0.00 in0.0 mm 0.64 in16.3 mm
10:59 PM 45.5°F7.5°C 45.0°F7.2°C 98% 1.0 mph W1.6 kmh W -- 29.68 in1005.1 mb 0.01 in0.3 mm 0.00 in0.0 mm 0.64 in16.3 mm
11:00 PM 45.5°F7.5°C 45.0°F7.2°C 98% Calm Calm -- 29.69 in1005.4 mb 0.01 in0.3 mm 0.00 in0.0 mm 0.64 in16.3 mm
11:02 PM 45.5°F7.5°C 45.0°F7.2°C 98% Calm Calm -- 29.69 in1005.4 mb 0.00 in0.0 mm 0.00 in0.0 mm 0.64 in16.3 mm
11:03 PM 45.5°F7.5°C 45.0°F7.2°C 98% Calm Calm -- 29.69 in1005.4 mb 0.00 in0.0 mm 0.00 in0.0 mm 0.64 in16.3 mm
11:04 PM 45.5°F7.5°C 45.0°F7.2°C 98% Calm Calm -- 29.69 in1005.4 mb 0.00 in0.0 mm 0.00 in0.0 mm 0.64 in16.3 mm
11:05 PM 45.5°F7.5°C 45.0°F7.2°C 98% Calm Calm -- 29.69 in1005.4 mb 0.00 in0.0 mm 0.00 in0.0 mm 0.64 in16.3 mm
11:08 PM 45.5°F7.5°C 45.0°F7.2°C 98% Calm Calm -- 29.69 in1005.4 mb 0.00 in0.0 mm 0.00 in0.0 mm 0.64 in16.3 mm
11:10 PM 45.5°F7.5°C 45.0°F7.2°C 98% Calm Calm -- 29.69 in1005.4 mb 0.00 in0.0 mm 0.00 in0.0 mm 0.64 in16.3 mm
11:11 PM 45.5°F7.5°C 45.0°F7.2°C 98% Calm Calm -- 29.69 in1005.4 mb 0.00 in0.0 mm 0.00 in0.0 mm 0.64 in16.3 mm
11:12 PM 45.5°F7.5°C 45.0°F7.2°C 98% 1.0 mph W1.6 kmh W -- 29.69 in1005.4 mb 0.00 in0.0 mm 0.00 in0.0 mm 0.64 in16.3 mm
11:13 PM 45.5°F7.5°C 45.0°F7.2°C 98% Calm Calm -- 29.69 in1005.4 mb 0.00 in0.0 mm 0.00 in0.0 mm 0.64 in16.3 mm
11:14 PM 45.5°F7.5°C 45.0°F7.2°C 98% Calm Calm -- 29.69 in1005.4 mb 0.00 in0.0 mm 0.00 in0.0 mm 0.64 in16.3 mm
11:15 PM 45.5°F7.5°C 45.0°F7.2°C 98% Calm Calm -- 29.69 in1005.4 mb 0.00 in0.0 mm 0.00 in0.0 mm 0.64 in16.3 mm
11:17 PM 45.5°F7.5°C 45.0°F7.2°C 98% Calm Calm -- 29.69 in1005.4 mb 0.00 in0.0 mm 0.00 in0.0 mm 0.64 in16.3 mm
11:18 PM 45.5°F7.5°C 45.0°F7.2°C 98% 1.0 mph W1.6 kmh W -- 29.69 in1005.4 mb 0.00 in0.0 mm 0.00 in0.0 mm 0.64 in16.3 mm
11:19 PM 45.5°F7.5°C 45.0°F7.2°C 98% Calm Calm -- 29.69 in1005.4 mb 0.00 in0.0 mm 0.00 in0.0 mm 0.64 in16.3 mm
11:21 PM 45.5°F7.5°C 45.0°F7.2°C 98% Calm Calm -- 29.69 in1005.4 mb 0.00 in0.0 mm 0.00 in0.0 mm 0.64 in16.3 mm
11:22 PM 45.5°F7.5°C 45.0°F7.2°C 98% Calm Calm -- 29.69 in1005.4 mb 0.00 in0.0 mm 0.00 in0.0 mm 0.64 in16.3 mm
11:23 PM 45.5°F7.5°C 45.0°F7.2°C 98% Calm Calm -- 29.69 in1005.4 mb 0.00 in0.0 mm 0.00 in0.0 mm 0.64 in16.3 mm
11:24 PM 45.5°F7.5°C 45.0°F7.2°C 98% Calm Calm -- 29.68 in1005.1 mb 0.00 in0.0 mm 0.00 in0.0 mm 0.64 in16.3 mm
11:25 PM 45.5°F7.5°C 45.0°F7.2°C 98% Calm Calm -- 29.68 in1005.1 mb 0.00 in0.0 mm 0.00 in0.0 mm 0.64 in16.3 mm
11:27 PM 45.5°F7.5°C 45.0°F7.2°C 98% Calm Calm -- 29.68 in1005.1 mb 0.00 in0.0 mm 0.00 in0.0 mm 0.64 in16.3 mm
11:28 PM 45.5°F7.5°C 45.0°F7.2°C 98% Calm Calm -- 29.68 in1005.1 mb 0.00 in0.0 mm 0.00 in0.0 mm 0.64 in16.3 mm
11:29 PM 45.5°F7.5°C 45.0°F7.2°C 98% Calm Calm -- 29.68 in1005.1 mb 0.00 in0.0 mm 0.00 in0.0 mm 0.64 in16.3 mm
11:30 PM 45.5°F7.5°C 45.0°F7.2°C 98% Calm Calm -- 29.68 in1005.1 mb 0.00 in0.0 mm 0.00 in0.0 mm 0.64 in16.3 mm
11:32 PM 45.5°F7.5°C 45.0°F7.2°C 98% Calm Calm -- 29.69 in1005.4 mb 0.00 in0.0 mm 0.00 in0.0 mm 0.64 in16.3 mm
11:34 PM 45.5°F7.5°C 45.0°F7.2°C 98% Calm Calm -- 29.69 in1005.4 mb 0.00 in0.0 mm 0.00 in0.0 mm 0.64 in16.3 mm
11:35 PM 45.5°F7.5°C 45.0°F7.2°C 98% Calm Calm -- 29.69 in1005.4 mb 0.00 in0.0 mm 0.00 in0.0 mm 0.64 in16.3 mm
11:37 PM 45.5°F7.5°C 45.0°F7.2°C 98% Calm Calm -- 29.69 in1005.4 mb 0.00 in0.0 mm 0.00 in0.0 mm 0.64 in16.3 mm
11:38 PM 45.5°F7.5°C 45.0°F7.2°C 98% Calm Calm -- 29.69 in1005.4 mb 0.00 in0.0 mm 0.00 in0.0 mm 0.64 in16.3 mm
11:39 PM 45.5°F7.5°C 45.0°F7.2°C 98% 3.0 mph W4.8 kmh W -- 29.69 in1005.4 mb 0.00 in0.0 mm 0.00 in0.0 mm 0.64 in16.3 mm
11:40 PM 45.5°F7.5°C 45.0°F7.2°C 98% Calm Calm -- 29.69 in1005.4 mb 0.00 in0.0 mm 0.00 in0.0 mm 0.64 in16.3 mm
11:41 PM 45.5°F7.5°C 45.0°F7.2°C 98% Calm Calm -- 29.68 in1005.1 mb 0.00 in0.0 mm 0.00 in0.0 mm 0.64 in16.3 mm
11:42 PM 45.5°F7.5°C 45.0°F7.2°C 98% Calm Calm -- 29.69 in1005.4 mb 0.00 in0.0 mm 0.00 in0.0 mm 0.64 in16.3 mm
11:43 PM 45.5°F7.5°C 45.0°F7.2°C 98% Calm Calm -- 29.68 in1005.1 mb 0.00 in0.0 mm 0.00 in0.0 mm 0.64 in16.3 mm
11:44 PM 45.5°F7.5°C 45.0°F7.2°C 98% Calm Calm -- 29.68 in1005.1 mb 0.00 in0.0 mm 0.00 in0.0 mm 0.64 in16.3 mm
11:45 PM 45.5°F7.5°C 45.0°F7.2°C 98% Calm Calm -- 29.68 in1005.1 mb 0.00 in0.0 mm 0.00 in0.0 mm 0.64 in16.3 mm
11:48 PM 45.5°F7.5°C 45.0°F7.2°C 98% Calm Calm -- 29.69 in1005.4 mb 0.00 in0.0 mm 0.00 in0.0 mm 0.64 in16.3 mm
11:49 PM 45.5°F7.5°C 45.0°F7.2°C 98% Calm Calm -- 29.69 in1005.4 mb 0.00 in0.0 mm 0.00 in0.0 mm 0.64 in16.3 mm
11:50 PM 45.5°F7.5°C 45.0°F7.2°C 98% Calm Calm -- 29.68 in1005.1 mb 0.00 in0.0 mm 0.00 in0.0 mm 0.64 in16.3 mm
11:51 PM 45.5°F7.5°C 45.0°F7.2°C 98% Calm Calm -- 29.68 in1005.1 mb 0.00 in0.0 mm 0.00 in0.0 mm 0.64 in16.3 mm
11:52 PM 45.5°F7.5°C 45.0°F7.2°C 98% Calm Calm -- 29.68 in1005.1 mb 0.00 in0.0 mm 0.00 in0.0 mm 0.64 in16.3 mm
11:53 PM 45.7°F7.6°C 45.1°F7.3°C 98% Calm Calm -- 29.68 in1005.1 mb 0.00 in0.0 mm 0.00 in0.0 mm 0.64 in16.3 mm
11:55 PM 45.7°F7.6°C 45.1°F7.3°C 98% Calm Calm -- 29.68 in1005.1 mb 0.00 in0.0 mm 0.00 in0.0 mm 0.64 in16.3 mm
11:59 PM 45.7°F7.6°C 45.1°F7.3°C 98% Calm Calm -- 29.68 in1005.1 mb 0.00 in0.0 mm 0.00 in0.0 mm 0.64 in16.3 mm